<?xml version="1.0" encoding="UTF-8" standalone="no" ?>
<gpx xmlns="http://www.topografix.com/GPX/1/1" xmlns:xsi="http://www.w3.org/2001/XMLSchema-instance" xsi:schemaLocation="http://www.topografix.com/GPX/1/1 http://www.topografix.com/GPX/1/1/gpx.xsd" version="1.1" creator="VisuGPX - https://www.visugpx.com">
  <metadata>
    <name>La Sauve sud</name>
    <desc><![CDATA[Randonnée VTT]]></desc>
  </metadata>
  <trk>
    <name><![CDATA[Colineau sauve chartre viera]]></name>
    <trkseg>
      <trkpt lat="44.7566" lon="-0.31154">
        <ele>107</ele>
        <time>2012-12-15T13:26:52Z</time>
      </trkpt>
      <trkpt lat="44.75669" lon="-0.31152">
        <ele>107</ele>
        <time>2012-12-15T13:26:56Z</time>
      </trkpt>
      <trkpt lat="44.75681" lon="-0.31151">
        <ele>108</ele>
        <time>2012-12-15T13:27:01Z</time>
      </trkpt>
      <trkpt lat="44.75691" lon="-0.31152">
        <ele>108</ele>
        <time>2012-12-15T13:27:05Z</time>
      </trkpt>
      <trkpt lat="44.75701" lon="-0.31153">
        <ele>108</ele>
        <time>2012-12-15T13:27:09Z</time>
      </trkpt>
      <trkpt lat="44.75712" lon="-0.31154">
        <ele>109</ele>
        <time>2012-12-15T13:27:14Z</time>
      </trkpt>
      <trkpt lat="44.75722" lon="-0.31152">
        <ele>109</ele>
        <time>2012-12-15T13:27:19Z</time>
      </trkpt>
      <trkpt lat="44.75731" lon="-0.31146">
        <ele>110</ele>
        <time>2012-12-15T13:27:25Z</time>
      </trkpt>
      <trkpt lat="44.75726" lon="-0.31133">
        <ele>110</ele>
        <time>2012-12-15T13:27:30Z</time>
      </trkpt>
      <trkpt lat="44.75722" lon="-0.31119">
        <ele>110</ele>
        <time>2012-12-15T13:27:34Z</time>
      </trkpt>
      <trkpt lat="44.7572" lon="-0.31105">
        <ele>110</ele>
        <time>2012-12-15T13:27:38Z</time>
      </trkpt>
      <trkpt lat="44.75717" lon="-0.31092">
        <ele>110</ele>
        <time>2012-12-15T13:27:42Z</time>
      </trkpt>
      <trkpt lat="44.75715" lon="-0.31078">
        <ele>110</ele>
        <time>2012-12-15T13:27:46Z</time>
      </trkpt>
      <trkpt lat="44.75713" lon="-0.31064">
        <ele>110</ele>
        <time>2012-12-15T13:27:50Z</time>
      </trkpt>
      <trkpt lat="44.75711" lon="-0.31049">
        <ele>110</ele>
        <time>2012-12-15T13:27:54Z</time>
      </trkpt>
      <trkpt lat="44.75709" lon="-0.31033">
        <ele>110</ele>
        <time>2012-12-15T13:27:58Z</time>
      </trkpt>
      <trkpt lat="44.75707" lon="-0.31019">
        <ele>110</ele>
        <time>2012-12-15T13:28:02Z</time>
      </trkpt>
      <trkpt lat="44.75704" lon="-0.31004">
        <ele>110</ele>
        <time>2012-12-15T13:28:06Z</time>
      </trkpt>
      <trkpt lat="44.75703" lon="-0.3099">
        <ele>110</ele>
        <time>2012-12-15T13:28:10Z</time>
      </trkpt>
      <trkpt lat="44.75703" lon="-0.30976">
        <ele>110</ele>
        <time>2012-12-15T13:28:14Z</time>
      </trkpt>
      <trkpt lat="44.75705" lon="-0.30962">
        <ele>110</ele>
        <time>2012-12-15T13:28:18Z</time>
      </trkpt>
      <trkpt lat="44.75708" lon="-0.30949">
        <ele>110</ele>
        <time>2012-12-15T13:28:22Z</time>
      </trkpt>
      <trkpt lat="44.7571" lon="-0.30934">
        <ele>110</ele>
        <time>2012-12-15T13:28:26Z</time>
      </trkpt>
      <trkpt lat="44.7571" lon="-0.30921">
        <ele>110</ele>
        <time>2012-12-15T13:28:30Z</time>
      </trkpt>
      <trkpt lat="44.75712" lon="-0.30907">
        <ele>110</ele>
        <time>2012-12-15T13:28:35Z</time>
      </trkpt>
      <trkpt lat="44.75715" lon="-0.30892">
        <ele>110</ele>
        <time>2012-12-15T13:28:40Z</time>
      </trkpt>
      <trkpt lat="44.75725" lon="-0.30886">
        <ele>111</ele>
        <time>2012-12-15T13:28:45Z</time>
      </trkpt>
      <trkpt lat="44.75736" lon="-0.30887">
        <ele>111</ele>
        <time>2012-12-15T13:28:50Z</time>
      </trkpt>
      <trkpt lat="44.75747" lon="-0.30887">
        <ele>111</ele>
        <time>2012-12-15T13:28:55Z</time>
      </trkpt>
      <trkpt lat="44.75758" lon="-0.30887">
        <ele>111</ele>
        <time>2012-12-15T13:28:59Z</time>
      </trkpt>
      <trkpt lat="44.75768" lon="-0.30886">
        <ele>111</ele>
        <time>2012-12-15T13:29:03Z</time>
      </trkpt>
      <trkpt lat="44.75778" lon="-0.30887">
        <ele>111</ele>
        <time>2012-12-15T13:29:07Z</time>
      </trkpt>
      <trkpt lat="44.75787" lon="-0.30891">
        <ele>111</ele>
        <time>2012-12-15T13:29:11Z</time>
      </trkpt>
      <trkpt lat="44.75794" lon="-0.30901">
        <ele>111</ele>
        <time>2012-12-15T13:29:15Z</time>
      </trkpt>
      <trkpt lat="44.75801" lon="-0.30911">
        <ele>111</ele>
        <time>2012-12-15T13:29:19Z</time>
      </trkpt>
      <trkpt lat="44.75809" lon="-0.3092">
        <ele>111</ele>
        <time>2012-12-15T13:29:23Z</time>
      </trkpt>
      <trkpt lat="44.75816" lon="-0.30931">
        <ele>111</ele>
        <time>2012-12-15T13:29:27Z</time>
      </trkpt>
      <trkpt lat="44.75824" lon="-0.30941">
        <ele>111</ele>
        <time>2012-12-15T13:29:31Z</time>
      </trkpt>
      <trkpt lat="44.75832" lon="-0.30952">
        <ele>111</ele>
        <time>2012-12-15T13:29:36Z</time>
      </trkpt>
      <trkpt lat="44.75838" lon="-0.30961">
        <ele>111</ele>
        <time>2012-12-15T13:29:40Z</time>
      </trkpt>
      <trkpt lat="44.75842" lon="-0.30974">
        <ele>111</ele>
        <time>2012-12-15T13:29:44Z</time>
      </trkpt>
      <trkpt lat="44.75845" lon="-0.30987">
        <ele>111</ele>
        <time>2012-12-15T13:29:48Z</time>
      </trkpt>
      <trkpt lat="44.75849" lon="-0.31001">
        <ele>111</ele>
        <time>2012-12-15T13:29:53Z</time>
      </trkpt>
      <trkpt lat="44.75858" lon="-0.31008">
        <ele>110</ele>
        <time>2012-12-15T13:29:58Z</time>
      </trkpt>
      <trkpt lat="44.75863" lon="-0.3102">
        <ele>110</ele>
        <time>2012-12-15T13:30:02Z</time>
      </trkpt>
      <trkpt lat="44.75866" lon="-0.31032">
        <ele>111</ele>
        <time>2012-12-15T13:30:06Z</time>
      </trkpt>
      <trkpt lat="44.75869" lon="-0.31047">
        <ele>111</ele>
        <time>2012-12-15T13:30:11Z</time>
      </trkpt>
      <trkpt lat="44.75879" lon="-0.31041">
        <ele>110</ele>
        <time>2012-12-15T13:30:17Z</time>
      </trkpt>
      <trkpt lat="44.75875" lon="-0.31029">
        <ele>110</ele>
        <time>2012-12-15T13:30:21Z</time>
      </trkpt>
      <trkpt lat="44.75882" lon="-0.31016">
        <ele>109</ele>
        <time>2012-12-15T13:30:27Z</time>
      </trkpt>
      <trkpt lat="44.75892" lon="-0.31011">
        <ele>109</ele>
        <time>2012-12-15T13:30:31Z</time>
      </trkpt>
      <trkpt lat="44.75903" lon="-0.31004">
        <ele>108</ele>
        <time>2012-12-15T13:30:35Z</time>
      </trkpt>
      <trkpt lat="44.75913" lon="-0.30998">
        <ele>107</ele>
        <time>2012-12-15T13:30:39Z</time>
      </trkpt>
      <trkpt lat="44.75924" lon="-0.30992">
        <ele>106</ele>
        <time>2012-12-15T13:30:43Z</time>
      </trkpt>
      <trkpt lat="44.75935" lon="-0.30986">
        <ele>105</ele>
        <time>2012-12-15T13:30:47Z</time>
      </trkpt>
      <trkpt lat="44.75945" lon="-0.30986">
        <ele>105</ele>
        <time>2012-12-15T13:30:50Z</time>
      </trkpt>
      <trkpt lat="44.75957" lon="-0.30987">
        <ele>105</ele>
        <time>2012-12-15T13:30:54Z</time>
      </trkpt>
      <trkpt lat="44.75967" lon="-0.30993">
        <ele>105</ele>
        <time>2012-12-15T13:30:58Z</time>
      </trkpt>
      <trkpt lat="44.75972" lon="-0.31006">
        <ele>106</ele>
        <time>2012-12-15T13:31:02Z</time>
      </trkpt>
      <trkpt lat="44.75977" lon="-0.31019">
        <ele>106</ele>
        <time>2012-12-15T13:31:06Z</time>
      </trkpt>
      <trkpt lat="44.75988" lon="-0.31024">
        <ele>107</ele>
        <time>2012-12-15T13:31:11Z</time>
      </trkpt>
      <trkpt lat="44.75999" lon="-0.31022">
        <ele>106</ele>
        <time>2012-12-15T13:31:15Z</time>
      </trkpt>
      <trkpt lat="44.7601" lon="-0.3102">
        <ele>106</ele>
        <time>2012-12-15T13:31:19Z</time>
      </trkpt>
      <trkpt lat="44.76019" lon="-0.3102">
        <ele>106</ele>
        <time>2012-12-15T13:31:23Z</time>
      </trkpt>
      <trkpt lat="44.76029" lon="-0.31021">
        <ele>106</ele>
        <time>2012-12-15T13:31:27Z</time>
      </trkpt>
      <trkpt lat="44.7604" lon="-0.31023">
        <ele>106</ele>
        <time>2012-12-15T13:31:32Z</time>
      </trkpt>
      <trkpt lat="44.7605" lon="-0.31027">
        <ele>106</ele>
        <time>2012-12-15T13:31:37Z</time>
      </trkpt>
      <trkpt lat="44.76062" lon="-0.3103">
        <ele>107</ele>
        <time>2012-12-15T13:31:42Z</time>
      </trkpt>
      <trkpt lat="44.76073" lon="-0.31031">
        <ele>106</ele>
        <time>2012-12-15T13:31:47Z</time>
      </trkpt>
      <trkpt lat="44.76082" lon="-0.31035">
        <ele>106</ele>
        <time>2012-12-15T13:31:51Z</time>
      </trkpt>
      <trkpt lat="44.76093" lon="-0.31036">
        <ele>106</ele>
        <time>2012-12-15T13:31:56Z</time>
      </trkpt>
      <trkpt lat="44.76101" lon="-0.31027">
        <ele>106</ele>
        <time>2012-12-15T13:32:01Z</time>
      </trkpt>
      <trkpt lat="44.76101" lon="-0.31013">
        <ele>106</ele>
        <time>2012-12-15T13:32:05Z</time>
      </trkpt>
      <trkpt lat="44.76099" lon="-0.31">
        <ele>105</ele>
        <time>2012-12-15T13:32:10Z</time>
      </trkpt>
      <trkpt lat="44.76101" lon="-0.30987">
        <ele>105</ele>
        <time>2012-12-15T13:32:17Z</time>
      </trkpt>
      <trkpt lat="44.76111" lon="-0.30989">
        <ele>105</ele>
        <time>2012-12-15T13:32:22Z</time>
      </trkpt>
      <trkpt lat="44.76121" lon="-0.30994">
        <ele>105</ele>
        <time>2012-12-15T13:32:26Z</time>
      </trkpt>
      <trkpt lat="44.76129" lon="-0.30998">
        <ele>104</ele>
        <time>2012-12-15T13:32:30Z</time>
      </trkpt>
      <trkpt lat="44.76139" lon="-0.30999">
        <ele>104</ele>
        <time>2012-12-15T13:32:34Z</time>
      </trkpt>
      <trkpt lat="44.76149" lon="-0.31">
        <ele>103</ele>
        <time>2012-12-15T13:32:38Z</time>
      </trkpt>
      <trkpt lat="44.7616" lon="-0.30997">
        <ele>103</ele>
        <time>2012-12-15T13:32:43Z</time>
      </trkpt>
      <trkpt lat="44.76165" lon="-0.30986">
        <ele>103</ele>
        <time>2012-12-15T13:32:47Z</time>
      </trkpt>
      <trkpt lat="44.76167" lon="-0.30972">
        <ele>103</ele>
        <time>2012-12-15T13:32:51Z</time>
      </trkpt>
      <trkpt lat="44.76172" lon="-0.3096">
        <ele>103</ele>
        <time>2012-12-15T13:32:58Z</time>
      </trkpt>
      <trkpt lat="44.76183" lon="-0.30966">
        <ele>102</ele>
        <time>2012-12-15T13:33:03Z</time>
      </trkpt>
      <trkpt lat="44.76193" lon="-0.3097">
        <ele>101</ele>
        <time>2012-12-15T13:33:07Z</time>
      </trkpt>
      <trkpt lat="44.76203" lon="-0.30976">
        <ele>100</ele>
        <time>2012-12-15T13:33:11Z</time>
      </trkpt>
      <trkpt lat="44.76214" lon="-0.30979">
        <ele>99</ele>
        <time>2012-12-15T13:33:15Z</time>
      </trkpt>
      <trkpt lat="44.76223" lon="-0.30984">
        <ele>98</ele>
        <time>2012-12-15T13:33:18Z</time>
      </trkpt>
      <trkpt lat="44.76234" lon="-0.3099">
        <ele>96</ele>
        <time>2012-12-15T13:33:22Z</time>
      </trkpt>
      <trkpt lat="44.76245" lon="-0.30996">
        <ele>95</ele>
        <time>2012-12-15T13:33:26Z</time>
      </trkpt>
      <trkpt lat="44.76256" lon="-0.31">
        <ele>94</ele>
        <time>2012-12-15T13:33:30Z</time>
      </trkpt>
      <trkpt lat="44.76266" lon="-0.31001">
        <ele>93</ele>
        <time>2012-12-15T13:33:34Z</time>
      </trkpt>
      <trkpt lat="44.76277" lon="-0.31005">
        <ele>93</ele>
        <time>2012-12-15T13:33:39Z</time>
      </trkpt>
      <trkpt lat="44.76287" lon="-0.31011">
        <ele>92</ele>
        <time>2012-12-15T13:33:44Z</time>
      </trkpt>
      <trkpt lat="44.76296" lon="-0.31014">
        <ele>92</ele>
        <time>2012-12-15T13:33:48Z</time>
      </trkpt>
      <trkpt lat="44.76302" lon="-0.31024">
        <ele>93</ele>
        <time>2012-12-15T13:34:12Z</time>
      </trkpt>
      <trkpt lat="44.76304" lon="-0.3101">
        <ele>92</ele>
        <time>2012-12-15T13:35:00Z</time>
      </trkpt>
      <trkpt lat="44.76306" lon="-0.30996">
        <ele>91</ele>
        <time>2012-12-15T13:35:05Z</time>
      </trkpt>
      <trkpt lat="44.76311" lon="-0.30981">
        <ele>91</ele>
        <time>2012-12-15T13:35:10Z</time>
      </trkpt>
      <trkpt lat="44.76317" lon="-0.30971">
        <ele>90</ele>
        <time>2012-12-15T13:35:21Z</time>
      </trkpt>
      <trkpt lat="44.76325" lon="-0.30978">
        <ele>90</ele>
        <time>2012-12-15T13:35:39Z</time>
      </trkpt>
      <trkpt lat="44.76334" lon="-0.30983">
        <ele>90</ele>
        <time>2012-12-15T13:36:38Z</time>
      </trkpt>
      <trkpt lat="44.76334" lon="-0.30996">
        <ele>91</ele>
        <time>2012-12-15T13:36:51Z</time>
      </trkpt>
      <trkpt lat="44.76335" lon="-0.3101">
        <ele>92</ele>
        <time>2012-12-15T13:37:12Z</time>
      </trkpt>
      <trkpt lat="44.76342" lon="-0.31019">
        <ele>93</ele>
        <time>2012-12-15T13:37:23Z</time>
      </trkpt>
      <trkpt lat="44.76348" lon="-0.31029">
        <ele>94</ele>
        <time>2012-12-15T13:37:36Z</time>
      </trkpt>
      <trkpt lat="44.76357" lon="-0.31033">
        <ele>95</ele>
        <time>2012-12-15T13:37:46Z</time>
      </trkpt>
      <trkpt lat="44.76368" lon="-0.31037">
        <ele>97</ele>
        <time>2012-12-15T13:38:01Z</time>
      </trkpt>
      <trkpt lat="44.76376" lon="-0.31046">
        <ele>98</ele>
        <time>2012-12-15T13:38:07Z</time>
      </trkpt>
      <trkpt lat="44.76384" lon="-0.31055">
        <ele>99</ele>
        <time>2012-12-15T13:38:14Z</time>
      </trkpt>
      <trkpt lat="44.7639" lon="-0.31066">
        <ele>100</ele>
        <time>2012-12-15T13:38:20Z</time>
      </trkpt>
      <trkpt lat="44.76396" lon="-0.31077">
        <ele>101</ele>
        <time>2012-12-15T13:38:27Z</time>
      </trkpt>
      <trkpt lat="44.76402" lon="-0.31089">
        <ele>102</ele>
        <time>2012-12-15T13:38:35Z</time>
      </trkpt>
      <trkpt lat="44.76414" lon="-0.31093">
        <ele>102</ele>
        <time>2012-12-15T13:38:40Z</time>
      </trkpt>
      <trkpt lat="44.76424" lon="-0.3109">
        <ele>102</ele>
        <time>2012-12-15T13:38:45Z</time>
      </trkpt>
      <trkpt lat="44.76433" lon="-0.31087">
        <ele>102</ele>
        <time>2012-12-15T13:38:50Z</time>
      </trkpt>
      <trkpt lat="44.76442" lon="-0.31082">
        <ele>101</ele>
        <time>2012-12-15T13:38:55Z</time>
      </trkpt>
      <trkpt lat="44.76453" lon="-0.31077">
        <ele>101</ele>
        <time>2012-12-15T13:39:00Z</time>
      </trkpt>
      <trkpt lat="44.76462" lon="-0.31073">
        <ele>100</ele>
        <time>2012-12-15T13:39:05Z</time>
      </trkpt>
      <trkpt lat="44.76469" lon="-0.31064">
        <ele>99</ele>
        <time>2012-12-15T13:39:12Z</time>
      </trkpt>
      <trkpt lat="44.76478" lon="-0.31059">
        <ele>99</ele>
        <time>2012-12-15T13:39:20Z</time>
      </trkpt>
      <trkpt lat="44.76487" lon="-0.31056">
        <ele>99</ele>
        <time>2012-12-15T13:39:28Z</time>
      </trkpt>
      <trkpt lat="44.76496" lon="-0.31057">
        <ele>99</ele>
        <time>2012-12-15T13:39:53Z</time>
      </trkpt>
      <trkpt lat="44.76506" lon="-0.31059">
        <ele>100</ele>
        <time>2012-12-15T13:40:05Z</time>
      </trkpt>
      <trkpt lat="44.76517" lon="-0.3106">
        <ele>100</ele>
        <time>2012-12-15T13:40:10Z</time>
      </trkpt>
      <trkpt lat="44.76529" lon="-0.31062">
        <ele>100</ele>
        <time>2012-12-15T13:40:15Z</time>
      </trkpt>
      <trkpt lat="44.76539" lon="-0.31063">
        <ele>100</ele>
        <time>2012-12-15T13:40:19Z</time>
      </trkpt>
      <trkpt lat="44.76549" lon="-0.31066">
        <ele>101</ele>
        <time>2012-12-15T13:40:23Z</time>
      </trkpt>
      <trkpt lat="44.76559" lon="-0.31068">
        <ele>101</ele>
        <time>2012-12-15T13:40:29Z</time>
      </trkpt>
      <trkpt lat="44.76569" lon="-0.31069">
        <ele>101</ele>
        <time>2012-12-15T13:40:33Z</time>
      </trkpt>
      <trkpt lat="44.76579" lon="-0.31067">
        <ele>101</ele>
        <time>2012-12-15T13:40:37Z</time>
      </trkpt>
      <trkpt lat="44.7659" lon="-0.31063">
        <ele>101</ele>
        <time>2012-12-15T13:40:42Z</time>
      </trkpt>
      <trkpt lat="44.76599" lon="-0.31058">
        <ele>101</ele>
        <time>2012-12-15T13:40:46Z</time>
      </trkpt>
      <trkpt lat="44.76608" lon="-0.31054">
        <ele>101</ele>
        <time>2012-12-15T13:40:50Z</time>
      </trkpt>
      <trkpt lat="44.76616" lon="-0.31046">
        <ele>100</ele>
        <time>2012-12-15T13:40:54Z</time>
      </trkpt>
      <trkpt lat="44.76625" lon="-0.3104">
        <ele>100</ele>
        <time>2012-12-15T13:40:58Z</time>
      </trkpt>
      <trkpt lat="44.76635" lon="-0.31032">
        <ele>99</ele>
        <time>2012-12-15T13:41:03Z</time>
      </trkpt>
      <trkpt lat="44.76644" lon="-0.31022">
        <ele>99</ele>
        <time>2012-12-15T13:41:08Z</time>
      </trkpt>
      <trkpt lat="44.76652" lon="-0.31012">
        <ele>98</ele>
        <time>2012-12-15T13:41:12Z</time>
      </trkpt>
      <trkpt lat="44.76659" lon="-0.31003">
        <ele>97</ele>
        <time>2012-12-15T13:41:16Z</time>
      </trkpt>
      <trkpt lat="44.76668" lon="-0.30995">
        <ele>97</ele>
        <time>2012-12-15T13:41:22Z</time>
      </trkpt>
      <trkpt lat="44.76666" lon="-0.30979">
        <ele>95</ele>
        <time>2012-12-15T13:41:39Z</time>
      </trkpt>
      <trkpt lat="44.76663" lon="-0.30967">
        <ele>94</ele>
        <time>2012-12-15T13:41:42Z</time>
      </trkpt>
      <trkpt lat="44.76659" lon="-0.30951">
        <ele>92</ele>
        <time>2012-12-15T13:41:46Z</time>
      </trkpt>
      <trkpt lat="44.76656" lon="-0.30936">
        <ele>91</ele>
        <time>2012-12-15T13:41:50Z</time>
      </trkpt>
      <trkpt lat="44.76652" lon="-0.30921">
        <ele>89</ele>
        <time>2012-12-15T13:41:54Z</time>
      </trkpt>
      <trkpt lat="44.76648" lon="-0.30908">
        <ele>88</ele>
        <time>2012-12-15T13:41:57Z</time>
      </trkpt>
      <trkpt lat="44.76645" lon="-0.30894">
        <ele>86</ele>
        <time>2012-12-15T13:42:01Z</time>
      </trkpt>
      <trkpt lat="44.76642" lon="-0.3088">
        <ele>86</ele>
        <time>2012-12-15T13:42:06Z</time>
      </trkpt>
      <trkpt lat="44.76638" lon="-0.30865">
        <ele>85</ele>
        <time>2012-12-15T13:42:10Z</time>
      </trkpt>
      <trkpt lat="44.76635" lon="-0.30853">
        <ele>85</ele>
        <time>2012-12-15T13:42:14Z</time>
      </trkpt>
      <trkpt lat="44.76631" lon="-0.30837">
        <ele>84</ele>
        <time>2012-12-15T13:42:19Z</time>
      </trkpt>
      <trkpt lat="44.76628" lon="-0.30825">
        <ele>84</ele>
        <time>2012-12-15T13:42:27Z</time>
      </trkpt>
      <trkpt lat="44.76622" lon="-0.30813">
        <ele>83</ele>
        <time>2012-12-15T13:42:52Z</time>
      </trkpt>
      <trkpt lat="44.76631" lon="-0.30819">
        <ele>83</ele>
        <time>2012-12-15T13:43:56Z</time>
      </trkpt>
      <trkpt lat="44.76622" lon="-0.30811">
        <ele>83</ele>
        <time>2012-12-15T13:44:19Z</time>
      </trkpt>
      <trkpt lat="44.76612" lon="-0.30814">
        <ele>83</ele>
        <time>2012-12-15T13:44:25Z</time>
      </trkpt>
      <trkpt lat="44.76606" lon="-0.30824">
        <ele>83</ele>
        <time>2012-12-15T13:44:29Z</time>
      </trkpt>
      <trkpt lat="44.766" lon="-0.30838">
        <ele>83</ele>
        <time>2012-12-15T13:44:34Z</time>
      </trkpt>
      <trkpt lat="44.76595" lon="-0.3085">
        <ele>83</ele>
        <time>2012-12-15T13:44:38Z</time>
      </trkpt>
      <trkpt lat="44.7659" lon="-0.30862">
        <ele>83</ele>
        <time>2012-12-15T13:44:42Z</time>
      </trkpt>
      <trkpt lat="44.76583" lon="-0.30874">
        <ele>84</ele>
        <time>2012-12-15T13:44:47Z</time>
      </trkpt>
      <trkpt lat="44.76577" lon="-0.30887">
        <ele>84</ele>
        <time>2012-12-15T13:44:53Z</time>
      </trkpt>
      <trkpt lat="44.76572" lon="-0.30899">
        <ele>85</ele>
        <time>2012-12-15T13:44:58Z</time>
      </trkpt>
      <trkpt lat="44.76567" lon="-0.30911">
        <ele>86</ele>
        <time>2012-12-15T13:45:04Z</time>
      </trkpt>
      <trkpt lat="44.76561" lon="-0.30923">
        <ele>87</ele>
        <time>2012-12-15T13:45:10Z</time>
      </trkpt>
      <trkpt lat="44.76555" lon="-0.30934">
        <ele>88</ele>
        <time>2012-12-15T13:45:16Z</time>
      </trkpt>
      <trkpt lat="44.7655" lon="-0.30945">
        <ele>89</ele>
        <time>2012-12-15T13:45:25Z</time>
      </trkpt>
      <trkpt lat="44.76549" lon="-0.30959">
        <ele>91</ele>
        <time>2012-12-15T13:46:09Z</time>
      </trkpt>
      <trkpt lat="44.76553" lon="-0.30971">
        <ele>92</ele>
        <time>2012-12-15T13:46:22Z</time>
      </trkpt>
      <trkpt lat="44.76557" lon="-0.30984">
        <ele>93</ele>
        <time>2012-12-15T13:46:36Z</time>
      </trkpt>
      <trkpt lat="44.7656" lon="-0.30996">
        <ele>95</ele>
        <time>2012-12-15T13:46:50Z</time>
      </trkpt>
      <trkpt lat="44.76564" lon="-0.31009">
        <ele>96</ele>
        <time>2012-12-15T13:47:33Z</time>
      </trkpt>
      <trkpt lat="44.76567" lon="-0.31022">
        <ele>97</ele>
        <time>2012-12-15T13:47:46Z</time>
      </trkpt>
      <trkpt lat="44.76571" lon="-0.31034">
        <ele>99</ele>
        <time>2012-12-15T13:48:00Z</time>
      </trkpt>
      <trkpt lat="44.76574" lon="-0.31047">
        <ele>100</ele>
        <time>2012-12-15T13:48:11Z</time>
      </trkpt>
      <trkpt lat="44.76577" lon="-0.31059">
        <ele>101</ele>
        <time>2012-12-15T13:48:23Z</time>
      </trkpt>
      <trkpt lat="44.76586" lon="-0.31066">
        <ele>101</ele>
        <time>2012-12-15T13:48:39Z</time>
      </trkpt>
      <trkpt lat="44.76595" lon="-0.31059">
        <ele>101</ele>
        <time>2012-12-15T13:48:44Z</time>
      </trkpt>
      <trkpt lat="44.76606" lon="-0.31055">
        <ele>101</ele>
        <time>2012-12-15T13:48:50Z</time>
      </trkpt>
      <trkpt lat="44.76614" lon="-0.31048">
        <ele>100</ele>
        <time>2012-12-15T13:48:55Z</time>
      </trkpt>
      <trkpt lat="44.76623" lon="-0.31041">
        <ele>100</ele>
        <time>2012-12-15T13:49:01Z</time>
      </trkpt>
      <trkpt lat="44.76632" lon="-0.31048">
        <ele>100</ele>
        <time>2012-12-15T13:49:07Z</time>
      </trkpt>
      <trkpt lat="44.76641" lon="-0.31057">
        <ele>101</ele>
        <time>2012-12-15T13:49:13Z</time>
      </trkpt>
      <trkpt lat="44.76647" lon="-0.31068">
        <ele>102</ele>
        <time>2012-12-15T13:49:19Z</time>
      </trkpt>
      <trkpt lat="44.76651" lon="-0.31083">
        <ele>103</ele>
        <time>2012-12-15T13:49:25Z</time>
      </trkpt>
      <trkpt lat="44.76659" lon="-0.31093">
        <ele>103</ele>
        <time>2012-12-15T13:49:31Z</time>
      </trkpt>
      <trkpt lat="44.76669" lon="-0.31092">
        <ele>103</ele>
        <time>2012-12-15T13:49:35Z</time>
      </trkpt>
      <trkpt lat="44.76679" lon="-0.3109">
        <ele>103</ele>
        <time>2012-12-15T13:49:39Z</time>
      </trkpt>
      <trkpt lat="44.76689" lon="-0.31089">
        <ele>103</ele>
        <time>2012-12-15T13:49:43Z</time>
      </trkpt>
      <trkpt lat="44.76702" lon="-0.31092">
        <ele>103</ele>
        <time>2012-12-15T13:49:47Z</time>
      </trkpt>
      <trkpt lat="44.76714" lon="-0.31096">
        <ele>103</ele>
        <time>2012-12-15T13:49:51Z</time>
      </trkpt>
      <trkpt lat="44.76725" lon="-0.31102">
        <ele>102</ele>
        <time>2012-12-15T13:49:54Z</time>
      </trkpt>
      <trkpt lat="44.76735" lon="-0.31107">
        <ele>102</ele>
        <time>2012-12-15T13:49:57Z</time>
      </trkpt>
      <trkpt lat="44.76746" lon="-0.31108">
        <ele>102</ele>
        <time>2012-12-15T13:50:00Z</time>
      </trkpt>
      <trkpt lat="44.76753" lon="-0.31094">
        <ele>101</ele>
        <time>2012-12-15T13:50:03Z</time>
      </trkpt>
      <trkpt lat="44.76756" lon="-0.31082">
        <ele>101</ele>
        <time>2012-12-15T13:50:05Z</time>
      </trkpt>
      <trkpt lat="44.76759" lon="-0.31069">
        <ele>100</ele>
        <time>2012-12-15T13:50:07Z</time>
      </trkpt>
      <trkpt lat="44.76761" lon="-0.31057">
        <ele>99</ele>
        <time>2012-12-15T13:50:09Z</time>
      </trkpt>
      <trkpt lat="44.76764" lon="-0.31044">
        <ele>99</ele>
        <time>2012-12-15T13:50:11Z</time>
      </trkpt>
      <trkpt lat="44.76766" lon="-0.31031">
        <ele>98</ele>
        <time>2012-12-15T13:50:13Z</time>
      </trkpt>
      <trkpt lat="44.76769" lon="-0.31013">
        <ele>96</ele>
        <time>2012-12-15T13:50:16Z</time>
      </trkpt>
      <trkpt lat="44.76772" lon="-0.30999">
        <ele>95</ele>
        <time>2012-12-15T13:50:19Z</time>
      </trkpt>
      <trkpt lat="44.76777" lon="-0.30987">
        <ele>94</ele>
        <time>2012-12-15T13:50:25Z</time>
      </trkpt>
      <trkpt lat="44.76787" lon="-0.30991">
        <ele>93</ele>
        <time>2012-12-15T13:50:29Z</time>
      </trkpt>
      <trkpt lat="44.76798" lon="-0.30999">
        <ele>93</ele>
        <time>2012-12-15T13:50:32Z</time>
      </trkpt>
      <trkpt lat="44.7681" lon="-0.31006">
        <ele>92</ele>
        <time>2012-12-15T13:50:35Z</time>
      </trkpt>
      <trkpt lat="44.76822" lon="-0.3101">
        <ele>92</ele>
        <time>2012-12-15T13:50:38Z</time>
      </trkpt>
      <trkpt lat="44.76831" lon="-0.31002">
        <ele>90</ele>
        <time>2012-12-15T13:50:40Z</time>
      </trkpt>
      <trkpt lat="44.7684" lon="-0.30988">
        <ele>89</ele>
        <time>2012-12-15T13:50:42Z</time>
      </trkpt>
      <trkpt lat="44.76851" lon="-0.30975">
        <ele>87</ele>
        <time>2012-12-15T13:50:44Z</time>
      </trkpt>
      <trkpt lat="44.76863" lon="-0.30961">
        <ele>86</ele>
        <time>2012-12-15T13:50:46Z</time>
      </trkpt>
      <trkpt lat="44.76875" lon="-0.30947">
        <ele>85</ele>
        <time>2012-12-15T13:50:48Z</time>
      </trkpt>
      <trkpt lat="44.76887" lon="-0.30934">
        <ele>84</ele>
        <time>2012-12-15T13:50:50Z</time>
      </trkpt>
      <trkpt lat="44.76897" lon="-0.30922">
        <ele>84</ele>
        <time>2012-12-15T13:50:52Z</time>
      </trkpt>
      <trkpt lat="44.76908" lon="-0.30912">
        <ele>83</ele>
        <time>2012-12-15T13:50:54Z</time>
      </trkpt>
      <trkpt lat="44.76918" lon="-0.30901">
        <ele>83</ele>
        <time>2012-12-15T13:50:56Z</time>
      </trkpt>
      <trkpt lat="44.76929" lon="-0.30891">
        <ele>83</ele>
        <time>2012-12-15T13:50:58Z</time>
      </trkpt>
      <trkpt lat="44.76938" lon="-0.30881">
        <ele>82</ele>
        <time>2012-12-15T13:51:00Z</time>
      </trkpt>
      <trkpt lat="44.76947" lon="-0.30871">
        <ele>82</ele>
        <time>2012-12-15T13:51:02Z</time>
      </trkpt>
      <trkpt lat="44.76954" lon="-0.30862">
        <ele>81</ele>
        <time>2012-12-15T13:51:04Z</time>
      </trkpt>
      <trkpt lat="44.7696" lon="-0.30851">
        <ele>81</ele>
        <time>2012-12-15T13:51:07Z</time>
      </trkpt>
      <trkpt lat="44.76967" lon="-0.30841">
        <ele>81</ele>
        <time>2012-12-15T13:51:12Z</time>
      </trkpt>
      <trkpt lat="44.76975" lon="-0.30829">
        <ele>81</ele>
        <time>2012-12-15T13:51:16Z</time>
      </trkpt>
      <trkpt lat="44.76983" lon="-0.30813">
        <ele>80</ele>
        <time>2012-12-15T13:51:19Z</time>
      </trkpt>
      <trkpt lat="44.76989" lon="-0.30801">
        <ele>80</ele>
        <time>2012-12-15T13:51:21Z</time>
      </trkpt>
      <trkpt lat="44.76995" lon="-0.30788">
        <ele>79</ele>
        <time>2012-12-15T13:51:23Z</time>
      </trkpt>
      <trkpt lat="44.77002" lon="-0.30774">
        <ele>78</ele>
        <time>2012-12-15T13:51:25Z</time>
      </trkpt>
      <trkpt lat="44.77007" lon="-0.30758">
        <ele>78</ele>
        <time>2012-12-15T13:51:27Z</time>
      </trkpt>
      <trkpt lat="44.77012" lon="-0.30744">
        <ele>78</ele>
        <time>2012-12-15T13:51:29Z</time>
      </trkpt>
      <trkpt lat="44.77016" lon="-0.30729">
        <ele>77</ele>
        <time>2012-12-15T13:51:31Z</time>
      </trkpt>
      <trkpt lat="44.7702" lon="-0.30713">
        <ele>76</ele>
        <time>2012-12-15T13:51:33Z</time>
      </trkpt>
      <trkpt lat="44.77023" lon="-0.30699">
        <ele>75</ele>
        <time>2012-12-15T13:51:35Z</time>
      </trkpt>
      <trkpt lat="44.77025" lon="-0.30685">
        <ele>75</ele>
        <time>2012-12-15T13:51:37Z</time>
      </trkpt>
      <trkpt lat="44.77023" lon="-0.3067">
        <ele>74</ele>
        <time>2012-12-15T13:51:39Z</time>
      </trkpt>
      <trkpt lat="44.77018" lon="-0.30658">
        <ele>73</ele>
        <time>2012-12-15T13:51:41Z</time>
      </trkpt>
      <trkpt lat="44.7701" lon="-0.30649">
        <ele>73</ele>
        <time>2012-12-15T13:51:43Z</time>
      </trkpt>
      <trkpt lat="44.77" lon="-0.30643">
        <ele>73</ele>
        <time>2012-12-15T13:51:45Z</time>
      </trkpt>
      <trkpt lat="44.7699" lon="-0.3064">
        <ele>73</ele>
        <time>2012-12-15T13:51:47Z</time>
      </trkpt>
      <trkpt lat="44.7698" lon="-0.30636">
        <ele>73</ele>
        <time>2012-12-15T13:51:49Z</time>
      </trkpt>
      <trkpt lat="44.7697" lon="-0.30632">
        <ele>73</ele>
        <time>2012-12-15T13:51:51Z</time>
      </trkpt>
      <trkpt lat="44.7696" lon="-0.30629">
        <ele>72</ele>
        <time>2012-12-15T13:51:53Z</time>
      </trkpt>
      <trkpt lat="44.76951" lon="-0.30625">
        <ele>72</ele>
        <time>2012-12-15T13:51:55Z</time>
      </trkpt>
      <trkpt lat="44.76942" lon="-0.30622">
        <ele>72</ele>
        <time>2012-12-15T13:51:57Z</time>
      </trkpt>
      <trkpt lat="44.76928" lon="-0.30619">
        <ele>72</ele>
        <time>2012-12-15T13:52:00Z</time>
      </trkpt>
      <trkpt lat="44.76918" lon="-0.30609">
        <ele>72</ele>
        <time>2012-12-15T13:52:03Z</time>
      </trkpt>
      <trkpt lat="44.76919" lon="-0.30593">
        <ele>71</ele>
        <time>2012-12-15T13:52:06Z</time>
      </trkpt>
      <trkpt lat="44.76924" lon="-0.30576">
        <ele>71</ele>
        <time>2012-12-15T13:52:09Z</time>
      </trkpt>
      <trkpt lat="44.76929" lon="-0.30561">
        <ele>71</ele>
        <time>2012-12-15T13:52:12Z</time>
      </trkpt>
      <trkpt lat="44.76933" lon="-0.30544">
        <ele>70</ele>
        <time>2012-12-15T13:52:15Z</time>
      </trkpt>
      <trkpt lat="44.76938" lon="-0.30528">
        <ele>70</ele>
        <time>2012-12-15T13:52:18Z</time>
      </trkpt>
      <trkpt lat="44.76942" lon="-0.30514">
        <ele>70</ele>
        <time>2012-12-15T13:52:21Z</time>
      </trkpt>
      <trkpt lat="44.76944" lon="-0.30501">
        <ele>70</ele>
        <time>2012-12-15T13:52:24Z</time>
      </trkpt>
      <trkpt lat="44.76947" lon="-0.30486">
        <ele>70</ele>
        <time>2012-12-15T13:52:27Z</time>
      </trkpt>
      <trkpt lat="44.76949" lon="-0.30471">
        <ele>70</ele>
        <time>2012-12-15T13:52:30Z</time>
      </trkpt>
      <trkpt lat="44.76951" lon="-0.30454">
        <ele>71</ele>
        <time>2012-12-15T13:52:33Z</time>
      </trkpt>
      <trkpt lat="44.76952" lon="-0.30437">
        <ele>71</ele>
        <time>2012-12-15T13:52:36Z</time>
      </trkpt>
      <trkpt lat="44.76955" lon="-0.30421">
        <ele>72</ele>
        <time>2012-12-15T13:52:39Z</time>
      </trkpt>
      <trkpt lat="44.76957" lon="-0.30405">
        <ele>72</ele>
        <time>2012-12-15T13:52:42Z</time>
      </trkpt>
      <trkpt lat="44.76957" lon="-0.30389">
        <ele>72</ele>
        <time>2012-12-15T13:52:46Z</time>
      </trkpt>
      <trkpt lat="44.76947" lon="-0.3038">
        <ele>73</ele>
        <time>2012-12-15T13:52:54Z</time>
      </trkpt>
      <trkpt lat="44.76938" lon="-0.30377">
        <ele>73</ele>
        <time>2012-12-15T13:52:58Z</time>
      </trkpt>
      <trkpt lat="44.76928" lon="-0.30376">
        <ele>73</ele>
        <time>2012-12-15T13:53:02Z</time>
      </trkpt>
      <trkpt lat="44.76917" lon="-0.30371">
        <ele>73</ele>
        <time>2012-12-15T13:53:06Z</time>
      </trkpt>
      <trkpt lat="44.76906" lon="-0.30368">
        <ele>73</ele>
        <time>2012-12-15T13:53:10Z</time>
      </trkpt>
      <trkpt lat="44.76896" lon="-0.30364">
        <ele>73</ele>
        <time>2012-12-15T13:53:14Z</time>
      </trkpt>
      <trkpt lat="44.76885" lon="-0.3036">
        <ele>73</ele>
        <time>2012-12-15T13:53:19Z</time>
      </trkpt>
      <trkpt lat="44.76876" lon="-0.30359">
        <ele>73</ele>
        <time>2012-12-15T13:53:23Z</time>
      </trkpt>
      <trkpt lat="44.76866" lon="-0.30356">
        <ele>73</ele>
        <time>2012-12-15T13:53:27Z</time>
      </trkpt>
      <trkpt lat="44.76856" lon="-0.30352">
        <ele>73</ele>
        <time>2012-12-15T13:53:31Z</time>
      </trkpt>
      <trkpt lat="44.76845" lon="-0.3035">
        <ele>73</ele>
        <time>2012-12-15T13:53:36Z</time>
      </trkpt>
      <trkpt lat="44.76835" lon="-0.30348">
        <ele>73</ele>
        <time>2012-12-15T13:53:40Z</time>
      </trkpt>
      <trkpt lat="44.76826" lon="-0.30346">
        <ele>73</ele>
        <time>2012-12-15T13:53:44Z</time>
      </trkpt>
      <trkpt lat="44.76816" lon="-0.30343">
        <ele>73</ele>
        <time>2012-12-15T13:53:49Z</time>
      </trkpt>
      <trkpt lat="44.76805" lon="-0.30341">
        <ele>73</ele>
        <time>2012-12-15T13:53:54Z</time>
      </trkpt>
      <trkpt lat="44.76793" lon="-0.30338">
        <ele>73</ele>
        <time>2012-12-15T13:53:59Z</time>
      </trkpt>
      <trkpt lat="44.76782" lon="-0.30336">
        <ele>73</ele>
        <time>2012-12-15T13:54:04Z</time>
      </trkpt>
      <trkpt lat="44.76773" lon="-0.30333">
        <ele>74</ele>
        <time>2012-12-15T13:54:08Z</time>
      </trkpt>
      <trkpt lat="44.76762" lon="-0.30331">
        <ele>74</ele>
        <time>2012-12-15T13:54:12Z</time>
      </trkpt>
      <trkpt lat="44.76753" lon="-0.30327">
        <ele>74</ele>
        <time>2012-12-15T13:54:16Z</time>
      </trkpt>
      <trkpt lat="44.76743" lon="-0.30324">
        <ele>74</ele>
        <time>2012-12-15T13:54:20Z</time>
      </trkpt>
      <trkpt lat="44.76734" lon="-0.30322">
        <ele>74</ele>
        <time>2012-12-15T13:54:24Z</time>
      </trkpt>
      <trkpt lat="44.76724" lon="-0.3032">
        <ele>74</ele>
        <time>2012-12-15T13:54:28Z</time>
      </trkpt>
      <trkpt lat="44.76714" lon="-0.30317">
        <ele>74</ele>
        <time>2012-12-15T13:54:32Z</time>
      </trkpt>
      <trkpt lat="44.76704" lon="-0.30313">
        <ele>74</ele>
        <time>2012-12-15T13:54:37Z</time>
      </trkpt>
      <trkpt lat="44.76694" lon="-0.30309">
        <ele>74</ele>
        <time>2012-12-15T13:54:42Z</time>
      </trkpt>
      <trkpt lat="44.76684" lon="-0.30305">
        <ele>74</ele>
        <time>2012-12-15T13:54:47Z</time>
      </trkpt>
      <trkpt lat="44.76683" lon="-0.30291">
        <ele>75</ele>
        <time>2012-12-15T13:54:55Z</time>
      </trkpt>
      <trkpt lat="44.76684" lon="-0.30276">
        <ele>75</ele>
        <time>2012-12-15T13:55:01Z</time>
      </trkpt>
      <trkpt lat="44.76685" lon="-0.30261">
        <ele>75</ele>
        <time>2012-12-15T13:55:07Z</time>
      </trkpt>
      <trkpt lat="44.76686" lon="-0.30245">
        <ele>75</ele>
        <time>2012-12-15T13:55:13Z</time>
      </trkpt>
      <trkpt lat="44.76688" lon="-0.30231">
        <ele>76</ele>
        <time>2012-12-15T13:55:18Z</time>
      </trkpt>
      <trkpt lat="44.76689" lon="-0.30216">
        <ele>76</ele>
        <time>2012-12-15T13:55:24Z</time>
      </trkpt>
      <trkpt lat="44.7669" lon="-0.30201">
        <ele>77</ele>
        <time>2012-12-15T13:55:30Z</time>
      </trkpt>
      <trkpt lat="44.7669" lon="-0.30187">
        <ele>77</ele>
        <time>2012-12-15T13:55:36Z</time>
      </trkpt>
      <trkpt lat="44.76691" lon="-0.30173">
        <ele>78</ele>
        <time>2012-12-15T13:55:43Z</time>
      </trkpt>
      <trkpt lat="44.76691" lon="-0.30159">
        <ele>78</ele>
        <time>2012-12-15T13:55:49Z</time>
      </trkpt>
      <trkpt lat="44.76692" lon="-0.30145">
        <ele>79</ele>
        <time>2012-12-15T13:55:56Z</time>
      </trkpt>
      <trkpt lat="44.76686" lon="-0.30134">
        <ele>79</ele>
        <time>2012-12-15T13:56:05Z</time>
      </trkpt>
      <trkpt lat="44.76675" lon="-0.3013">
        <ele>79</ele>
        <time>2012-12-15T13:56:14Z</time>
      </trkpt>
      <trkpt lat="44.76664" lon="-0.3013">
        <ele>80</ele>
        <time>2012-12-15T13:56:22Z</time>
      </trkpt>
      <trkpt lat="44.76654" lon="-0.30128">
        <ele>80</ele>
        <time>2012-12-15T13:56:30Z</time>
      </trkpt>
      <trkpt lat="44.76645" lon="-0.30126">
        <ele>80</ele>
        <time>2012-12-15T13:56:52Z</time>
      </trkpt>
      <trkpt lat="44.76642" lon="-0.30113">
        <ele>81</ele>
        <time>2012-12-15T13:57:08Z</time>
      </trkpt>
      <trkpt lat="44.76643" lon="-0.301">
        <ele>82</ele>
        <time>2012-12-15T13:57:14Z</time>
      </trkpt>
      <trkpt lat="44.76644" lon="-0.30086">
        <ele>83</ele>
        <time>2012-12-15T13:57:20Z</time>
      </trkpt>
      <trkpt lat="44.76636" lon="-0.30079">
        <ele>83</ele>
        <time>2012-12-15T13:57:28Z</time>
      </trkpt>
      <trkpt lat="44.76626" lon="-0.30078">
        <ele>83</ele>
        <time>2012-12-15T13:57:34Z</time>
      </trkpt>
      <trkpt lat="44.76616" lon="-0.30075">
        <ele>83</ele>
        <time>2012-12-15T13:57:39Z</time>
      </trkpt>
      <trkpt lat="44.76607" lon="-0.30072">
        <ele>83</ele>
        <time>2012-12-15T13:57:45Z</time>
      </trkpt>
      <trkpt lat="44.76597" lon="-0.30068">
        <ele>83</ele>
        <time>2012-12-15T13:57:51Z</time>
      </trkpt>
      <trkpt lat="44.76587" lon="-0.30063">
        <ele>83</ele>
        <time>2012-12-15T13:57:57Z</time>
      </trkpt>
      <trkpt lat="44.76577" lon="-0.30059">
        <ele>83</ele>
        <time>2012-12-15T13:58:03Z</time>
      </trkpt>
      <trkpt lat="44.76568" lon="-0.30054">
        <ele>83</ele>
        <time>2012-12-15T13:58:08Z</time>
      </trkpt>
      <trkpt lat="44.76559" lon="-0.3005">
        <ele>82</ele>
        <time>2012-12-15T13:58:13Z</time>
      </trkpt>
      <trkpt lat="44.7655" lon="-0.30044">
        <ele>82</ele>
        <time>2012-12-15T13:58:25Z</time>
      </trkpt>
      <trkpt lat="44.76541" lon="-0.30039">
        <ele>82</ele>
        <time>2012-12-15T13:58:47Z</time>
      </trkpt>
      <trkpt lat="44.76542" lon="-0.30025">
        <ele>83</ele>
        <time>2012-12-15T13:59:05Z</time>
      </trkpt>
      <trkpt lat="44.76545" lon="-0.30013">
        <ele>85</ele>
        <time>2012-12-15T13:59:19Z</time>
      </trkpt>
      <trkpt lat="44.76547" lon="-0.29999">
        <ele>86</ele>
        <time>2012-12-15T13:59:35Z</time>
      </trkpt>
      <trkpt lat="44.76549" lon="-0.29986">
        <ele>88</ele>
        <time>2012-12-15T13:59:54Z</time>
      </trkpt>
      <trkpt lat="44.7655" lon="-0.29971">
        <ele>89</ele>
        <time>2012-12-15T14:01:02Z</time>
      </trkpt>
      <trkpt lat="44.7655" lon="-0.29958">
        <ele>91</ele>
        <time>2012-12-15T14:01:10Z</time>
      </trkpt>
      <trkpt lat="44.76549" lon="-0.29944">
        <ele>92</ele>
        <time>2012-12-15T14:01:18Z</time>
      </trkpt>
      <trkpt lat="44.76549" lon="-0.2993">
        <ele>93</ele>
        <time>2012-12-15T14:01:26Z</time>
      </trkpt>
      <trkpt lat="44.76549" lon="-0.29916">
        <ele>95</ele>
        <time>2012-12-15T14:01:34Z</time>
      </trkpt>
      <trkpt lat="44.76548" lon="-0.29902">
        <ele>96</ele>
        <time>2012-12-15T14:01:43Z</time>
      </trkpt>
      <trkpt lat="44.76546" lon="-0.29889">
        <ele>97</ele>
        <time>2012-12-15T14:01:53Z</time>
      </trkpt>
      <trkpt lat="44.76545" lon="-0.29874">
        <ele>98</ele>
        <time>2012-12-15T14:02:03Z</time>
      </trkpt>
      <trkpt lat="44.76546" lon="-0.29861">
        <ele>99</ele>
        <time>2012-12-15T14:02:51Z</time>
      </trkpt>
      <trkpt lat="44.76547" lon="-0.29847">
        <ele>100</ele>
        <time>2012-12-15T14:03:07Z</time>
      </trkpt>
      <trkpt lat="44.76549" lon="-0.29834">
        <ele>101</ele>
        <time>2012-12-15T14:03:21Z</time>
      </trkpt>
      <trkpt lat="44.76549" lon="-0.29821">
        <ele>102</ele>
        <time>2012-12-15T14:03:38Z</time>
      </trkpt>
      <trkpt lat="44.76548" lon="-0.29807">
        <ele>102</ele>
        <time>2012-12-15T14:03:51Z</time>
      </trkpt>
      <trkpt lat="44.76546" lon="-0.29794">
        <ele>103</ele>
        <time>2012-12-15T14:04:05Z</time>
      </trkpt>
      <trkpt lat="44.76543" lon="-0.29781">
        <ele>104</ele>
        <time>2012-12-15T14:04:23Z</time>
      </trkpt>
      <trkpt lat="44.76498" lon="-0.2976">
        <ele>104</ele>
        <time>2012-12-15T14:05:51Z</time>
      </trkpt>
      <trkpt lat="44.765" lon="-0.29755">
        <ele>105</ele>
        <time>2012-12-15T14:06:32Z</time>
      </trkpt>
      <trkpt lat="44.76501" lon="-0.29752">
        <ele>105</ele>
        <time>2012-12-15T14:07:25Z</time>
      </trkpt>
      <trkpt lat="44.76492" lon="-0.29747">
        <ele>105</ele>
        <time>2012-12-15T14:07:47Z</time>
      </trkpt>
      <trkpt lat="44.76489" lon="-0.29751">
        <ele>105</ele>
        <time>2012-12-15T14:08:40Z</time>
      </trkpt>
      <trkpt lat="44.76478" lon="-0.29748">
        <ele>104</ele>
        <time>2012-12-15T14:08:45Z</time>
      </trkpt>
      <trkpt lat="44.76467" lon="-0.29744">
        <ele>104</ele>
        <time>2012-12-15T14:08:50Z</time>
      </trkpt>
      <trkpt lat="44.76458" lon="-0.29741">
        <ele>104</ele>
        <time>2012-12-15T14:08:55Z</time>
      </trkpt>
      <trkpt lat="44.76451" lon="-0.29725">
        <ele>104</ele>
        <time>2012-12-15T14:09:01Z</time>
      </trkpt>
      <trkpt lat="44.7645" lon="-0.29712">
        <ele>104</ele>
        <time>2012-12-15T14:09:05Z</time>
      </trkpt>
      <trkpt lat="44.76449" lon="-0.29697">
        <ele>105</ele>
        <time>2012-12-15T14:09:10Z</time>
      </trkpt>
      <trkpt lat="44.76446" lon="-0.29682">
        <ele>105</ele>
        <time>2012-12-15T14:09:14Z</time>
      </trkpt>
      <trkpt lat="44.76439" lon="-0.29672">
        <ele>105</ele>
        <time>2012-12-15T14:09:17Z</time>
      </trkpt>
      <trkpt lat="44.7643" lon="-0.29667">
        <ele>105</ele>
        <time>2012-12-15T14:09:21Z</time>
      </trkpt>
      <trkpt lat="44.7642" lon="-0.29662">
        <ele>105</ele>
        <time>2012-12-15T14:09:27Z</time>
      </trkpt>
      <trkpt lat="44.7641" lon="-0.29656">
        <ele>105</ele>
        <time>2012-12-15T14:09:31Z</time>
      </trkpt>
      <trkpt lat="44.76401" lon="-0.29649">
        <ele>105</ele>
        <time>2012-12-15T14:09:35Z</time>
      </trkpt>
      <trkpt lat="44.76392" lon="-0.29641">
        <ele>105</ele>
        <time>2012-12-15T14:09:39Z</time>
      </trkpt>
      <trkpt lat="44.76384" lon="-0.29634">
        <ele>105</ele>
        <time>2012-12-15T14:09:43Z</time>
      </trkpt>
      <trkpt lat="44.76375" lon="-0.29626">
        <ele>106</ele>
        <time>2012-12-15T14:09:47Z</time>
      </trkpt>
      <trkpt lat="44.76368" lon="-0.29618">
        <ele>106</ele>
        <time>2012-12-15T14:09:51Z</time>
      </trkpt>
      <trkpt lat="44.7636" lon="-0.29609">
        <ele>106</ele>
        <time>2012-12-15T14:09:56Z</time>
      </trkpt>
      <trkpt lat="44.76351" lon="-0.29603">
        <ele>106</ele>
        <time>2012-12-15T14:10:01Z</time>
      </trkpt>
      <trkpt lat="44.76281" lon="-0.29511">
        <ele>104</ele>
        <time>2012-12-15T14:10:07Z</time>
      </trkpt>
      <trkpt lat="44.76273" lon="-0.29503">
        <ele>105</ele>
        <time>2012-12-15T14:12:20Z</time>
      </trkpt>
      <trkpt lat="44.76263" lon="-0.29495">
        <ele>105</ele>
        <time>2012-12-15T14:12:25Z</time>
      </trkpt>
      <trkpt lat="44.76254" lon="-0.2949">
        <ele>105</ele>
        <time>2012-12-15T14:12:30Z</time>
      </trkpt>
      <trkpt lat="44.76244" lon="-0.29483">
        <ele>105</ele>
        <time>2012-12-15T14:12:35Z</time>
      </trkpt>
      <trkpt lat="44.76235" lon="-0.29476">
        <ele>105</ele>
        <time>2012-12-15T14:12:40Z</time>
      </trkpt>
      <trkpt lat="44.76225" lon="-0.29468">
        <ele>105</ele>
        <time>2012-12-15T14:12:45Z</time>
      </trkpt>
      <trkpt lat="44.76217" lon="-0.29462">
        <ele>105</ele>
        <time>2012-12-15T14:12:49Z</time>
      </trkpt>
      <trkpt lat="44.76206" lon="-0.29455">
        <ele>106</ele>
        <time>2012-12-15T14:12:55Z</time>
      </trkpt>
      <trkpt lat="44.76198" lon="-0.29447">
        <ele>106</ele>
        <time>2012-12-15T14:13:00Z</time>
      </trkpt>
      <trkpt lat="44.7619" lon="-0.29437">
        <ele>106</ele>
        <time>2012-12-15T14:13:05Z</time>
      </trkpt>
      <trkpt lat="44.76185" lon="-0.29425">
        <ele>107</ele>
        <time>2012-12-15T14:13:10Z</time>
      </trkpt>
      <trkpt lat="44.76178" lon="-0.29414">
        <ele>107</ele>
        <time>2012-12-15T14:13:14Z</time>
      </trkpt>
      <trkpt lat="44.76172" lon="-0.294">
        <ele>107</ele>
        <time>2012-12-15T14:13:19Z</time>
      </trkpt>
      <trkpt lat="44.76167" lon="-0.29388">
        <ele>107</ele>
        <time>2012-12-15T14:13:23Z</time>
      </trkpt>
      <trkpt lat="44.76161" lon="-0.29374">
        <ele>107</ele>
        <time>2012-12-15T14:13:28Z</time>
      </trkpt>
      <trkpt lat="44.76155" lon="-0.29361">
        <ele>107</ele>
        <time>2012-12-15T14:13:33Z</time>
      </trkpt>
      <trkpt lat="44.76141" lon="-0.29339">
        <ele>106</ele>
        <time>2012-12-15T14:13:38Z</time>
      </trkpt>
      <trkpt lat="44.76017" lon="-0.29502">
        <ele>110</ele>
      </trkpt>
      <trkpt lat="44.75925" lon="-0.2942">
        <ele>105</ele>
      </trkpt>
      <trkpt lat="44.75877" lon="-0.29352">
        <ele>106</ele>
      </trkpt>
      <trkpt lat="44.75847" lon="-0.29352">
        <ele>107</ele>
        <time>2012-12-15T14:13:42Z</time>
      </trkpt>
      <trkpt lat="44.75817" lon="-0.29394">
        <ele>107</ele>
        <time>2012-12-15T14:40:22Z</time>
      </trkpt>
      <trkpt lat="44.7581" lon="-0.29403">
        <ele>107</ele>
        <time>2012-12-15T14:41:08Z</time>
      </trkpt>
      <trkpt lat="44.75803" lon="-0.29414">
        <ele>107</ele>
        <time>2012-12-15T14:41:12Z</time>
      </trkpt>
      <trkpt lat="44.75797" lon="-0.29424">
        <ele>106</ele>
        <time>2012-12-15T14:41:15Z</time>
      </trkpt>
      <trkpt lat="44.7579" lon="-0.29435">
        <ele>106</ele>
        <time>2012-12-15T14:41:18Z</time>
      </trkpt>
      <trkpt lat="44.75783" lon="-0.29446">
        <ele>106</ele>
        <time>2012-12-15T14:41:21Z</time>
      </trkpt>
      <trkpt lat="44.75776" lon="-0.29456">
        <ele>105</ele>
        <time>2012-12-15T14:41:24Z</time>
      </trkpt>
      <trkpt lat="44.75767" lon="-0.29462">
        <ele>105</ele>
        <time>2012-12-15T14:41:29Z</time>
      </trkpt>
      <trkpt lat="44.75762" lon="-0.29474">
        <ele>105</ele>
        <time>2012-12-15T14:41:35Z</time>
      </trkpt>
      <trkpt lat="44.75764" lon="-0.29487">
        <ele>105</ele>
        <time>2012-12-15T14:41:38Z</time>
      </trkpt>
      <trkpt lat="44.75766" lon="-0.29503">
        <ele>104</ele>
        <time>2012-12-15T14:41:41Z</time>
      </trkpt>
      <trkpt lat="44.7576" lon="-0.29515">
        <ele>104</ele>
        <time>2012-12-15T14:41:44Z</time>
      </trkpt>
      <trkpt lat="44.75753" lon="-0.29525">
        <ele>104</ele>
        <time>2012-12-15T14:41:47Z</time>
      </trkpt>
      <trkpt lat="44.75747" lon="-0.29538">
        <ele>104</ele>
        <time>2012-12-15T14:41:51Z</time>
      </trkpt>
      <trkpt lat="44.75741" lon="-0.29548">
        <ele>104</ele>
        <time>2012-12-15T14:41:55Z</time>
      </trkpt>
      <trkpt lat="44.75735" lon="-0.29561">
        <ele>104</ele>
        <time>2012-12-15T14:41:59Z</time>
      </trkpt>
      <trkpt lat="44.75729" lon="-0.29572">
        <ele>105</ele>
        <time>2012-12-15T14:42:03Z</time>
      </trkpt>
      <trkpt lat="44.75722" lon="-0.29582">
        <ele>105</ele>
        <time>2012-12-15T14:42:09Z</time>
      </trkpt>
      <trkpt lat="44.7572" lon="-0.29595">
        <ele>104</ele>
        <time>2012-12-15T14:42:16Z</time>
      </trkpt>
      <trkpt lat="44.75726" lon="-0.29608">
        <ele>103</ele>
        <time>2012-12-15T14:42:21Z</time>
      </trkpt>
      <trkpt lat="44.75733" lon="-0.29618">
        <ele>103</ele>
        <time>2012-12-15T14:42:26Z</time>
      </trkpt>
      <trkpt lat="44.7574" lon="-0.29627">
        <ele>102</ele>
        <time>2012-12-15T14:42:31Z</time>
      </trkpt>
      <trkpt lat="44.75746" lon="-0.29639">
        <ele>101</ele>
        <time>2012-12-15T14:42:37Z</time>
      </trkpt>
      <trkpt lat="44.75745" lon="-0.29653">
        <ele>101</ele>
        <time>2012-12-15T14:42:46Z</time>
      </trkpt>
      <trkpt lat="44.75737" lon="-0.29662">
        <ele>101</ele>
        <time>2012-12-15T14:42:53Z</time>
      </trkpt>
      <trkpt lat="44.75729" lon="-0.29671">
        <ele>102</ele>
        <time>2012-12-15T14:42:59Z</time>
      </trkpt>
      <trkpt lat="44.75722" lon="-0.29681">
        <ele>103</ele>
        <time>2012-12-15T14:43:05Z</time>
      </trkpt>
      <trkpt lat="44.75715" lon="-0.2969">
        <ele>103</ele>
        <time>2012-12-15T14:43:11Z</time>
      </trkpt>
      <trkpt lat="44.75708" lon="-0.29701">
        <ele>104</ele>
        <time>2012-12-15T14:43:19Z</time>
      </trkpt>
      <trkpt lat="44.75699" lon="-0.29708">
        <ele>105</ele>
        <time>2012-12-15T14:43:29Z</time>
      </trkpt>
      <trkpt lat="44.75689" lon="-0.29705">
        <ele>105</ele>
        <time>2012-12-15T14:43:37Z</time>
      </trkpt>
      <trkpt lat="44.75679" lon="-0.29707">
        <ele>106</ele>
        <time>2012-12-15T14:43:46Z</time>
      </trkpt>
      <trkpt lat="44.75671" lon="-0.29716">
        <ele>107</ele>
        <time>2012-12-15T14:43:55Z</time>
      </trkpt>
      <trkpt lat="44.75663" lon="-0.29725">
        <ele>107</ele>
        <time>2012-12-15T14:44:03Z</time>
      </trkpt>
      <trkpt lat="44.75655" lon="-0.29732">
        <ele>108</ele>
        <time>2012-12-15T14:44:10Z</time>
      </trkpt>
      <trkpt lat="44.75645" lon="-0.29737">
        <ele>108</ele>
        <time>2012-12-15T14:44:17Z</time>
      </trkpt>
      <trkpt lat="44.75635" lon="-0.29741">
        <ele>108</ele>
        <time>2012-12-15T14:44:24Z</time>
      </trkpt>
      <trkpt lat="44.75625" lon="-0.29744">
        <ele>108</ele>
        <time>2012-12-15T14:44:32Z</time>
      </trkpt>
      <trkpt lat="44.75616" lon="-0.29748">
        <ele>108</ele>
        <time>2012-12-15T14:44:38Z</time>
      </trkpt>
      <trkpt lat="44.75607" lon="-0.29745">
        <ele>108</ele>
        <time>2012-12-15T14:44:46Z</time>
      </trkpt>
      <trkpt lat="44.756" lon="-0.29733">
        <ele>109</ele>
        <time>2012-12-15T14:44:54Z</time>
      </trkpt>
      <trkpt lat="44.75589" lon="-0.29729">
        <ele>108</ele>
        <time>2012-12-15T14:45:01Z</time>
      </trkpt>
      <trkpt lat="44.75584" lon="-0.29716">
        <ele>109</ele>
        <time>2012-12-15T14:45:10Z</time>
      </trkpt>
      <trkpt lat="44.75583" lon="-0.29702">
        <ele>109</ele>
        <time>2012-12-15T14:45:16Z</time>
      </trkpt>
      <trkpt lat="44.75581" lon="-0.29688">
        <ele>109</ele>
        <time>2012-12-15T14:45:23Z</time>
      </trkpt>
      <trkpt lat="44.75577" lon="-0.29675">
        <ele>110</ele>
        <time>2012-12-15T14:45:33Z</time>
      </trkpt>
      <trkpt lat="44.75569" lon="-0.29667">
        <ele>110</ele>
        <time>2012-12-15T14:45:45Z</time>
      </trkpt>
      <trkpt lat="44.75559" lon="-0.29667">
        <ele>109</ele>
        <time>2012-12-15T14:45:51Z</time>
      </trkpt>
      <trkpt lat="44.75554" lon="-0.29655">
        <ele>109</ele>
        <time>2012-12-15T14:46:05Z</time>
      </trkpt>
      <trkpt lat="44.7554" lon="-0.29642">
        <ele>108</ele>
        <time>2012-12-15T14:46:34Z</time>
      </trkpt>
      <trkpt lat="44.75531" lon="-0.29639">
        <ele>107</ele>
        <time>2012-12-15T14:46:40Z</time>
      </trkpt>
      <trkpt lat="44.75524" lon="-0.29627">
        <ele>107</ele>
        <time>2012-12-15T14:46:45Z</time>
      </trkpt>
      <trkpt lat="44.75529" lon="-0.29616">
        <ele>107</ele>
        <time>2012-12-15T14:46:50Z</time>
      </trkpt>
      <trkpt lat="44.75535" lon="-0.29607">
        <ele>108</ele>
        <time>2012-12-15T14:46:55Z</time>
      </trkpt>
      <trkpt lat="44.75537" lon="-0.29593">
        <ele>108</ele>
        <time>2012-12-15T14:47:00Z</time>
      </trkpt>
      <trkpt lat="44.75542" lon="-0.29582">
        <ele>109</ele>
        <time>2012-12-15T14:47:05Z</time>
      </trkpt>
      <trkpt lat="44.75541" lon="-0.29569">
        <ele>109</ele>
        <time>2012-12-15T14:47:11Z</time>
      </trkpt>
      <trkpt lat="44.75537" lon="-0.29554">
        <ele>109</ele>
        <time>2012-12-15T14:47:16Z</time>
      </trkpt>
      <trkpt lat="44.75534" lon="-0.29546">
        <ele>109</ele>
        <time>2012-12-15T14:47:21Z</time>
      </trkpt>
      <trkpt lat="44.75534" lon="-0.29545">
        <ele>109</ele>
        <time>2012-12-15T14:52:26Z</time>
      </trkpt>
      <trkpt lat="44.75528" lon="-0.29543">
        <ele>108</ele>
        <time>2012-12-15T14:52:32Z</time>
      </trkpt>
      <trkpt lat="44.75517" lon="-0.29541">
        <ele>108</ele>
        <time>2012-12-15T14:52:38Z</time>
      </trkpt>
      <trkpt lat="44.75507" lon="-0.2954">
        <ele>106</ele>
        <time>2012-12-15T14:52:43Z</time>
      </trkpt>
      <trkpt lat="44.75498" lon="-0.29539">
        <ele>105</ele>
        <time>2012-12-15T14:52:48Z</time>
      </trkpt>
      <trkpt lat="44.75495" lon="-0.29525">
        <ele>104</ele>
        <time>2012-12-15T14:52:55Z</time>
      </trkpt>
      <trkpt lat="44.75494" lon="-0.29509">
        <ele>104</ele>
        <time>2012-12-15T14:53:00Z</time>
      </trkpt>
      <trkpt lat="44.75493" lon="-0.29495">
        <ele>105</ele>
        <time>2012-12-15T14:53:04Z</time>
      </trkpt>
      <trkpt lat="44.75493" lon="-0.2948">
        <ele>105</ele>
        <time>2012-12-15T14:53:09Z</time>
      </trkpt>
      <trkpt lat="44.75492" lon="-0.29465">
        <ele>105</ele>
        <time>2012-12-15T14:53:14Z</time>
      </trkpt>
      <trkpt lat="44.75491" lon="-0.29451">
        <ele>105</ele>
        <time>2012-12-15T14:53:19Z</time>
      </trkpt>
      <trkpt lat="44.75491" lon="-0.29436">
        <ele>106</ele>
        <time>2012-12-15T14:53:24Z</time>
      </trkpt>
      <trkpt lat="44.75489" lon="-0.29423">
        <ele>106</ele>
        <time>2012-12-15T14:53:30Z</time>
      </trkpt>
      <trkpt lat="44.7548" lon="-0.29417">
        <ele>105</ele>
        <time>2012-12-15T14:53:35Z</time>
      </trkpt>
      <trkpt lat="44.75471" lon="-0.29411">
        <ele>106</ele>
        <time>2012-12-15T14:53:41Z</time>
      </trkpt>
      <trkpt lat="44.75471" lon="-0.29397">
        <ele>106</ele>
        <time>2012-12-15T14:53:46Z</time>
      </trkpt>
      <trkpt lat="44.7547" lon="-0.29383">
        <ele>107</ele>
        <time>2012-12-15T14:53:51Z</time>
      </trkpt>
      <trkpt lat="44.75469" lon="-0.2937">
        <ele>107</ele>
        <time>2012-12-15T14:53:56Z</time>
      </trkpt>
      <trkpt lat="44.75468" lon="-0.29355">
        <ele>108</ele>
        <time>2012-12-15T14:54:02Z</time>
      </trkpt>
      <trkpt lat="44.75466" lon="-0.29341">
        <ele>109</ele>
        <time>2012-12-15T14:54:08Z</time>
      </trkpt>
      <trkpt lat="44.75466" lon="-0.29326">
        <ele>109</ele>
        <time>2012-12-15T14:54:14Z</time>
      </trkpt>
      <trkpt lat="44.75462" lon="-0.29314">
        <ele>110</ele>
        <time>2012-12-15T14:54:28Z</time>
      </trkpt>
      <trkpt lat="44.75454" lon="-0.29308">
        <ele>110</ele>
        <time>2012-12-15T14:54:45Z</time>
      </trkpt>
      <trkpt lat="44.75444" lon="-0.29307">
        <ele>110</ele>
        <time>2012-12-15T14:54:52Z</time>
      </trkpt>
      <trkpt lat="44.75435" lon="-0.2931">
        <ele>110</ele>
        <time>2012-12-15T14:54:58Z</time>
      </trkpt>
      <trkpt lat="44.75425" lon="-0.2931">
        <ele>111</ele>
        <time>2012-12-15T14:55:05Z</time>
      </trkpt>
      <trkpt lat="44.75423" lon="-0.29297">
        <ele>111</ele>
        <time>2012-12-15T14:55:11Z</time>
      </trkpt>
      <trkpt lat="44.75422" lon="-0.29283">
        <ele>112</ele>
        <time>2012-12-15T14:55:17Z</time>
      </trkpt>
      <trkpt lat="44.75421" lon="-0.29269">
        <ele>112</ele>
        <time>2012-12-15T14:55:24Z</time>
      </trkpt>
      <trkpt lat="44.75423" lon="-0.29255">
        <ele>112</ele>
        <time>2012-12-15T14:55:31Z</time>
      </trkpt>
      <trkpt lat="44.75413" lon="-0.29255">
        <ele>112</ele>
        <time>2012-12-15T14:55:37Z</time>
      </trkpt>
      <trkpt lat="44.75402" lon="-0.29255">
        <ele>113</ele>
        <time>2012-12-15T14:55:42Z</time>
      </trkpt>
      <trkpt lat="44.75391" lon="-0.29258">
        <ele>114</ele>
        <time>2012-12-15T14:55:47Z</time>
      </trkpt>
      <trkpt lat="44.75383" lon="-0.29263">
        <ele>115</ele>
        <time>2012-12-15T14:55:51Z</time>
      </trkpt>
      <trkpt lat="44.75372" lon="-0.2927">
        <ele>115</ele>
        <time>2012-12-15T14:55:56Z</time>
      </trkpt>
      <trkpt lat="44.75365" lon="-0.29278">
        <ele>116</ele>
        <time>2012-12-15T14:56:00Z</time>
      </trkpt>
      <trkpt lat="44.75356" lon="-0.29285">
        <ele>116</ele>
        <time>2012-12-15T14:56:04Z</time>
      </trkpt>
      <trkpt lat="44.75346" lon="-0.29294">
        <ele>117</ele>
        <time>2012-12-15T14:56:09Z</time>
      </trkpt>
      <trkpt lat="44.75337" lon="-0.29303">
        <ele>117</ele>
        <time>2012-12-15T14:56:14Z</time>
      </trkpt>
      <trkpt lat="44.75328" lon="-0.29311">
        <ele>117</ele>
        <time>2012-12-15T14:56:18Z</time>
      </trkpt>
      <trkpt lat="44.75319" lon="-0.29319">
        <ele>117</ele>
        <time>2012-12-15T14:56:23Z</time>
      </trkpt>
      <trkpt lat="44.75309" lon="-0.2932">
        <ele>117</ele>
        <time>2012-12-15T14:56:38Z</time>
      </trkpt>
      <trkpt lat="44.75301" lon="-0.2933">
        <ele>117</ele>
        <time>2012-12-15T14:57:32Z</time>
      </trkpt>
      <trkpt lat="44.75292" lon="-0.29338">
        <ele>117</ele>
        <time>2012-12-15T14:57:36Z</time>
      </trkpt>
      <trkpt lat="44.75281" lon="-0.29349">
        <ele>116</ele>
        <time>2012-12-15T14:57:40Z</time>
      </trkpt>
      <trkpt lat="44.75272" lon="-0.29358">
        <ele>116</ele>
        <time>2012-12-15T14:57:43Z</time>
      </trkpt>
      <trkpt lat="44.75262" lon="-0.29366">
        <ele>115</ele>
        <time>2012-12-15T14:57:46Z</time>
      </trkpt>
      <trkpt lat="44.75249" lon="-0.2937">
        <ele>115</ele>
        <time>2012-12-15T14:57:49Z</time>
      </trkpt>
      <trkpt lat="44.75236" lon="-0.29374">
        <ele>114</ele>
        <time>2012-12-15T14:57:52Z</time>
      </trkpt>
      <trkpt lat="44.75222" lon="-0.29378">
        <ele>114</ele>
        <time>2012-12-15T14:57:55Z</time>
      </trkpt>
      <trkpt lat="44.75212" lon="-0.29379">
        <ele>113</ele>
        <time>2012-12-15T14:57:57Z</time>
      </trkpt>
      <trkpt lat="44.75201" lon="-0.29382">
        <ele>113</ele>
        <time>2012-12-15T14:57:59Z</time>
      </trkpt>
      <trkpt lat="44.7519" lon="-0.29384">
        <ele>112</ele>
        <time>2012-12-15T14:58:01Z</time>
      </trkpt>
      <trkpt lat="44.75178" lon="-0.29387">
        <ele>112</ele>
        <time>2012-12-15T14:58:03Z</time>
      </trkpt>
      <trkpt lat="44.75167" lon="-0.29388">
        <ele>111</ele>
        <time>2012-12-15T14:58:05Z</time>
      </trkpt>
      <trkpt lat="44.75157" lon="-0.29392">
        <ele>111</ele>
        <time>2012-12-15T14:58:07Z</time>
      </trkpt>
      <trkpt lat="44.75146" lon="-0.29394">
        <ele>110</ele>
        <time>2012-12-15T14:58:09Z</time>
      </trkpt>
      <trkpt lat="44.75137" lon="-0.29396">
        <ele>109</ele>
        <time>2012-12-15T14:58:11Z</time>
      </trkpt>
      <trkpt lat="44.75125" lon="-0.29397">
        <ele>109</ele>
        <time>2012-12-15T14:58:14Z</time>
      </trkpt>
      <trkpt lat="44.75114" lon="-0.29396">
        <ele>108</ele>
        <time>2012-12-15T14:58:18Z</time>
      </trkpt>
      <trkpt lat="44.75104" lon="-0.29393">
        <ele>107</ele>
        <time>2012-12-15T14:58:24Z</time>
      </trkpt>
      <trkpt lat="44.75094" lon="-0.29388">
        <ele>107</ele>
        <time>2012-12-15T14:58:29Z</time>
      </trkpt>
      <trkpt lat="44.75086" lon="-0.29381">
        <ele>107</ele>
        <time>2012-12-15T14:58:32Z</time>
      </trkpt>
      <trkpt lat="44.75076" lon="-0.29376">
        <ele>106</ele>
        <time>2012-12-15T14:58:35Z</time>
      </trkpt>
      <trkpt lat="44.75068" lon="-0.2937">
        <ele>106</ele>
        <time>2012-12-15T14:58:38Z</time>
      </trkpt>
      <trkpt lat="44.75059" lon="-0.29363">
        <ele>106</ele>
        <time>2012-12-15T14:58:41Z</time>
      </trkpt>
      <trkpt lat="44.75051" lon="-0.29357">
        <ele>106</ele>
        <time>2012-12-15T14:58:45Z</time>
      </trkpt>
      <trkpt lat="44.75042" lon="-0.29352">
        <ele>106</ele>
        <time>2012-12-15T14:58:50Z</time>
      </trkpt>
      <trkpt lat="44.75034" lon="-0.29345">
        <ele>106</ele>
        <time>2012-12-15T14:58:55Z</time>
      </trkpt>
      <trkpt lat="44.75023" lon="-0.29338">
        <ele>106</ele>
        <time>2012-12-15T14:59:00Z</time>
      </trkpt>
      <trkpt lat="44.75014" lon="-0.29332">
        <ele>106</ele>
        <time>2012-12-15T14:59:06Z</time>
      </trkpt>
      <trkpt lat="44.75005" lon="-0.29326">
        <ele>106</ele>
        <time>2012-12-15T14:59:12Z</time>
      </trkpt>
      <trkpt lat="44.74997" lon="-0.29318">
        <ele>106</ele>
        <time>2012-12-15T14:59:18Z</time>
      </trkpt>
      <trkpt lat="44.74988" lon="-0.2931">
        <ele>106</ele>
        <time>2012-12-15T14:59:24Z</time>
      </trkpt>
      <trkpt lat="44.74979" lon="-0.29303">
        <ele>107</ele>
        <time>2012-12-15T14:59:30Z</time>
      </trkpt>
      <trkpt lat="44.7497" lon="-0.29295">
        <ele>107</ele>
        <time>2012-12-15T14:59:35Z</time>
      </trkpt>
      <trkpt lat="44.74961" lon="-0.29287">
        <ele>107</ele>
        <time>2012-12-15T14:59:39Z</time>
      </trkpt>
      <trkpt lat="44.74951" lon="-0.29278">
        <ele>107</ele>
        <time>2012-12-15T14:59:43Z</time>
      </trkpt>
      <trkpt lat="44.74941" lon="-0.29269">
        <ele>107</ele>
        <time>2012-12-15T14:59:47Z</time>
      </trkpt>
      <trkpt lat="44.74931" lon="-0.2926">
        <ele>108</ele>
        <time>2012-12-15T14:59:51Z</time>
      </trkpt>
      <trkpt lat="44.7492" lon="-0.29252">
        <ele>108</ele>
        <time>2012-12-15T14:59:55Z</time>
      </trkpt>
      <trkpt lat="44.74911" lon="-0.29247">
        <ele>108</ele>
        <time>2012-12-15T14:59:58Z</time>
      </trkpt>
      <trkpt lat="44.74902" lon="-0.29242">
        <ele>108</ele>
        <time>2012-12-15T15:00:01Z</time>
      </trkpt>
      <trkpt lat="44.74892" lon="-0.29238">
        <ele>108</ele>
        <time>2012-12-15T15:00:04Z</time>
      </trkpt>
      <trkpt lat="44.74881" lon="-0.29234">
        <ele>108</ele>
        <time>2012-12-15T15:00:07Z</time>
      </trkpt>
      <trkpt lat="44.7487" lon="-0.2923">
        <ele>107</ele>
        <time>2012-12-15T15:00:10Z</time>
      </trkpt>
      <trkpt lat="44.74858" lon="-0.29227">
        <ele>107</ele>
        <time>2012-12-15T15:00:13Z</time>
      </trkpt>
      <trkpt lat="44.74847" lon="-0.29225">
        <ele>106</ele>
        <time>2012-12-15T15:00:16Z</time>
      </trkpt>
      <trkpt lat="44.74835" lon="-0.29224">
        <ele>107</ele>
        <time>2012-12-15T15:00:19Z</time>
      </trkpt>
      <trkpt lat="44.74824" lon="-0.29223">
        <ele>107</ele>
        <time>2012-12-15T15:00:22Z</time>
      </trkpt>
      <trkpt lat="44.74813" lon="-0.29221">
        <ele>107</ele>
        <time>2012-12-15T15:00:25Z</time>
      </trkpt>
      <trkpt lat="44.74803" lon="-0.2922">
        <ele>107</ele>
        <time>2012-12-15T15:00:29Z</time>
      </trkpt>
      <trkpt lat="44.74792" lon="-0.2922">
        <ele>108</ele>
        <time>2012-12-15T15:00:34Z</time>
      </trkpt>
      <trkpt lat="44.74781" lon="-0.29219">
        <ele>108</ele>
        <time>2012-12-15T15:00:38Z</time>
      </trkpt>
      <trkpt lat="44.74771" lon="-0.29219">
        <ele>109</ele>
        <time>2012-12-15T15:00:43Z</time>
      </trkpt>
      <trkpt lat="44.74761" lon="-0.29219">
        <ele>109</ele>
        <time>2012-12-15T15:00:48Z</time>
      </trkpt>
      <trkpt lat="44.74749" lon="-0.29216">
        <ele>109</ele>
        <time>2012-12-15T15:00:54Z</time>
      </trkpt>
      <trkpt lat="44.74738" lon="-0.29214">
        <ele>109</ele>
        <time>2012-12-15T15:00:59Z</time>
      </trkpt>
      <trkpt lat="44.74726" lon="-0.29212">
        <ele>109</ele>
        <time>2012-12-15T15:01:03Z</time>
      </trkpt>
      <trkpt lat="44.74714" lon="-0.29211">
        <ele>109</ele>
        <time>2012-12-15T15:01:07Z</time>
      </trkpt>
      <trkpt lat="44.74708" lon="-0.29198">
        <ele>110</ele>
        <time>2012-12-15T15:01:11Z</time>
      </trkpt>
      <trkpt lat="44.74707" lon="-0.29182">
        <ele>110</ele>
        <time>2012-12-15T15:01:15Z</time>
      </trkpt>
      <trkpt lat="44.74706" lon="-0.29166">
        <ele>111</ele>
        <time>2012-12-15T15:01:19Z</time>
      </trkpt>
      <trkpt lat="44.74705" lon="-0.2915">
        <ele>111</ele>
        <time>2012-12-15T15:01:23Z</time>
      </trkpt>
      <trkpt lat="44.74706" lon="-0.29133">
        <ele>111</ele>
        <time>2012-12-15T15:01:27Z</time>
      </trkpt>
      <trkpt lat="44.74706" lon="-0.29119">
        <ele>111</ele>
        <time>2012-12-15T15:01:31Z</time>
      </trkpt>
      <trkpt lat="44.74707" lon="-0.29104">
        <ele>111</ele>
        <time>2012-12-15T15:01:35Z</time>
      </trkpt>
      <trkpt lat="44.74707" lon="-0.29087">
        <ele>111</ele>
        <time>2012-12-15T15:01:39Z</time>
      </trkpt>
      <trkpt lat="44.74707" lon="-0.2907">
        <ele>111</ele>
        <time>2012-12-15T15:01:43Z</time>
      </trkpt>
      <trkpt lat="44.74706" lon="-0.29055">
        <ele>111</ele>
        <time>2012-12-15T15:01:47Z</time>
      </trkpt>
      <trkpt lat="44.74703" lon="-0.29041">
        <ele>111</ele>
        <time>2012-12-15T15:01:51Z</time>
      </trkpt>
      <trkpt lat="44.74697" lon="-0.29027">
        <ele>111</ele>
        <time>2012-12-15T15:01:55Z</time>
      </trkpt>
      <trkpt lat="44.74691" lon="-0.29016">
        <ele>111</ele>
        <time>2012-12-15T15:01:59Z</time>
      </trkpt>
      <trkpt lat="44.74692" lon="-0.29001">
        <ele>110</ele>
        <time>2012-12-15T15:02:09Z</time>
      </trkpt>
      <trkpt lat="44.74698" lon="-0.28988">
        <ele>110</ele>
        <time>2012-12-15T15:02:16Z</time>
      </trkpt>
      <trkpt lat="44.74703" lon="-0.28976">
        <ele>110</ele>
        <time>2012-12-15T15:02:20Z</time>
      </trkpt>
      <trkpt lat="44.74711" lon="-0.28963">
        <ele>109</ele>
        <time>2012-12-15T15:02:25Z</time>
      </trkpt>
      <trkpt lat="44.74718" lon="-0.28951">
        <ele>108</ele>
        <time>2012-12-15T15:02:30Z</time>
      </trkpt>
      <trkpt lat="44.74725" lon="-0.28942">
        <ele>108</ele>
        <time>2012-12-15T15:02:35Z</time>
      </trkpt>
      <trkpt lat="44.74732" lon="-0.28933">
        <ele>107</ele>
        <time>2012-12-15T15:02:39Z</time>
      </trkpt>
      <trkpt lat="44.74738" lon="-0.28922">
        <ele>107</ele>
        <time>2012-12-15T15:02:43Z</time>
      </trkpt>
      <trkpt lat="44.74744" lon="-0.2891">
        <ele>106</ele>
        <time>2012-12-15T15:02:47Z</time>
      </trkpt>
      <trkpt lat="44.74752" lon="-0.28899">
        <ele>105</ele>
        <time>2012-12-15T15:02:52Z</time>
      </trkpt>
      <trkpt lat="44.74761" lon="-0.28891">
        <ele>104</ele>
        <time>2012-12-15T15:02:57Z</time>
      </trkpt>
      <trkpt lat="44.74768" lon="-0.28878">
        <ele>103</ele>
        <time>2012-12-15T15:03:02Z</time>
      </trkpt>
      <trkpt lat="44.74774" lon="-0.28867">
        <ele>102</ele>
        <time>2012-12-15T15:03:06Z</time>
      </trkpt>
      <trkpt lat="44.74781" lon="-0.28856">
        <ele>101</ele>
        <time>2012-12-15T15:03:11Z</time>
      </trkpt>
      <trkpt lat="44.74788" lon="-0.28846">
        <ele>100</ele>
        <time>2012-12-15T15:03:16Z</time>
      </trkpt>
      <trkpt lat="44.74797" lon="-0.28837">
        <ele>98</ele>
        <time>2012-12-15T15:03:19Z</time>
      </trkpt>
      <trkpt lat="44.74804" lon="-0.28827">
        <ele>97</ele>
        <time>2012-12-15T15:03:21Z</time>
      </trkpt>
      <trkpt lat="44.74811" lon="-0.28816">
        <ele>95</ele>
        <time>2012-12-15T15:03:23Z</time>
      </trkpt>
      <trkpt lat="44.74818" lon="-0.28805">
        <ele>93</ele>
        <time>2012-12-15T15:03:25Z</time>
      </trkpt>
      <trkpt lat="44.74825" lon="-0.28794">
        <ele>92</ele>
        <time>2012-12-15T15:03:27Z</time>
      </trkpt>
      <trkpt lat="44.74833" lon="-0.28782">
        <ele>90</ele>
        <time>2012-12-15T15:03:29Z</time>
      </trkpt>
      <trkpt lat="44.74842" lon="-0.28769">
        <ele>88</ele>
        <time>2012-12-15T15:03:31Z</time>
      </trkpt>
      <trkpt lat="44.7485" lon="-0.28758">
        <ele>87</ele>
        <time>2012-12-15T15:03:33Z</time>
      </trkpt>
      <trkpt lat="44.74857" lon="-0.28748">
        <ele>87</ele>
        <time>2012-12-15T15:03:35Z</time>
      </trkpt>
      <trkpt lat="44.74865" lon="-0.28735">
        <ele>87</ele>
        <time>2012-12-15T15:03:39Z</time>
      </trkpt>
      <trkpt lat="44.74867" lon="-0.28722">
        <ele>88</ele>
        <time>2012-12-15T15:03:44Z</time>
      </trkpt>
      <trkpt lat="44.74865" lon="-0.28706">
        <ele>88</ele>
        <time>2012-12-15T15:03:49Z</time>
      </trkpt>
      <trkpt lat="44.74862" lon="-0.28692">
        <ele>88</ele>
        <time>2012-12-15T15:03:53Z</time>
      </trkpt>
      <trkpt lat="44.74857" lon="-0.28678">
        <ele>88</ele>
        <time>2012-12-15T15:03:57Z</time>
      </trkpt>
      <trkpt lat="44.74852" lon="-0.28664">
        <ele>88</ele>
        <time>2012-12-15T15:04:00Z</time>
      </trkpt>
      <trkpt lat="44.74847" lon="-0.28651">
        <ele>88</ele>
        <time>2012-12-15T15:04:03Z</time>
      </trkpt>
      <trkpt lat="44.7484" lon="-0.28639">
        <ele>88</ele>
        <time>2012-12-15T15:04:06Z</time>
      </trkpt>
      <trkpt lat="44.74831" lon="-0.28628">
        <ele>87</ele>
        <time>2012-12-15T15:04:09Z</time>
      </trkpt>
      <trkpt lat="44.74822" lon="-0.28617">
        <ele>87</ele>
        <time>2012-12-15T15:04:12Z</time>
      </trkpt>
      <trkpt lat="44.74814" lon="-0.28606">
        <ele>86</ele>
        <time>2012-12-15T15:04:15Z</time>
      </trkpt>
      <trkpt lat="44.74806" lon="-0.28594">
        <ele>86</ele>
        <time>2012-12-15T15:04:18Z</time>
      </trkpt>
      <trkpt lat="44.74797" lon="-0.28582">
        <ele>86</ele>
        <time>2012-12-15T15:04:21Z</time>
      </trkpt>
      <trkpt lat="44.74787" lon="-0.28569">
        <ele>85</ele>
        <time>2012-12-15T15:04:24Z</time>
      </trkpt>
      <trkpt lat="44.74777" lon="-0.28556">
        <ele>84</ele>
        <time>2012-12-15T15:04:27Z</time>
      </trkpt>
      <trkpt lat="44.74767" lon="-0.28541">
        <ele>83</ele>
        <time>2012-12-15T15:04:30Z</time>
      </trkpt>
      <trkpt lat="44.74761" lon="-0.28531">
        <ele>83</ele>
        <time>2012-12-15T15:04:32Z</time>
      </trkpt>
      <trkpt lat="44.74755" lon="-0.28519">
        <ele>83</ele>
        <time>2012-12-15T15:04:34Z</time>
      </trkpt>
      <trkpt lat="44.7475" lon="-0.28506">
        <ele>83</ele>
        <time>2012-12-15T15:04:36Z</time>
      </trkpt>
      <trkpt lat="44.74746" lon="-0.2849">
        <ele>83</ele>
        <time>2012-12-15T15:04:39Z</time>
      </trkpt>
      <trkpt lat="44.74741" lon="-0.28474">
        <ele>83</ele>
        <time>2012-12-15T15:04:42Z</time>
      </trkpt>
      <trkpt lat="44.74737" lon="-0.28456">
        <ele>83</ele>
        <time>2012-12-15T15:04:45Z</time>
      </trkpt>
      <trkpt lat="44.74735" lon="-0.28441">
        <ele>83</ele>
        <time>2012-12-15T15:04:48Z</time>
      </trkpt>
      <trkpt lat="44.74736" lon="-0.28425">
        <ele>83</ele>
        <time>2012-12-15T15:04:51Z</time>
      </trkpt>
      <trkpt lat="44.74732" lon="-0.28416">
        <ele>83</ele>
        <time>2012-12-15T15:08:32Z</time>
      </trkpt>
      <trkpt lat="44.74723" lon="-0.2842">
        <ele>82</ele>
        <time>2012-12-15T15:08:37Z</time>
      </trkpt>
      <trkpt lat="44.74713" lon="-0.28427">
        <ele>81</ele>
        <time>2012-12-15T15:08:43Z</time>
      </trkpt>
      <trkpt lat="44.74703" lon="-0.28434">
        <ele>80</ele>
        <time>2012-12-15T15:08:48Z</time>
      </trkpt>
      <trkpt lat="44.74693" lon="-0.28442">
        <ele>79</ele>
        <time>2012-12-15T15:08:52Z</time>
      </trkpt>
      <trkpt lat="44.74683" lon="-0.28451">
        <ele>79</ele>
        <time>2012-12-15T15:08:56Z</time>
      </trkpt>
      <trkpt lat="44.74672" lon="-0.28459">
        <ele>78</ele>
        <time>2012-12-15T15:09:00Z</time>
      </trkpt>
      <trkpt lat="44.74662" lon="-0.28466">
        <ele>77</ele>
        <time>2012-12-15T15:09:04Z</time>
      </trkpt>
      <trkpt lat="44.74653" lon="-0.28475">
        <ele>77</ele>
        <time>2012-12-15T15:09:08Z</time>
      </trkpt>
      <trkpt lat="44.74644" lon="-0.28482">
        <ele>76</ele>
        <time>2012-12-15T15:09:12Z</time>
      </trkpt>
      <trkpt lat="44.74635" lon="-0.2849">
        <ele>77</ele>
        <time>2012-12-15T15:09:18Z</time>
      </trkpt>
      <trkpt lat="44.7463" lon="-0.28501">
        <ele>77</ele>
        <time>2012-12-15T15:09:23Z</time>
      </trkpt>
      <trkpt lat="44.74623" lon="-0.28514">
        <ele>77</ele>
        <time>2012-12-15T15:09:28Z</time>
      </trkpt>
      <trkpt lat="44.74615" lon="-0.28523">
        <ele>78</ele>
        <time>2012-12-15T15:09:33Z</time>
      </trkpt>
      <trkpt lat="44.74607" lon="-0.28531">
        <ele>78</ele>
        <time>2012-12-15T15:09:40Z</time>
      </trkpt>
      <trkpt lat="44.74601" lon="-0.28542">
        <ele>79</ele>
        <time>2012-12-15T15:09:50Z</time>
      </trkpt>
      <trkpt lat="44.74592" lon="-0.2855">
        <ele>80</ele>
        <time>2012-12-15T15:09:57Z</time>
      </trkpt>
      <trkpt lat="44.74585" lon="-0.28559">
        <ele>81</ele>
        <time>2012-12-15T15:10:05Z</time>
      </trkpt>
      <trkpt lat="44.74575" lon="-0.28565">
        <ele>81</ele>
        <time>2012-12-15T15:10:13Z</time>
      </trkpt>
      <trkpt lat="44.74567" lon="-0.28571">
        <ele>82</ele>
        <time>2012-12-15T15:10:21Z</time>
      </trkpt>
      <trkpt lat="44.74559" lon="-0.28579">
        <ele>83</ele>
        <time>2012-12-15T15:10:30Z</time>
      </trkpt>
      <trkpt lat="44.74553" lon="-0.28589">
        <ele>84</ele>
        <time>2012-12-15T15:10:54Z</time>
      </trkpt>
      <trkpt lat="44.74544" lon="-0.28594">
        <ele>85</ele>
        <time>2012-12-15T15:11:11Z</time>
      </trkpt>
      <trkpt lat="44.74534" lon="-0.28593">
        <ele>86</ele>
        <time>2012-12-15T15:11:33Z</time>
      </trkpt>
      <trkpt lat="44.74527" lon="-0.28583">
        <ele>86</ele>
        <time>2012-12-15T15:11:50Z</time>
      </trkpt>
      <trkpt lat="44.7452" lon="-0.28591">
        <ele>87</ele>
        <time>2012-12-15T15:12:12Z</time>
      </trkpt>
      <trkpt lat="44.74512" lon="-0.28599">
        <ele>88</ele>
        <time>2012-12-15T15:12:41Z</time>
      </trkpt>
      <trkpt lat="44.74504" lon="-0.28607">
        <ele>90</ele>
        <time>2012-12-15T15:12:55Z</time>
      </trkpt>
      <trkpt lat="44.74496" lon="-0.28613">
        <ele>91</ele>
        <time>2012-12-15T15:13:09Z</time>
      </trkpt>
      <trkpt lat="44.74488" lon="-0.2862">
        <ele>93</ele>
        <time>2012-12-15T15:13:26Z</time>
      </trkpt>
      <trkpt lat="44.74484" lon="-0.28633">
        <ele>95</ele>
        <time>2012-12-15T15:13:43Z</time>
      </trkpt>
      <trkpt lat="44.74481" lon="-0.28646">
        <ele>96</ele>
        <time>2012-12-15T15:14:05Z</time>
      </trkpt>
      <trkpt lat="44.74488" lon="-0.28655">
        <ele>96</ele>
        <time>2012-12-15T15:14:30Z</time>
      </trkpt>
      <trkpt lat="44.74495" lon="-0.28669">
        <ele>97</ele>
        <time>2012-12-15T15:14:36Z</time>
      </trkpt>
      <trkpt lat="44.74502" lon="-0.28678">
        <ele>98</ele>
        <time>2012-12-15T15:14:40Z</time>
      </trkpt>
      <trkpt lat="44.74511" lon="-0.28682">
        <ele>98</ele>
        <time>2012-12-15T15:14:43Z</time>
      </trkpt>
      <trkpt lat="44.74521" lon="-0.28686">
        <ele>97</ele>
        <time>2012-12-15T15:14:46Z</time>
      </trkpt>
      <trkpt lat="44.74532" lon="-0.28689">
        <ele>96</ele>
        <time>2012-12-15T15:14:49Z</time>
      </trkpt>
      <trkpt lat="44.74543" lon="-0.28691">
        <ele>95</ele>
        <time>2012-12-15T15:14:53Z</time>
      </trkpt>
      <trkpt lat="44.74553" lon="-0.28695">
        <ele>95</ele>
        <time>2012-12-15T15:14:59Z</time>
      </trkpt>
      <trkpt lat="44.74561" lon="-0.28703">
        <ele>95</ele>
        <time>2012-12-15T15:15:05Z</time>
      </trkpt>
      <trkpt lat="44.74568" lon="-0.28713">
        <ele>96</ele>
        <time>2012-12-15T15:15:10Z</time>
      </trkpt>
      <trkpt lat="44.74572" lon="-0.28725">
        <ele>97</ele>
        <time>2012-12-15T15:15:16Z</time>
      </trkpt>
      <trkpt lat="44.74574" lon="-0.28739">
        <ele>99</ele>
        <time>2012-12-15T15:15:24Z</time>
      </trkpt>
      <trkpt lat="44.74576" lon="-0.28753">
        <ele>100</ele>
        <time>2012-12-15T15:15:31Z</time>
      </trkpt>
      <trkpt lat="44.7458" lon="-0.28766">
        <ele>102</ele>
        <time>2012-12-15T15:15:38Z</time>
      </trkpt>
      <trkpt lat="44.74582" lon="-0.28778">
        <ele>103</ele>
        <time>2012-12-15T15:15:44Z</time>
      </trkpt>
      <trkpt lat="44.74585" lon="-0.28793">
        <ele>104</ele>
        <time>2012-12-15T15:15:50Z</time>
      </trkpt>
      <trkpt lat="44.74587" lon="-0.28806">
        <ele>105</ele>
        <time>2012-12-15T15:15:55Z</time>
      </trkpt>
      <trkpt lat="44.74591" lon="-0.2882">
        <ele>105</ele>
        <time>2012-12-15T15:16:01Z</time>
      </trkpt>
      <trkpt lat="44.74594" lon="-0.28832">
        <ele>106</ele>
        <time>2012-12-15T15:16:07Z</time>
      </trkpt>
      <trkpt lat="44.746" lon="-0.28845">
        <ele>107</ele>
        <time>2012-12-15T15:16:13Z</time>
      </trkpt>
      <trkpt lat="44.74605" lon="-0.28858">
        <ele>107</ele>
        <time>2012-12-15T15:16:20Z</time>
      </trkpt>
      <trkpt lat="44.74612" lon="-0.28868">
        <ele>107</ele>
        <time>2012-12-15T15:16:26Z</time>
      </trkpt>
      <trkpt lat="44.7462" lon="-0.28876">
        <ele>107</ele>
        <time>2012-12-15T15:16:31Z</time>
      </trkpt>
      <trkpt lat="44.74629" lon="-0.28884">
        <ele>107</ele>
        <time>2012-12-15T15:16:37Z</time>
      </trkpt>
      <trkpt lat="44.74637" lon="-0.28894">
        <ele>107</ele>
        <time>2012-12-15T15:16:44Z</time>
      </trkpt>
      <trkpt lat="44.74644" lon="-0.28904">
        <ele>108</ele>
        <time>2012-12-15T15:16:50Z</time>
      </trkpt>
      <trkpt lat="44.7465" lon="-0.28917">
        <ele>108</ele>
        <time>2012-12-15T15:16:57Z</time>
      </trkpt>
      <trkpt lat="44.74649" lon="-0.2893">
        <ele>109</ele>
        <time>2012-12-15T15:17:04Z</time>
      </trkpt>
      <trkpt lat="44.74639" lon="-0.28932">
        <ele>109</ele>
        <time>2012-12-15T15:17:11Z</time>
      </trkpt>
      <trkpt lat="44.74629" lon="-0.28933">
        <ele>109</ele>
        <time>2012-12-15T15:17:16Z</time>
      </trkpt>
      <trkpt lat="44.74619" lon="-0.28935">
        <ele>109</ele>
        <time>2012-12-15T15:17:21Z</time>
      </trkpt>
      <trkpt lat="44.74608" lon="-0.28936">
        <ele>110</ele>
        <time>2012-12-15T15:17:26Z</time>
      </trkpt>
      <trkpt lat="44.74597" lon="-0.28937">
        <ele>110</ele>
        <time>2012-12-15T15:17:31Z</time>
      </trkpt>
      <trkpt lat="44.74586" lon="-0.28937">
        <ele>111</ele>
        <time>2012-12-15T15:17:36Z</time>
      </trkpt>
      <trkpt lat="44.74575" lon="-0.28938">
        <ele>111</ele>
        <time>2012-12-15T15:17:41Z</time>
      </trkpt>
      <trkpt lat="44.74566" lon="-0.28939">
        <ele>111</ele>
        <time>2012-12-15T15:17:45Z</time>
      </trkpt>
      <trkpt lat="44.74555" lon="-0.2894">
        <ele>111</ele>
        <time>2012-12-15T15:17:50Z</time>
      </trkpt>
      <trkpt lat="44.74545" lon="-0.28941">
        <ele>111</ele>
        <time>2012-12-15T15:17:55Z</time>
      </trkpt>
      <trkpt lat="44.74537" lon="-0.28948">
        <ele>111</ele>
        <time>2012-12-15T15:18:01Z</time>
      </trkpt>
      <trkpt lat="44.74538" lon="-0.28962">
        <ele>111</ele>
        <time>2012-12-15T15:18:06Z</time>
      </trkpt>
      <trkpt lat="44.7454" lon="-0.28974">
        <ele>111</ele>
        <time>2012-12-15T15:18:11Z</time>
      </trkpt>
      <trkpt lat="44.74541" lon="-0.28988">
        <ele>111</ele>
        <time>2012-12-15T15:18:16Z</time>
      </trkpt>
      <trkpt lat="44.74541" lon="-0.29001">
        <ele>111</ele>
        <time>2012-12-15T15:18:21Z</time>
      </trkpt>
      <trkpt lat="44.74542" lon="-0.29017">
        <ele>111</ele>
        <time>2012-12-15T15:18:26Z</time>
      </trkpt>
      <trkpt lat="44.74543" lon="-0.29031">
        <ele>111</ele>
        <time>2012-12-15T15:18:31Z</time>
      </trkpt>
      <trkpt lat="44.74543" lon="-0.29046">
        <ele>111</ele>
        <time>2012-12-15T15:18:37Z</time>
      </trkpt>
      <trkpt lat="44.74545" lon="-0.2906">
        <ele>111</ele>
        <time>2012-12-15T15:18:42Z</time>
      </trkpt>
      <trkpt lat="44.74546" lon="-0.29075">
        <ele>111</ele>
        <time>2012-12-15T15:18:48Z</time>
      </trkpt>
      <trkpt lat="44.74547" lon="-0.29089">
        <ele>111</ele>
        <time>2012-12-15T15:18:53Z</time>
      </trkpt>
      <trkpt lat="44.74548" lon="-0.29104">
        <ele>111</ele>
        <time>2012-12-15T15:18:58Z</time>
      </trkpt>
      <trkpt lat="44.74549" lon="-0.29118">
        <ele>111</ele>
        <time>2012-12-15T15:19:03Z</time>
      </trkpt>
      <trkpt lat="44.7455" lon="-0.29133">
        <ele>111</ele>
        <time>2012-12-15T15:19:09Z</time>
      </trkpt>
      <trkpt lat="44.74551" lon="-0.29149">
        <ele>111</ele>
        <time>2012-12-15T15:19:15Z</time>
      </trkpt>
      <trkpt lat="44.74552" lon="-0.29164">
        <ele>111</ele>
        <time>2012-12-15T15:19:21Z</time>
      </trkpt>
      <trkpt lat="44.74552" lon="-0.29177">
        <ele>110</ele>
        <time>2012-12-15T15:19:26Z</time>
      </trkpt>
      <trkpt lat="44.74548" lon="-0.2919">
        <ele>110</ele>
        <time>2012-12-15T15:19:31Z</time>
      </trkpt>
      <trkpt lat="44.74537" lon="-0.29194">
        <ele>110</ele>
        <time>2012-12-15T15:19:35Z</time>
      </trkpt>
      <trkpt lat="44.74527" lon="-0.29195">
        <ele>109</ele>
        <time>2012-12-15T15:19:38Z</time>
      </trkpt>
      <trkpt lat="44.74516" lon="-0.29199">
        <ele>109</ele>
        <time>2012-12-15T15:19:41Z</time>
      </trkpt>
      <trkpt lat="44.74506" lon="-0.29202">
        <ele>109</ele>
        <time>2012-12-15T15:19:44Z</time>
      </trkpt>
      <trkpt lat="44.74494" lon="-0.29208">
        <ele>108</ele>
        <time>2012-12-15T15:19:47Z</time>
      </trkpt>
      <trkpt lat="44.74482" lon="-0.29212">
        <ele>108</ele>
        <time>2012-12-15T15:19:50Z</time>
      </trkpt>
      <trkpt lat="44.74469" lon="-0.29216">
        <ele>107</ele>
        <time>2012-12-15T15:19:53Z</time>
      </trkpt>
      <trkpt lat="44.74459" lon="-0.29219">
        <ele>107</ele>
        <time>2012-12-15T15:19:55Z</time>
      </trkpt>
      <trkpt lat="44.7445" lon="-0.29221">
        <ele>106</ele>
        <time>2012-12-15T15:19:57Z</time>
      </trkpt>
      <trkpt lat="44.7444" lon="-0.29224">
        <ele>106</ele>
        <time>2012-12-15T15:19:59Z</time>
      </trkpt>
      <trkpt lat="44.7443" lon="-0.29228">
        <ele>106</ele>
        <time>2012-12-15T15:20:01Z</time>
      </trkpt>
      <trkpt lat="44.7442" lon="-0.29231">
        <ele>106</ele>
        <time>2012-12-15T15:20:03Z</time>
      </trkpt>
      <trkpt lat="44.7441" lon="-0.29234">
        <ele>106</ele>
        <time>2012-12-15T15:20:05Z</time>
      </trkpt>
      <trkpt lat="44.74401" lon="-0.29237">
        <ele>106</ele>
        <time>2012-12-15T15:20:07Z</time>
      </trkpt>
      <trkpt lat="44.74392" lon="-0.2924">
        <ele>106</ele>
        <time>2012-12-15T15:20:09Z</time>
      </trkpt>
      <trkpt lat="44.74379" lon="-0.29245">
        <ele>106</ele>
        <time>2012-12-15T15:20:12Z</time>
      </trkpt>
      <trkpt lat="44.74368" lon="-0.29248">
        <ele>106</ele>
        <time>2012-12-15T15:20:15Z</time>
      </trkpt>
      <trkpt lat="44.74358" lon="-0.29252">
        <ele>106</ele>
        <time>2012-12-15T15:20:18Z</time>
      </trkpt>
      <trkpt lat="44.74346" lon="-0.29255">
        <ele>106</ele>
        <time>2012-12-15T15:20:22Z</time>
      </trkpt>
      <trkpt lat="44.74334" lon="-0.2926">
        <ele>107</ele>
        <time>2012-12-15T15:20:26Z</time>
      </trkpt>
      <trkpt lat="44.74322" lon="-0.29264">
        <ele>107</ele>
        <time>2012-12-15T15:20:30Z</time>
      </trkpt>
      <trkpt lat="44.7431" lon="-0.29268">
        <ele>108</ele>
        <time>2012-12-15T15:20:34Z</time>
      </trkpt>
      <trkpt lat="44.74297" lon="-0.29272">
        <ele>108</ele>
        <time>2012-12-15T15:20:38Z</time>
      </trkpt>
      <trkpt lat="44.74287" lon="-0.29276">
        <ele>108</ele>
        <time>2012-12-15T15:20:42Z</time>
      </trkpt>
      <trkpt lat="44.74275" lon="-0.2928">
        <ele>108</ele>
        <time>2012-12-15T15:20:46Z</time>
      </trkpt>
      <trkpt lat="44.74264" lon="-0.29283">
        <ele>108</ele>
        <time>2012-12-15T15:20:50Z</time>
      </trkpt>
      <trkpt lat="44.74253" lon="-0.29287">
        <ele>108</ele>
        <time>2012-12-15T15:20:54Z</time>
      </trkpt>
      <trkpt lat="44.74241" lon="-0.29291">
        <ele>108</ele>
        <time>2012-12-15T15:20:58Z</time>
      </trkpt>
      <trkpt lat="44.7423" lon="-0.29295">
        <ele>108</ele>
        <time>2012-12-15T15:21:02Z</time>
      </trkpt>
      <trkpt lat="44.74219" lon="-0.29299">
        <ele>108</ele>
        <time>2012-12-15T15:21:06Z</time>
      </trkpt>
      <trkpt lat="44.74207" lon="-0.29301">
        <ele>108</ele>
        <time>2012-12-15T15:21:10Z</time>
      </trkpt>
      <trkpt lat="44.74197" lon="-0.29304">
        <ele>108</ele>
        <time>2012-12-15T15:21:13Z</time>
      </trkpt>
      <trkpt lat="44.74185" lon="-0.29306">
        <ele>108</ele>
        <time>2012-12-15T15:21:17Z</time>
      </trkpt>
      <trkpt lat="44.74175" lon="-0.29308">
        <ele>108</ele>
        <time>2012-12-15T15:21:21Z</time>
      </trkpt>
      <trkpt lat="44.74164" lon="-0.29307">
        <ele>108</ele>
        <time>2012-12-15T15:21:25Z</time>
      </trkpt>
      <trkpt lat="44.74153" lon="-0.29307">
        <ele>108</ele>
        <time>2012-12-15T15:21:29Z</time>
      </trkpt>
      <trkpt lat="44.74142" lon="-0.29307">
        <ele>108</ele>
        <time>2012-12-15T15:21:34Z</time>
      </trkpt>
      <trkpt lat="44.74132" lon="-0.29307">
        <ele>108</ele>
        <time>2012-12-15T15:21:38Z</time>
      </trkpt>
      <trkpt lat="44.74121" lon="-0.29306">
        <ele>108</ele>
        <time>2012-12-15T15:21:42Z</time>
      </trkpt>
      <trkpt lat="44.74111" lon="-0.29305">
        <ele>108</ele>
        <time>2012-12-15T15:21:46Z</time>
      </trkpt>
      <trkpt lat="44.74098" lon="-0.29304">
        <ele>108</ele>
        <time>2012-12-15T15:21:50Z</time>
      </trkpt>
      <trkpt lat="44.74087" lon="-0.29303">
        <ele>108</ele>
        <time>2012-12-15T15:21:54Z</time>
      </trkpt>
      <trkpt lat="44.74075" lon="-0.29301">
        <ele>108</ele>
        <time>2012-12-15T15:21:58Z</time>
      </trkpt>
      <trkpt lat="44.74064" lon="-0.293">
        <ele>109</ele>
        <time>2012-12-15T15:22:02Z</time>
      </trkpt>
      <trkpt lat="44.74052" lon="-0.293">
        <ele>109</ele>
        <time>2012-12-15T15:22:06Z</time>
      </trkpt>
      <trkpt lat="44.74041" lon="-0.29298">
        <ele>109</ele>
        <time>2012-12-15T15:22:10Z</time>
      </trkpt>
      <trkpt lat="44.74029" lon="-0.29296">
        <ele>109</ele>
        <time>2012-12-15T15:22:14Z</time>
      </trkpt>
      <trkpt lat="44.74016" lon="-0.29294">
        <ele>110</ele>
        <time>2012-12-15T15:22:18Z</time>
      </trkpt>
      <trkpt lat="44.74005" lon="-0.29294">
        <ele>110</ele>
        <time>2012-12-15T15:22:22Z</time>
      </trkpt>
      <trkpt lat="44.73993" lon="-0.29294">
        <ele>110</ele>
        <time>2012-12-15T15:22:26Z</time>
      </trkpt>
      <trkpt lat="44.73981" lon="-0.29293">
        <ele>110</ele>
        <time>2012-12-15T15:22:30Z</time>
      </trkpt>
      <trkpt lat="44.73969" lon="-0.29294">
        <ele>110</ele>
        <time>2012-12-15T15:22:34Z</time>
      </trkpt>
      <trkpt lat="44.73959" lon="-0.29295">
        <ele>110</ele>
        <time>2012-12-15T15:22:37Z</time>
      </trkpt>
      <trkpt lat="44.73948" lon="-0.29298">
        <ele>110</ele>
        <time>2012-12-15T15:22:41Z</time>
      </trkpt>
      <trkpt lat="44.73936" lon="-0.293">
        <ele>110</ele>
        <time>2012-12-15T15:22:45Z</time>
      </trkpt>
      <trkpt lat="44.73925" lon="-0.29303">
        <ele>110</ele>
        <time>2012-12-15T15:22:49Z</time>
      </trkpt>
      <trkpt lat="44.73913" lon="-0.29306">
        <ele>110</ele>
        <time>2012-12-15T15:22:53Z</time>
      </trkpt>
      <trkpt lat="44.73901" lon="-0.29309">
        <ele>110</ele>
        <time>2012-12-15T15:22:57Z</time>
      </trkpt>
      <trkpt lat="44.73888" lon="-0.29313">
        <ele>110</ele>
        <time>2012-12-15T15:23:01Z</time>
      </trkpt>
      <trkpt lat="44.73878" lon="-0.29317">
        <ele>110</ele>
        <time>2012-12-15T15:23:04Z</time>
      </trkpt>
      <trkpt lat="44.73868" lon="-0.29319">
        <ele>110</ele>
        <time>2012-12-15T15:23:07Z</time>
      </trkpt>
      <trkpt lat="44.73857" lon="-0.29323">
        <ele>110</ele>
        <time>2012-12-15T15:23:10Z</time>
      </trkpt>
      <trkpt lat="44.73846" lon="-0.29326">
        <ele>110</ele>
        <time>2012-12-15T15:23:13Z</time>
      </trkpt>
      <trkpt lat="44.73836" lon="-0.29329">
        <ele>110</ele>
        <time>2012-12-15T15:23:16Z</time>
      </trkpt>
      <trkpt lat="44.73826" lon="-0.29331">
        <ele>110</ele>
        <time>2012-12-15T15:23:19Z</time>
      </trkpt>
      <trkpt lat="44.73816" lon="-0.29335">
        <ele>110</ele>
        <time>2012-12-15T15:23:23Z</time>
      </trkpt>
      <trkpt lat="44.73806" lon="-0.29336">
        <ele>110</ele>
        <time>2012-12-15T15:23:27Z</time>
      </trkpt>
      <trkpt lat="44.73796" lon="-0.2934">
        <ele>109</ele>
        <time>2012-12-15T15:23:31Z</time>
      </trkpt>
      <trkpt lat="44.73785" lon="-0.29344">
        <ele>110</ele>
        <time>2012-12-15T15:23:35Z</time>
      </trkpt>
      <trkpt lat="44.73776" lon="-0.29348">
        <ele>110</ele>
        <time>2012-12-15T15:23:38Z</time>
      </trkpt>
      <trkpt lat="44.73765" lon="-0.29353">
        <ele>110</ele>
        <time>2012-12-15T15:23:42Z</time>
      </trkpt>
      <trkpt lat="44.73754" lon="-0.29356">
        <ele>110</ele>
        <time>2012-12-15T15:23:46Z</time>
      </trkpt>
      <trkpt lat="44.73743" lon="-0.29357">
        <ele>110</ele>
        <time>2012-12-15T15:23:52Z</time>
      </trkpt>
      <trkpt lat="44.73733" lon="-0.29361">
        <ele>110</ele>
        <time>2012-12-15T15:23:57Z</time>
      </trkpt>
      <trkpt lat="44.73723" lon="-0.29365">
        <ele>110</ele>
        <time>2012-12-15T15:24:01Z</time>
      </trkpt>
      <trkpt lat="44.73713" lon="-0.2937">
        <ele>110</ele>
        <time>2012-12-15T15:24:05Z</time>
      </trkpt>
      <trkpt lat="44.73701" lon="-0.29373">
        <ele>110</ele>
        <time>2012-12-15T15:24:09Z</time>
      </trkpt>
      <trkpt lat="44.7369" lon="-0.29378">
        <ele>110</ele>
        <time>2012-12-15T15:24:13Z</time>
      </trkpt>
      <trkpt lat="44.73681" lon="-0.29381">
        <ele>110</ele>
        <time>2012-12-15T15:24:16Z</time>
      </trkpt>
      <trkpt lat="44.73672" lon="-0.29385">
        <ele>110</ele>
        <time>2012-12-15T15:24:19Z</time>
      </trkpt>
      <trkpt lat="44.73663" lon="-0.29388">
        <ele>110</ele>
        <time>2012-12-15T15:24:22Z</time>
      </trkpt>
      <trkpt lat="44.73654" lon="-0.29392">
        <ele>110</ele>
        <time>2012-12-15T15:24:25Z</time>
      </trkpt>
      <trkpt lat="44.73643" lon="-0.29397">
        <ele>110</ele>
        <time>2012-12-15T15:24:29Z</time>
      </trkpt>
      <trkpt lat="44.73634" lon="-0.29406">
        <ele>110</ele>
        <time>2012-12-15T15:24:34Z</time>
      </trkpt>
      <trkpt lat="44.73626" lon="-0.29414">
        <ele>110</ele>
        <time>2012-12-15T15:24:38Z</time>
      </trkpt>
      <trkpt lat="44.73618" lon="-0.29425">
        <ele>110</ele>
        <time>2012-12-15T15:24:43Z</time>
      </trkpt>
      <trkpt lat="44.73612" lon="-0.29437">
        <ele>110</ele>
        <time>2012-12-15T15:24:47Z</time>
      </trkpt>
      <trkpt lat="44.73606" lon="-0.29451">
        <ele>109</ele>
        <time>2012-12-15T15:24:51Z</time>
      </trkpt>
      <trkpt lat="44.736" lon="-0.29463">
        <ele>109</ele>
        <time>2012-12-15T15:24:54Z</time>
      </trkpt>
      <trkpt lat="44.73593" lon="-0.29476">
        <ele>109</ele>
        <time>2012-12-15T15:24:57Z</time>
      </trkpt>
      <trkpt lat="44.73586" lon="-0.29489">
        <ele>109</ele>
        <time>2012-12-15T15:25:00Z</time>
      </trkpt>
      <trkpt lat="44.73579" lon="-0.29503">
        <ele>108</ele>
        <time>2012-12-15T15:25:03Z</time>
      </trkpt>
      <trkpt lat="44.73573" lon="-0.29518">
        <ele>108</ele>
        <time>2012-12-15T15:25:06Z</time>
      </trkpt>
      <trkpt lat="44.73565" lon="-0.29534">
        <ele>107</ele>
        <time>2012-12-15T15:25:09Z</time>
      </trkpt>
      <trkpt lat="44.73557" lon="-0.29549">
        <ele>106</ele>
        <time>2012-12-15T15:25:12Z</time>
      </trkpt>
      <trkpt lat="44.7355" lon="-0.29565">
        <ele>106</ele>
        <time>2012-12-15T15:25:15Z</time>
      </trkpt>
      <trkpt lat="44.73543" lon="-0.29579">
        <ele>106</ele>
        <time>2012-12-15T15:25:18Z</time>
      </trkpt>
      <trkpt lat="44.73536" lon="-0.29591">
        <ele>106</ele>
        <time>2012-12-15T15:25:21Z</time>
      </trkpt>
      <trkpt lat="44.73529" lon="-0.29605">
        <ele>105</ele>
        <time>2012-12-15T15:25:24Z</time>
      </trkpt>
      <trkpt lat="44.73523" lon="-0.29623">
        <ele>105</ele>
        <time>2012-12-15T15:25:27Z</time>
      </trkpt>
      <trkpt lat="44.73516" lon="-0.29634">
        <ele>104</ele>
        <time>2012-12-15T15:25:31Z</time>
      </trkpt>
      <trkpt lat="44.73511" lon="-0.29647">
        <ele>104</ele>
        <time>2012-12-15T15:25:35Z</time>
      </trkpt>
      <trkpt lat="44.73516" lon="-0.29659">
        <ele>105</ele>
        <time>2012-12-15T15:26:42Z</time>
      </trkpt>
      <trkpt lat="44.73522" lon="-0.2967">
        <ele>105</ele>
        <time>2012-12-15T15:26:47Z</time>
      </trkpt>
      <trkpt lat="44.7353" lon="-0.29683">
        <ele>106</ele>
        <time>2012-12-15T15:26:52Z</time>
      </trkpt>
      <trkpt lat="44.73536" lon="-0.29696">
        <ele>106</ele>
        <time>2012-12-15T15:26:56Z</time>
      </trkpt>
      <trkpt lat="44.73542" lon="-0.29708">
        <ele>107</ele>
        <time>2012-12-15T15:27:00Z</time>
      </trkpt>
      <trkpt lat="44.73549" lon="-0.29721">
        <ele>107</ele>
        <time>2012-12-15T15:27:04Z</time>
      </trkpt>
      <trkpt lat="44.73555" lon="-0.29734">
        <ele>107</ele>
        <time>2012-12-15T15:27:08Z</time>
      </trkpt>
      <trkpt lat="44.73562" lon="-0.29747">
        <ele>108</ele>
        <time>2012-12-15T15:27:12Z</time>
      </trkpt>
      <trkpt lat="44.73568" lon="-0.29759">
        <ele>108</ele>
        <time>2012-12-15T15:27:16Z</time>
      </trkpt>
      <trkpt lat="44.73575" lon="-0.29771">
        <ele>107</ele>
        <time>2012-12-15T15:27:20Z</time>
      </trkpt>
      <trkpt lat="44.73581" lon="-0.29785">
        <ele>107</ele>
        <time>2012-12-15T15:27:24Z</time>
      </trkpt>
      <trkpt lat="44.73587" lon="-0.29798">
        <ele>107</ele>
        <time>2012-12-15T15:27:28Z</time>
      </trkpt>
      <trkpt lat="44.73596" lon="-0.29806">
        <ele>107</ele>
        <time>2012-12-15T15:27:32Z</time>
      </trkpt>
      <trkpt lat="44.73606" lon="-0.29803">
        <ele>107</ele>
        <time>2012-12-15T15:27:36Z</time>
      </trkpt>
      <trkpt lat="44.73616" lon="-0.29796">
        <ele>107</ele>
        <time>2012-12-15T15:27:40Z</time>
      </trkpt>
      <trkpt lat="44.73626" lon="-0.29791">
        <ele>107</ele>
        <time>2012-12-15T15:27:44Z</time>
      </trkpt>
      <trkpt lat="44.73635" lon="-0.29785">
        <ele>107</ele>
        <time>2012-12-15T15:27:48Z</time>
      </trkpt>
      <trkpt lat="44.73645" lon="-0.29779">
        <ele>106</ele>
        <time>2012-12-15T15:27:53Z</time>
      </trkpt>
      <trkpt lat="44.73655" lon="-0.29785">
        <ele>106</ele>
        <time>2012-12-15T15:27:58Z</time>
      </trkpt>
      <trkpt lat="44.73662" lon="-0.29798">
        <ele>106</ele>
        <time>2012-12-15T15:28:02Z</time>
      </trkpt>
      <trkpt lat="44.73669" lon="-0.29811">
        <ele>106</ele>
        <time>2012-12-15T15:28:06Z</time>
      </trkpt>
      <trkpt lat="44.73676" lon="-0.29822">
        <ele>106</ele>
        <time>2012-12-15T15:28:10Z</time>
      </trkpt>
      <trkpt lat="44.73683" lon="-0.29835">
        <ele>106</ele>
        <time>2012-12-15T15:28:14Z</time>
      </trkpt>
      <trkpt lat="44.7369" lon="-0.29847">
        <ele>106</ele>
        <time>2012-12-15T15:28:18Z</time>
      </trkpt>
      <trkpt lat="44.73696" lon="-0.29859">
        <ele>106</ele>
        <time>2012-12-15T15:28:22Z</time>
      </trkpt>
      <trkpt lat="44.73703" lon="-0.29872">
        <ele>106</ele>
        <time>2012-12-15T15:28:26Z</time>
      </trkpt>
      <trkpt lat="44.7371" lon="-0.29883">
        <ele>106</ele>
        <time>2012-12-15T15:28:30Z</time>
      </trkpt>
      <trkpt lat="44.73715" lon="-0.29895">
        <ele>105</ele>
        <time>2012-12-15T15:28:34Z</time>
      </trkpt>
      <trkpt lat="44.73721" lon="-0.29908">
        <ele>105</ele>
        <time>2012-12-15T15:28:40Z</time>
      </trkpt>
      <trkpt lat="44.73728" lon="-0.29919">
        <ele>105</ele>
        <time>2012-12-15T15:28:46Z</time>
      </trkpt>
      <trkpt lat="44.73737" lon="-0.29924">
        <ele>104</ele>
        <time>2012-12-15T15:28:52Z</time>
      </trkpt>
      <trkpt lat="44.73745" lon="-0.29933">
        <ele>103</ele>
        <time>2012-12-15T15:29:06Z</time>
      </trkpt>
      <trkpt lat="44.73751" lon="-0.29944">
        <ele>103</ele>
        <time>2012-12-15T15:29:16Z</time>
      </trkpt>
      <trkpt lat="44.73758" lon="-0.29955">
        <ele>102</ele>
        <time>2012-12-15T15:29:20Z</time>
      </trkpt>
      <trkpt lat="44.73765" lon="-0.29969">
        <ele>101</ele>
        <time>2012-12-15T15:29:24Z</time>
      </trkpt>
      <trkpt lat="44.73773" lon="-0.29982">
        <ele>100</ele>
        <time>2012-12-15T15:29:28Z</time>
      </trkpt>
      <trkpt lat="44.73779" lon="-0.29993">
        <ele>100</ele>
        <time>2012-12-15T15:29:31Z</time>
      </trkpt>
      <trkpt lat="44.73786" lon="-0.30006">
        <ele>99</ele>
        <time>2012-12-15T15:29:35Z</time>
      </trkpt>
      <trkpt lat="44.7379" lon="-0.30019">
        <ele>98</ele>
        <time>2012-12-15T15:29:38Z</time>
      </trkpt>
      <trkpt lat="44.73792" lon="-0.30033">
        <ele>98</ele>
        <time>2012-12-15T15:29:41Z</time>
      </trkpt>
      <trkpt lat="44.73792" lon="-0.30048">
        <ele>97</ele>
        <time>2012-12-15T15:29:45Z</time>
      </trkpt>
      <trkpt lat="44.73792" lon="-0.30064">
        <ele>97</ele>
        <time>2012-12-15T15:29:49Z</time>
      </trkpt>
      <trkpt lat="44.73793" lon="-0.30077">
        <ele>97</ele>
        <time>2012-12-15T15:29:52Z</time>
      </trkpt>
      <trkpt lat="44.73792" lon="-0.30095">
        <ele>97</ele>
        <time>2012-12-15T15:29:56Z</time>
      </trkpt>
      <trkpt lat="44.73793" lon="-0.30108">
        <ele>96</ele>
        <time>2012-12-15T15:29:59Z</time>
      </trkpt>
      <trkpt lat="44.73794" lon="-0.30121">
        <ele>96</ele>
        <time>2012-12-15T15:30:02Z</time>
      </trkpt>
      <trkpt lat="44.73794" lon="-0.30136">
        <ele>95</ele>
        <time>2012-12-15T15:30:06Z</time>
      </trkpt>
      <trkpt lat="44.73792" lon="-0.30149">
        <ele>94</ele>
        <time>2012-12-15T15:30:13Z</time>
      </trkpt>
      <trkpt lat="44.73794" lon="-0.30165">
        <ele>93</ele>
        <time>2012-12-15T15:30:20Z</time>
      </trkpt>
      <trkpt lat="44.73794" lon="-0.3018">
        <ele>92</ele>
        <time>2012-12-15T15:30:24Z</time>
      </trkpt>
      <trkpt lat="44.73793" lon="-0.30194">
        <ele>91</ele>
        <time>2012-12-15T15:30:28Z</time>
      </trkpt>
      <trkpt lat="44.73792" lon="-0.30209">
        <ele>89</ele>
        <time>2012-12-15T15:30:32Z</time>
      </trkpt>
      <trkpt lat="44.73794" lon="-0.30222">
        <ele>88</ele>
        <time>2012-12-15T15:30:35Z</time>
      </trkpt>
      <trkpt lat="44.73795" lon="-0.30238">
        <ele>87</ele>
        <time>2012-12-15T15:30:39Z</time>
      </trkpt>
      <trkpt lat="44.73797" lon="-0.30251">
        <ele>86</ele>
        <time>2012-12-15T15:30:42Z</time>
      </trkpt>
      <trkpt lat="44.73799" lon="-0.30266">
        <ele>85</ele>
        <time>2012-12-15T15:30:46Z</time>
      </trkpt>
      <trkpt lat="44.73801" lon="-0.3028">
        <ele>84</ele>
        <time>2012-12-15T15:30:50Z</time>
      </trkpt>
      <trkpt lat="44.73798" lon="-0.30294">
        <ele>83</ele>
        <time>2012-12-15T15:30:54Z</time>
      </trkpt>
      <trkpt lat="44.73793" lon="-0.30306">
        <ele>83</ele>
        <time>2012-12-15T15:31:01Z</time>
      </trkpt>
      <trkpt lat="44.73783" lon="-0.30306">
        <ele>81</ele>
        <time>2012-12-15T15:31:06Z</time>
      </trkpt>
      <trkpt lat="44.73775" lon="-0.30297">
        <ele>80</ele>
        <time>2012-12-15T15:31:11Z</time>
      </trkpt>
      <trkpt lat="44.73767" lon="-0.30289">
        <ele>79</ele>
        <time>2012-12-15T15:31:15Z</time>
      </trkpt>
      <trkpt lat="44.7376" lon="-0.30279">
        <ele>78</ele>
        <time>2012-12-15T15:31:21Z</time>
      </trkpt>
      <trkpt lat="44.73754" lon="-0.30266">
        <ele>78</ele>
        <time>2012-12-15T15:31:26Z</time>
      </trkpt>
      <trkpt lat="44.73749" lon="-0.30254">
        <ele>77</ele>
        <time>2012-12-15T15:31:31Z</time>
      </trkpt>
      <trkpt lat="44.73744" lon="-0.30242">
        <ele>78</ele>
        <time>2012-12-15T15:31:37Z</time>
      </trkpt>
      <trkpt lat="44.73739" lon="-0.30228">
        <ele>79</ele>
        <time>2012-12-15T15:31:44Z</time>
      </trkpt>
      <trkpt lat="44.73733" lon="-0.30218">
        <ele>80</ele>
        <time>2012-12-15T15:31:50Z</time>
      </trkpt>
      <trkpt lat="44.73726" lon="-0.30208">
        <ele>80</ele>
        <time>2012-12-15T15:31:57Z</time>
      </trkpt>
      <trkpt lat="44.73719" lon="-0.30198">
        <ele>81</ele>
        <time>2012-12-15T15:32:04Z</time>
      </trkpt>
      <trkpt lat="44.73713" lon="-0.30188">
        <ele>81</ele>
        <time>2012-12-15T15:32:12Z</time>
      </trkpt>
      <trkpt lat="44.73705" lon="-0.3018">
        <ele>81</ele>
        <time>2012-12-15T15:32:21Z</time>
      </trkpt>
      <trkpt lat="44.73698" lon="-0.3017">
        <ele>82</ele>
        <time>2012-12-15T15:32:29Z</time>
      </trkpt>
      <trkpt lat="44.73691" lon="-0.30158">
        <ele>83</ele>
        <time>2012-12-15T15:32:38Z</time>
      </trkpt>
      <trkpt lat="44.73687" lon="-0.30147">
        <ele>83</ele>
        <time>2012-12-15T15:32:47Z</time>
      </trkpt>
      <trkpt lat="44.73682" lon="-0.30133">
        <ele>84</ele>
        <time>2012-12-15T15:32:58Z</time>
      </trkpt>
      <trkpt lat="44.73678" lon="-0.3012">
        <ele>85</ele>
        <time>2012-12-15T15:33:09Z</time>
      </trkpt>
      <trkpt lat="44.73673" lon="-0.30108">
        <ele>86</ele>
        <time>2012-12-15T15:33:18Z</time>
      </trkpt>
      <trkpt lat="44.73669" lon="-0.30096">
        <ele>87</ele>
        <time>2012-12-15T15:33:26Z</time>
      </trkpt>
      <trkpt lat="44.73664" lon="-0.30085">
        <ele>88</ele>
        <time>2012-12-15T15:33:35Z</time>
      </trkpt>
      <trkpt lat="44.73658" lon="-0.30074">
        <ele>89</ele>
        <time>2012-12-15T15:33:43Z</time>
      </trkpt>
      <trkpt lat="44.73657" lon="-0.3006">
        <ele>90</ele>
        <time>2012-12-15T15:34:00Z</time>
      </trkpt>
      <trkpt lat="44.73666" lon="-0.30056">
        <ele>92</ele>
        <time>2012-12-15T15:34:17Z</time>
      </trkpt>
      <trkpt lat="44.73675" lon="-0.30062">
        <ele>93</ele>
        <time>2012-12-15T15:34:29Z</time>
      </trkpt>
      <trkpt lat="44.73683" lon="-0.30073">
        <ele>92</ele>
        <time>2012-12-15T15:34:35Z</time>
      </trkpt>
      <trkpt lat="44.7369" lon="-0.30083">
        <ele>92</ele>
        <time>2012-12-15T15:34:40Z</time>
      </trkpt>
      <trkpt lat="44.73697" lon="-0.30094">
        <ele>91</ele>
        <time>2012-12-15T15:34:45Z</time>
      </trkpt>
      <trkpt lat="44.73705" lon="-0.30103">
        <ele>90</ele>
        <time>2012-12-15T15:34:49Z</time>
      </trkpt>
      <trkpt lat="44.73715" lon="-0.30112">
        <ele>91</ele>
        <time>2012-12-15T15:34:54Z</time>
      </trkpt>
      <trkpt lat="44.73725" lon="-0.30119">
        <ele>91</ele>
        <time>2012-12-15T15:34:59Z</time>
      </trkpt>
      <trkpt lat="44.73734" lon="-0.30124">
        <ele>92</ele>
        <time>2012-12-15T15:35:03Z</time>
      </trkpt>
      <trkpt lat="44.73744" lon="-0.30129">
        <ele>93</ele>
        <time>2012-12-15T15:35:07Z</time>
      </trkpt>
      <trkpt lat="44.73755" lon="-0.30132">
        <ele>93</ele>
        <time>2012-12-15T15:35:12Z</time>
      </trkpt>
      <trkpt lat="44.73763" lon="-0.30138">
        <ele>93</ele>
        <time>2012-12-15T15:35:17Z</time>
      </trkpt>
      <trkpt lat="44.73774" lon="-0.30144">
        <ele>93</ele>
        <time>2012-12-15T15:35:22Z</time>
      </trkpt>
      <trkpt lat="44.73784" lon="-0.30146">
        <ele>94</ele>
        <time>2012-12-15T15:35:27Z</time>
      </trkpt>
      <trkpt lat="44.73794" lon="-0.30134">
        <ele>95</ele>
        <time>2012-12-15T15:47:51Z</time>
      </trkpt>
      <trkpt lat="44.73794" lon="-0.30121">
        <ele>96</ele>
        <time>2012-12-15T15:48:01Z</time>
      </trkpt>
      <trkpt lat="44.73793" lon="-0.30107">
        <ele>96</ele>
        <time>2012-12-15T15:48:10Z</time>
      </trkpt>
      <trkpt lat="44.73792" lon="-0.30093">
        <ele>97</ele>
        <time>2012-12-15T15:48:19Z</time>
      </trkpt>
      <trkpt lat="44.73791" lon="-0.30078">
        <ele>97</ele>
        <time>2012-12-15T15:48:28Z</time>
      </trkpt>
      <trkpt lat="44.7379" lon="-0.30064">
        <ele>97</ele>
        <time>2012-12-15T15:48:36Z</time>
      </trkpt>
      <trkpt lat="44.7379" lon="-0.3005">
        <ele>98</ele>
        <time>2012-12-15T15:48:44Z</time>
      </trkpt>
      <trkpt lat="44.7379" lon="-0.30037">
        <ele>98</ele>
        <time>2012-12-15T15:48:51Z</time>
      </trkpt>
      <trkpt lat="44.73791" lon="-0.30024">
        <ele>98</ele>
        <time>2012-12-15T15:48:58Z</time>
      </trkpt>
      <trkpt lat="44.73788" lon="-0.30011">
        <ele>98</ele>
        <time>2012-12-15T15:49:06Z</time>
      </trkpt>
      <trkpt lat="44.73783" lon="-0.29998">
        <ele>99</ele>
        <time>2012-12-15T15:49:14Z</time>
      </trkpt>
      <trkpt lat="44.73777" lon="-0.29988">
        <ele>100</ele>
        <time>2012-12-15T15:49:20Z</time>
      </trkpt>
      <trkpt lat="44.73771" lon="-0.29977">
        <ele>100</ele>
        <time>2012-12-15T15:49:27Z</time>
      </trkpt>
      <trkpt lat="44.73765" lon="-0.29967">
        <ele>101</ele>
        <time>2012-12-15T15:49:34Z</time>
      </trkpt>
      <trkpt lat="44.7376" lon="-0.29955">
        <ele>102</ele>
        <time>2012-12-15T15:49:41Z</time>
      </trkpt>
      <trkpt lat="44.73753" lon="-0.29944">
        <ele>103</ele>
        <time>2012-12-15T15:49:48Z</time>
      </trkpt>
      <trkpt lat="44.73747" lon="-0.29934">
        <ele>103</ele>
        <time>2012-12-15T15:50:00Z</time>
      </trkpt>
      <trkpt lat="44.7374" lon="-0.29923">
        <ele>104</ele>
        <time>2012-12-15T15:50:23Z</time>
      </trkpt>
      <trkpt lat="44.7372" lon="-0.29907">
        <ele>105</ele>
        <time>2012-12-15T15:52:12Z</time>
      </trkpt>
      <trkpt lat="44.73711" lon="-0.29912">
        <ele>106</ele>
        <time>2012-12-15T15:52:17Z</time>
      </trkpt>
      <trkpt lat="44.73703" lon="-0.29921">
        <ele>106</ele>
        <time>2012-12-15T15:52:23Z</time>
      </trkpt>
      <trkpt lat="44.73693" lon="-0.29929">
        <ele>106</ele>
        <time>2012-12-15T15:52:28Z</time>
      </trkpt>
      <trkpt lat="44.73685" lon="-0.29937">
        <ele>105</ele>
        <time>2012-12-15T15:52:33Z</time>
      </trkpt>
      <trkpt lat="44.73677" lon="-0.29945">
        <ele>104</ele>
        <time>2012-12-15T15:52:38Z</time>
      </trkpt>
      <trkpt lat="44.73668" lon="-0.29952">
        <ele>104</ele>
        <time>2012-12-15T15:52:43Z</time>
      </trkpt>
      <trkpt lat="44.73657" lon="-0.29948">
        <ele>103</ele>
        <time>2012-12-15T15:52:48Z</time>
      </trkpt>
      <trkpt lat="44.7365" lon="-0.29939">
        <ele>104</ele>
        <time>2012-12-15T15:52:53Z</time>
      </trkpt>
      <trkpt lat="44.73644" lon="-0.29927">
        <ele>104</ele>
        <time>2012-12-15T15:52:59Z</time>
      </trkpt>
      <trkpt lat="44.73634" lon="-0.29929">
        <ele>104</ele>
        <time>2012-12-15T15:53:07Z</time>
      </trkpt>
      <trkpt lat="44.73623" lon="-0.29936">
        <ele>103</ele>
        <time>2012-12-15T15:53:12Z</time>
      </trkpt>
      <trkpt lat="44.73613" lon="-0.29942">
        <ele>102</ele>
        <time>2012-12-15T15:53:16Z</time>
      </trkpt>
      <trkpt lat="44.73603" lon="-0.2995">
        <ele>101</ele>
        <time>2012-12-15T15:53:20Z</time>
      </trkpt>
      <trkpt lat="44.73595" lon="-0.29957">
        <ele>100</ele>
        <time>2012-12-15T15:53:24Z</time>
      </trkpt>
      <trkpt lat="44.73585" lon="-0.29962">
        <ele>99</ele>
        <time>2012-12-15T15:53:29Z</time>
      </trkpt>
      <trkpt lat="44.73577" lon="-0.29969">
        <ele>99</ele>
        <time>2012-12-15T15:53:34Z</time>
      </trkpt>
      <trkpt lat="44.73567" lon="-0.29975">
        <ele>99</ele>
        <time>2012-12-15T15:53:39Z</time>
      </trkpt>
      <trkpt lat="44.73558" lon="-0.29981">
        <ele>99</ele>
        <time>2012-12-15T15:53:44Z</time>
      </trkpt>
      <trkpt lat="44.73549" lon="-0.29988">
        <ele>100</ele>
        <time>2012-12-15T15:53:49Z</time>
      </trkpt>
      <trkpt lat="44.73541" lon="-0.29996">
        <ele>100</ele>
        <time>2012-12-15T15:53:55Z</time>
      </trkpt>
      <trkpt lat="44.73531" lon="-0.3">
        <ele>101</ele>
        <time>2012-12-15T15:54:01Z</time>
      </trkpt>
      <trkpt lat="44.73523" lon="-0.30008">
        <ele>102</ele>
        <time>2012-12-15T15:54:09Z</time>
      </trkpt>
      <trkpt lat="44.73514" lon="-0.30015">
        <ele>103</ele>
        <time>2012-12-15T15:54:16Z</time>
      </trkpt>
      <trkpt lat="44.73506" lon="-0.30023">
        <ele>103</ele>
        <time>2012-12-15T15:54:25Z</time>
      </trkpt>
      <trkpt lat="44.73498" lon="-0.30032">
        <ele>104</ele>
        <time>2012-12-15T15:54:34Z</time>
      </trkpt>
      <trkpt lat="44.73489" lon="-0.30037">
        <ele>105</ele>
        <time>2012-12-15T15:54:41Z</time>
      </trkpt>
      <trkpt lat="44.7348" lon="-0.30043">
        <ele>105</ele>
        <time>2012-12-15T15:54:49Z</time>
      </trkpt>
      <trkpt lat="44.73472" lon="-0.30049">
        <ele>105</ele>
        <time>2012-12-15T15:54:56Z</time>
      </trkpt>
      <trkpt lat="44.73461" lon="-0.30055">
        <ele>105</ele>
        <time>2012-12-15T15:55:03Z</time>
      </trkpt>
      <trkpt lat="44.73452" lon="-0.3006">
        <ele>105</ele>
        <time>2012-12-15T15:55:09Z</time>
      </trkpt>
      <trkpt lat="44.73443" lon="-0.30067">
        <ele>104</ele>
        <time>2012-12-15T15:55:15Z</time>
      </trkpt>
      <trkpt lat="44.73433" lon="-0.30073">
        <ele>104</ele>
        <time>2012-12-15T15:55:21Z</time>
      </trkpt>
      <trkpt lat="44.73424" lon="-0.30079">
        <ele>104</ele>
        <time>2012-12-15T15:55:26Z</time>
      </trkpt>
      <trkpt lat="44.73415" lon="-0.30086">
        <ele>104</ele>
        <time>2012-12-15T15:55:31Z</time>
      </trkpt>
      <trkpt lat="44.73406" lon="-0.30093">
        <ele>104</ele>
        <time>2012-12-15T15:55:37Z</time>
      </trkpt>
      <trkpt lat="44.734" lon="-0.30104">
        <ele>105</ele>
        <time>2012-12-15T15:55:45Z</time>
      </trkpt>
      <trkpt lat="44.73406" lon="-0.30117">
        <ele>104</ele>
        <time>2012-12-15T15:55:51Z</time>
      </trkpt>
      <trkpt lat="44.73412" lon="-0.3013">
        <ele>103</ele>
        <time>2012-12-15T15:55:56Z</time>
      </trkpt>
      <trkpt lat="44.73418" lon="-0.30142">
        <ele>102</ele>
        <time>2012-12-15T15:56:01Z</time>
      </trkpt>
      <trkpt lat="44.73423" lon="-0.30154">
        <ele>101</ele>
        <time>2012-12-15T15:56:05Z</time>
      </trkpt>
      <trkpt lat="44.73429" lon="-0.30166">
        <ele>100</ele>
        <time>2012-12-15T15:56:10Z</time>
      </trkpt>
      <trkpt lat="44.73431" lon="-0.30181">
        <ele>99</ele>
        <time>2012-12-15T15:56:16Z</time>
      </trkpt>
      <trkpt lat="44.73421" lon="-0.30187">
        <ele>99</ele>
        <time>2012-12-15T15:56:22Z</time>
      </trkpt>
      <trkpt lat="44.73413" lon="-0.30193">
        <ele>99</ele>
        <time>2012-12-15T15:56:28Z</time>
      </trkpt>
      <trkpt lat="44.73404" lon="-0.302">
        <ele>99</ele>
        <time>2012-12-15T15:56:34Z</time>
      </trkpt>
      <trkpt lat="44.73395" lon="-0.30208">
        <ele>99</ele>
        <time>2012-12-15T15:56:41Z</time>
      </trkpt>
      <trkpt lat="44.73385" lon="-0.30216">
        <ele>99</ele>
        <time>2012-12-15T15:56:47Z</time>
      </trkpt>
      <trkpt lat="44.73377" lon="-0.30225">
        <ele>99</ele>
        <time>2012-12-15T15:56:52Z</time>
      </trkpt>
      <trkpt lat="44.7337" lon="-0.30233">
        <ele>98</ele>
        <time>2012-12-15T15:56:57Z</time>
      </trkpt>
      <trkpt lat="44.73361" lon="-0.30241">
        <ele>98</ele>
        <time>2012-12-15T15:57:04Z</time>
      </trkpt>
      <trkpt lat="44.73357" lon="-0.30253">
        <ele>98</ele>
        <time>2012-12-15T15:57:11Z</time>
      </trkpt>
      <trkpt lat="44.73363" lon="-0.30265">
        <ele>97</ele>
        <time>2012-12-15T15:57:16Z</time>
      </trkpt>
      <trkpt lat="44.7337" lon="-0.30276">
        <ele>95</ele>
        <time>2012-12-15T15:57:21Z</time>
      </trkpt>
      <trkpt lat="44.73376" lon="-0.30286">
        <ele>94</ele>
        <time>2012-12-15T15:57:25Z</time>
      </trkpt>
      <trkpt lat="44.73384" lon="-0.30297">
        <ele>92</ele>
        <time>2012-12-15T15:57:30Z</time>
      </trkpt>
      <trkpt lat="44.73391" lon="-0.30306">
        <ele>91</ele>
        <time>2012-12-15T15:57:35Z</time>
      </trkpt>
      <trkpt lat="44.73397" lon="-0.30315">
        <ele>91</ele>
        <time>2012-12-15T15:57:40Z</time>
      </trkpt>
      <trkpt lat="44.73399" lon="-0.30329">
        <ele>91</ele>
        <time>2012-12-15T15:57:46Z</time>
      </trkpt>
      <trkpt lat="44.73405" lon="-0.30341">
        <ele>90</ele>
        <time>2012-12-15T15:57:52Z</time>
      </trkpt>
      <trkpt lat="44.73413" lon="-0.30351">
        <ele>89</ele>
        <time>2012-12-15T15:57:57Z</time>
      </trkpt>
      <trkpt lat="44.7342" lon="-0.30364">
        <ele>88</ele>
        <time>2012-12-15T15:58:02Z</time>
      </trkpt>
      <trkpt lat="44.73427" lon="-0.30376">
        <ele>89</ele>
        <time>2012-12-15T15:58:07Z</time>
      </trkpt>
      <trkpt lat="44.73434" lon="-0.30386">
        <ele>89</ele>
        <time>2012-12-15T15:58:13Z</time>
      </trkpt>
      <trkpt lat="44.73441" lon="-0.30396">
        <ele>90</ele>
        <time>2012-12-15T15:58:18Z</time>
      </trkpt>
      <trkpt lat="44.73447" lon="-0.3041">
        <ele>91</ele>
        <time>2012-12-15T15:58:24Z</time>
      </trkpt>
      <trkpt lat="44.73454" lon="-0.30421">
        <ele>91</ele>
        <time>2012-12-15T15:58:29Z</time>
      </trkpt>
      <trkpt lat="44.73461" lon="-0.30431">
        <ele>91</ele>
        <time>2012-12-15T15:58:34Z</time>
      </trkpt>
      <trkpt lat="44.73466" lon="-0.30444">
        <ele>91</ele>
        <time>2012-12-15T15:58:39Z</time>
      </trkpt>
      <trkpt lat="44.73473" lon="-0.30457">
        <ele>92</ele>
        <time>2012-12-15T15:58:45Z</time>
      </trkpt>
      <trkpt lat="44.7348" lon="-0.30466">
        <ele>92</ele>
        <time>2012-12-15T15:58:50Z</time>
      </trkpt>
      <trkpt lat="44.73487" lon="-0.30476">
        <ele>92</ele>
        <time>2012-12-15T15:58:55Z</time>
      </trkpt>
      <trkpt lat="44.73494" lon="-0.30487">
        <ele>92</ele>
        <time>2012-12-15T15:59:00Z</time>
      </trkpt>
      <trkpt lat="44.73501" lon="-0.30496">
        <ele>92</ele>
        <time>2012-12-15T15:59:05Z</time>
      </trkpt>
      <trkpt lat="44.73509" lon="-0.30506">
        <ele>92</ele>
        <time>2012-12-15T15:59:10Z</time>
      </trkpt>
      <trkpt lat="44.73518" lon="-0.30515">
        <ele>92</ele>
        <time>2012-12-15T15:59:15Z</time>
      </trkpt>
      <trkpt lat="44.73526" lon="-0.30522">
        <ele>92</ele>
        <time>2012-12-15T15:59:19Z</time>
      </trkpt>
      <trkpt lat="44.73535" lon="-0.3053">
        <ele>91</ele>
        <time>2012-12-15T15:59:24Z</time>
      </trkpt>
      <trkpt lat="44.73543" lon="-0.3054">
        <ele>91</ele>
        <time>2012-12-15T15:59:29Z</time>
      </trkpt>
      <trkpt lat="44.73553" lon="-0.30549">
        <ele>90</ele>
        <time>2012-12-15T15:59:34Z</time>
      </trkpt>
      <trkpt lat="44.73562" lon="-0.30557">
        <ele>90</ele>
        <time>2012-12-15T15:59:37Z</time>
      </trkpt>
      <trkpt lat="44.7357" lon="-0.30566">
        <ele>88</ele>
        <time>2012-12-15T15:59:40Z</time>
      </trkpt>
      <trkpt lat="44.73579" lon="-0.30575">
        <ele>87</ele>
        <time>2012-12-15T15:59:44Z</time>
      </trkpt>
      <trkpt lat="44.73589" lon="-0.30585">
        <ele>86</ele>
        <time>2012-12-15T15:59:48Z</time>
      </trkpt>
      <trkpt lat="44.73598" lon="-0.30595">
        <ele>84</ele>
        <time>2012-12-15T15:59:52Z</time>
      </trkpt>
      <trkpt lat="44.73607" lon="-0.30604">
        <ele>82</ele>
        <time>2012-12-15T15:59:56Z</time>
      </trkpt>
      <trkpt lat="44.73617" lon="-0.30613">
        <ele>81</ele>
        <time>2012-12-15T16:00:01Z</time>
      </trkpt>
      <trkpt lat="44.73626" lon="-0.30618">
        <ele>79</ele>
        <time>2012-12-15T16:00:18Z</time>
      </trkpt>
      <trkpt lat="44.73636" lon="-0.3062">
        <ele>78</ele>
        <time>2012-12-15T16:00:28Z</time>
      </trkpt>
      <trkpt lat="44.73646" lon="-0.30629">
        <ele>76</ele>
        <time>2012-12-15T16:00:36Z</time>
      </trkpt>
      <trkpt lat="44.73655" lon="-0.30637">
        <ele>75</ele>
        <time>2012-12-15T16:00:40Z</time>
      </trkpt>
      <trkpt lat="44.73664" lon="-0.30643">
        <ele>74</ele>
        <time>2012-12-15T16:00:44Z</time>
      </trkpt>
      <trkpt lat="44.73673" lon="-0.30651">
        <ele>73</ele>
        <time>2012-12-15T16:00:48Z</time>
      </trkpt>
      <trkpt lat="44.73683" lon="-0.30659">
        <ele>72</ele>
        <time>2012-12-15T16:00:52Z</time>
      </trkpt>
      <trkpt lat="44.73691" lon="-0.30666">
        <ele>71</ele>
        <time>2012-12-15T16:00:55Z</time>
      </trkpt>
      <trkpt lat="44.73702" lon="-0.30675">
        <ele>70</ele>
        <time>2012-12-15T16:00:59Z</time>
      </trkpt>
      <trkpt lat="44.7371" lon="-0.30682">
        <ele>70</ele>
        <time>2012-12-15T16:01:02Z</time>
      </trkpt>
      <trkpt lat="44.73719" lon="-0.30694">
        <ele>69</ele>
        <time>2012-12-15T16:01:06Z</time>
      </trkpt>
      <trkpt lat="44.73727" lon="-0.30702">
        <ele>69</ele>
        <time>2012-12-15T16:01:09Z</time>
      </trkpt>
      <trkpt lat="44.73737" lon="-0.30711">
        <ele>68</ele>
        <time>2012-12-15T16:01:13Z</time>
      </trkpt>
      <trkpt lat="44.73744" lon="-0.30719">
        <ele>67</ele>
        <time>2012-12-15T16:01:17Z</time>
      </trkpt>
      <trkpt lat="44.73751" lon="-0.30729">
        <ele>66</ele>
        <time>2012-12-15T16:01:23Z</time>
      </trkpt>
      <trkpt lat="44.73748" lon="-0.30745">
        <ele>65</ele>
        <time>2012-12-15T16:01:30Z</time>
      </trkpt>
      <trkpt lat="44.73745" lon="-0.30757">
        <ele>65</ele>
        <time>2012-12-15T16:01:34Z</time>
      </trkpt>
      <trkpt lat="44.73741" lon="-0.30774">
        <ele>65</ele>
        <time>2012-12-15T16:01:38Z</time>
      </trkpt>
      <trkpt lat="44.73737" lon="-0.3079">
        <ele>64</ele>
        <time>2012-12-15T16:01:42Z</time>
      </trkpt>
      <trkpt lat="44.73733" lon="-0.30803">
        <ele>64</ele>
        <time>2012-12-15T16:01:46Z</time>
      </trkpt>
      <trkpt lat="44.7373" lon="-0.30817">
        <ele>63</ele>
        <time>2012-12-15T16:01:50Z</time>
      </trkpt>
      <trkpt lat="44.73727" lon="-0.3083">
        <ele>63</ele>
        <time>2012-12-15T16:01:54Z</time>
      </trkpt>
      <trkpt lat="44.73724" lon="-0.30843">
        <ele>63</ele>
        <time>2012-12-15T16:01:58Z</time>
      </trkpt>
      <trkpt lat="44.7372" lon="-0.30857">
        <ele>63</ele>
        <time>2012-12-15T16:02:03Z</time>
      </trkpt>
      <trkpt lat="44.73715" lon="-0.3087">
        <ele>63</ele>
        <time>2012-12-15T16:02:07Z</time>
      </trkpt>
      <trkpt lat="44.73712" lon="-0.30882">
        <ele>63</ele>
        <time>2012-12-15T16:02:11Z</time>
      </trkpt>
      <trkpt lat="44.73708" lon="-0.30896">
        <ele>63</ele>
        <time>2012-12-15T16:02:16Z</time>
      </trkpt>
      <trkpt lat="44.73704" lon="-0.30909">
        <ele>63</ele>
        <time>2012-12-15T16:02:22Z</time>
      </trkpt>
      <trkpt lat="44.73696" lon="-0.30916">
        <ele>64</ele>
        <time>2012-12-15T16:02:30Z</time>
      </trkpt>
      <trkpt lat="44.73686" lon="-0.30913">
        <ele>65</ele>
        <time>2012-12-15T16:02:52Z</time>
      </trkpt>
      <trkpt lat="44.73676" lon="-0.30909">
        <ele>66</ele>
        <time>2012-12-15T16:03:13Z</time>
      </trkpt>
      <trkpt lat="44.73668" lon="-0.30916">
        <ele>67</ele>
        <time>2012-12-15T16:03:28Z</time>
      </trkpt>
      <trkpt lat="44.73662" lon="-0.30925">
        <ele>67</ele>
        <time>2012-12-15T16:03:42Z</time>
      </trkpt>
      <trkpt lat="44.73656" lon="-0.30937">
        <ele>67</ele>
        <time>2012-12-15T16:03:50Z</time>
      </trkpt>
      <trkpt lat="44.7365" lon="-0.30951">
        <ele>67</ele>
        <time>2012-12-15T16:03:56Z</time>
      </trkpt>
      <trkpt lat="44.73645" lon="-0.30964">
        <ele>67</ele>
        <time>2012-12-15T16:04:01Z</time>
      </trkpt>
      <trkpt lat="44.73642" lon="-0.30978">
        <ele>67</ele>
        <time>2012-12-15T16:04:06Z</time>
      </trkpt>
      <trkpt lat="44.73637" lon="-0.30989">
        <ele>67</ele>
        <time>2012-12-15T16:04:11Z</time>
      </trkpt>
      <trkpt lat="44.7363" lon="-0.30999">
        <ele>66</ele>
        <time>2012-12-15T16:04:26Z</time>
      </trkpt>
      <trkpt lat="44.73627" lon="-0.31012">
        <ele>65</ele>
        <time>2012-12-15T16:04:39Z</time>
      </trkpt>
      <trkpt lat="44.73628" lon="-0.31025">
        <ele>64</ele>
        <time>2012-12-15T16:04:45Z</time>
      </trkpt>
      <trkpt lat="44.73624" lon="-0.31039">
        <ele>63</ele>
        <time>2012-12-15T16:04:50Z</time>
      </trkpt>
      <trkpt lat="44.73621" lon="-0.31054">
        <ele>61</ele>
        <time>2012-12-15T16:04:55Z</time>
      </trkpt>
      <trkpt lat="44.73616" lon="-0.31066">
        <ele>60</ele>
        <time>2012-12-15T16:05:00Z</time>
      </trkpt>
      <trkpt lat="44.73609" lon="-0.31078">
        <ele>60</ele>
        <time>2012-12-15T16:05:05Z</time>
      </trkpt>
      <trkpt lat="44.73602" lon="-0.3109">
        <ele>60</ele>
        <time>2012-12-15T16:05:10Z</time>
      </trkpt>
      <trkpt lat="44.73601" lon="-0.31104">
        <ele>60</ele>
        <time>2012-12-15T16:05:23Z</time>
      </trkpt>
      <trkpt lat="44.73607" lon="-0.31115">
        <ele>59</ele>
        <time>2012-12-15T16:05:30Z</time>
      </trkpt>
      <trkpt lat="44.73618" lon="-0.31119">
        <ele>59</ele>
        <time>2012-12-15T16:05:39Z</time>
      </trkpt>
      <trkpt lat="44.73626" lon="-0.31126">
        <ele>58</ele>
        <time>2012-12-15T16:05:45Z</time>
      </trkpt>
      <trkpt lat="44.73631" lon="-0.31137">
        <ele>58</ele>
        <time>2012-12-15T16:05:53Z</time>
      </trkpt>
      <trkpt lat="44.73634" lon="-0.3115">
        <ele>58</ele>
        <time>2012-12-15T16:06:07Z</time>
      </trkpt>
      <trkpt lat="44.73638" lon="-0.31162">
        <ele>59</ele>
        <time>2012-12-15T16:06:29Z</time>
      </trkpt>
      <trkpt lat="44.73646" lon="-0.31168">
        <ele>60</ele>
        <time>2012-12-15T16:06:42Z</time>
      </trkpt>
      <trkpt lat="44.73655" lon="-0.31175">
        <ele>60</ele>
        <time>2012-12-15T16:06:54Z</time>
      </trkpt>
      <trkpt lat="44.73663" lon="-0.31183">
        <ele>61</ele>
        <time>2012-12-15T16:07:06Z</time>
      </trkpt>
      <trkpt lat="44.73663" lon="-0.31198">
        <ele>62</ele>
        <time>2012-12-15T16:07:20Z</time>
      </trkpt>
      <trkpt lat="44.73662" lon="-0.31211">
        <ele>62</ele>
        <time>2012-12-15T16:07:26Z</time>
      </trkpt>
      <trkpt lat="44.7366" lon="-0.31225">
        <ele>62</ele>
        <time>2012-12-15T16:07:31Z</time>
      </trkpt>
      <trkpt lat="44.73661" lon="-0.31241">
        <ele>63</ele>
        <time>2012-12-15T16:07:36Z</time>
      </trkpt>
      <trkpt lat="44.73668" lon="-0.31252">
        <ele>64</ele>
        <time>2012-12-15T16:07:43Z</time>
      </trkpt>
      <trkpt lat="44.73678" lon="-0.31255">
        <ele>65</ele>
        <time>2012-12-15T16:07:50Z</time>
      </trkpt>
      <trkpt lat="44.73685" lon="-0.31264">
        <ele>66</ele>
        <time>2012-12-15T16:07:57Z</time>
      </trkpt>
      <trkpt lat="44.73692" lon="-0.31275">
        <ele>67</ele>
        <time>2012-12-15T16:08:05Z</time>
      </trkpt>
      <trkpt lat="44.73699" lon="-0.31286">
        <ele>68</ele>
        <time>2012-12-15T16:08:13Z</time>
      </trkpt>
      <trkpt lat="44.73707" lon="-0.31295">
        <ele>69</ele>
        <time>2012-12-15T16:08:21Z</time>
      </trkpt>
      <trkpt lat="44.73716" lon="-0.31301">
        <ele>70</ele>
        <time>2012-12-15T16:08:28Z</time>
      </trkpt>
      <trkpt lat="44.73725" lon="-0.31306">
        <ele>71</ele>
        <time>2012-12-15T16:08:35Z</time>
      </trkpt>
      <trkpt lat="44.73734" lon="-0.31314">
        <ele>72</ele>
        <time>2012-12-15T16:08:43Z</time>
      </trkpt>
      <trkpt lat="44.73742" lon="-0.31323">
        <ele>73</ele>
        <time>2012-12-15T16:08:51Z</time>
      </trkpt>
      <trkpt lat="44.73752" lon="-0.3133">
        <ele>74</ele>
        <time>2012-12-15T16:08:59Z</time>
      </trkpt>
      <trkpt lat="44.7376" lon="-0.31338">
        <ele>76</ele>
        <time>2012-12-15T16:09:07Z</time>
      </trkpt>
      <trkpt lat="44.7377" lon="-0.31344">
        <ele>77</ele>
        <time>2012-12-15T16:09:16Z</time>
      </trkpt>
      <trkpt lat="44.73778" lon="-0.31335">
        <ele>78</ele>
        <time>2012-12-15T16:09:27Z</time>
      </trkpt>
      <trkpt lat="44.73783" lon="-0.31348">
        <ele>79</ele>
        <time>2012-12-15T16:10:02Z</time>
      </trkpt>
      <trkpt lat="44.73783" lon="-0.31361">
        <ele>80</ele>
        <time>2012-12-15T16:10:08Z</time>
      </trkpt>
      <trkpt lat="44.73786" lon="-0.31374">
        <ele>81</ele>
        <time>2012-12-15T16:10:14Z</time>
      </trkpt>
      <trkpt lat="44.73787" lon="-0.31388">
        <ele>81</ele>
        <time>2012-12-15T16:10:21Z</time>
      </trkpt>
      <trkpt lat="44.73788" lon="-0.31402">
        <ele>82</ele>
        <time>2012-12-15T16:10:27Z</time>
      </trkpt>
      <trkpt lat="44.73788" lon="-0.31416">
        <ele>83</ele>
        <time>2012-12-15T16:10:33Z</time>
      </trkpt>
      <trkpt lat="44.7379" lon="-0.31431">
        <ele>84</ele>
        <time>2012-12-15T16:10:40Z</time>
      </trkpt>
      <trkpt lat="44.7379" lon="-0.31445">
        <ele>85</ele>
        <time>2012-12-15T16:10:46Z</time>
      </trkpt>
      <trkpt lat="44.73792" lon="-0.31458">
        <ele>86</ele>
        <time>2012-12-15T16:10:53Z</time>
      </trkpt>
      <trkpt lat="44.73792" lon="-0.31473">
        <ele>87</ele>
        <time>2012-12-15T16:11:00Z</time>
      </trkpt>
      <trkpt lat="44.73792" lon="-0.31487">
        <ele>88</ele>
        <time>2012-12-15T16:11:06Z</time>
      </trkpt>
      <trkpt lat="44.7379" lon="-0.31501">
        <ele>89</ele>
        <time>2012-12-15T16:11:12Z</time>
      </trkpt>
      <trkpt lat="44.73791" lon="-0.31517">
        <ele>91</ele>
        <time>2012-12-15T16:11:19Z</time>
      </trkpt>
      <trkpt lat="44.73794" lon="-0.31529">
        <ele>92</ele>
        <time>2012-12-15T16:11:26Z</time>
      </trkpt>
      <trkpt lat="44.73797" lon="-0.31543">
        <ele>93</ele>
        <time>2012-12-15T16:11:33Z</time>
      </trkpt>
      <trkpt lat="44.73801" lon="-0.31556">
        <ele>95</ele>
        <time>2012-12-15T16:11:41Z</time>
      </trkpt>
      <trkpt lat="44.73805" lon="-0.3157">
        <ele>97</ele>
        <time>2012-12-15T16:11:49Z</time>
      </trkpt>
      <trkpt lat="44.73808" lon="-0.31583">
        <ele>98</ele>
        <time>2012-12-15T16:11:57Z</time>
      </trkpt>
      <trkpt lat="44.73814" lon="-0.31595">
        <ele>98</ele>
        <time>2012-12-15T16:12:04Z</time>
      </trkpt>
      <trkpt lat="44.7382" lon="-0.31605">
        <ele>98</ele>
        <time>2012-12-15T16:12:10Z</time>
      </trkpt>
      <trkpt lat="44.73828" lon="-0.31616">
        <ele>99</ele>
        <time>2012-12-15T16:12:15Z</time>
      </trkpt>
      <trkpt lat="44.73836" lon="-0.31626">
        <ele>99</ele>
        <time>2012-12-15T16:12:21Z</time>
      </trkpt>
      <trkpt lat="44.73844" lon="-0.31634">
        <ele>99</ele>
        <time>2012-12-15T16:12:27Z</time>
      </trkpt>
      <trkpt lat="44.73852" lon="-0.31642">
        <ele>99</ele>
        <time>2012-12-15T16:12:32Z</time>
      </trkpt>
      <trkpt lat="44.7386" lon="-0.31651">
        <ele>99</ele>
        <time>2012-12-15T16:12:37Z</time>
      </trkpt>
      <trkpt lat="44.7387" lon="-0.31657">
        <ele>99</ele>
        <time>2012-12-15T16:12:42Z</time>
      </trkpt>
      <trkpt lat="44.73881" lon="-0.31654">
        <ele>99</ele>
        <time>2012-12-15T16:12:47Z</time>
      </trkpt>
      <trkpt lat="44.73889" lon="-0.31648">
        <ele>100</ele>
        <time>2012-12-15T16:12:51Z</time>
      </trkpt>
      <trkpt lat="44.73898" lon="-0.31643">
        <ele>101</ele>
        <time>2012-12-15T16:12:57Z</time>
      </trkpt>
      <trkpt lat="44.73908" lon="-0.31637">
        <ele>102</ele>
        <time>2012-12-15T16:13:03Z</time>
      </trkpt>
      <trkpt lat="44.73918" lon="-0.31632">
        <ele>103</ele>
        <time>2012-12-15T16:13:08Z</time>
      </trkpt>
      <trkpt lat="44.73927" lon="-0.31626">
        <ele>104</ele>
        <time>2012-12-15T16:13:13Z</time>
      </trkpt>
      <trkpt lat="44.73937" lon="-0.31621">
        <ele>105</ele>
        <time>2012-12-15T16:13:18Z</time>
      </trkpt>
      <trkpt lat="44.73947" lon="-0.31615">
        <ele>105</ele>
        <time>2012-12-15T16:13:23Z</time>
      </trkpt>
      <trkpt lat="44.73956" lon="-0.31611">
        <ele>106</ele>
        <time>2012-12-15T16:13:27Z</time>
      </trkpt>
      <trkpt lat="44.73966" lon="-0.31603">
        <ele>106</ele>
        <time>2012-12-15T16:13:32Z</time>
      </trkpt>
      <trkpt lat="44.73982" lon="-0.31599">
        <ele>107</ele>
      </trkpt>
      <trkpt lat="44.73993" lon="-0.31596">
        <ele>107</ele>
      </trkpt>
      <trkpt lat="44.74004" lon="-0.31594">
        <ele>107</ele>
      </trkpt>
      <trkpt lat="44.74016" lon="-0.31592">
        <ele>107</ele>
      </trkpt>
      <trkpt lat="44.74027" lon="-0.3159">
        <ele>107</ele>
      </trkpt>
      <trkpt lat="44.7404" lon="-0.31588">
        <ele>107</ele>
      </trkpt>
      <trkpt lat="44.74053" lon="-0.31587">
        <ele>106</ele>
      </trkpt>
      <trkpt lat="44.74066" lon="-0.31585">
        <ele>106</ele>
      </trkpt>
      <trkpt lat="44.74079" lon="-0.31583">
        <ele>106</ele>
      </trkpt>
      <trkpt lat="44.74091" lon="-0.31581">
        <ele>106</ele>
      </trkpt>
      <trkpt lat="44.74103" lon="-0.3158">
        <ele>105</ele>
      </trkpt>
      <trkpt lat="44.74116" lon="-0.31579">
        <ele>105</ele>
      </trkpt>
      <trkpt lat="44.74128" lon="-0.31576">
        <ele>105</ele>
      </trkpt>
      <trkpt lat="44.74141" lon="-0.31574">
        <ele>105</ele>
      </trkpt>
      <trkpt lat="44.74151" lon="-0.31572">
        <ele>105</ele>
      </trkpt>
      <trkpt lat="44.74162" lon="-0.3157">
        <ele>105</ele>
      </trkpt>
      <trkpt lat="44.74173" lon="-0.31567">
        <ele>106</ele>
      </trkpt>
      <trkpt lat="44.74184" lon="-0.31572">
        <ele>106</ele>
      </trkpt>
      <trkpt lat="44.74185" lon="-0.31587">
        <ele>106</ele>
      </trkpt>
      <trkpt lat="44.74187" lon="-0.31603">
        <ele>105</ele>
      </trkpt>
      <trkpt lat="44.74187" lon="-0.31619">
        <ele>105</ele>
      </trkpt>
      <trkpt lat="44.74189" lon="-0.31632">
        <ele>104</ele>
      </trkpt>
      <trkpt lat="44.74191" lon="-0.31646">
        <ele>104</ele>
      </trkpt>
      <trkpt lat="44.74192" lon="-0.31659">
        <ele>103</ele>
      </trkpt>
      <trkpt lat="44.74194" lon="-0.31675">
        <ele>103</ele>
      </trkpt>
      <trkpt lat="44.74196" lon="-0.31691">
        <ele>102</ele>
      </trkpt>
      <trkpt lat="44.74193" lon="-0.31704">
        <ele>101</ele>
      </trkpt>
      <trkpt lat="44.74191" lon="-0.31717">
        <ele>100</ele>
      </trkpt>
      <trkpt lat="44.74192" lon="-0.31732">
        <ele>99</ele>
      </trkpt>
      <trkpt lat="44.74195" lon="-0.31746">
        <ele>99</ele>
      </trkpt>
      <trkpt lat="44.74198" lon="-0.31762">
        <ele>98</ele>
      </trkpt>
      <trkpt lat="44.742" lon="-0.31778">
        <ele>98</ele>
      </trkpt>
      <trkpt lat="44.74203" lon="-0.31791">
        <ele>98</ele>
      </trkpt>
      <trkpt lat="44.74205" lon="-0.31806">
        <ele>97</ele>
      </trkpt>
      <trkpt lat="44.74208" lon="-0.31821">
        <ele>97</ele>
      </trkpt>
      <trkpt lat="44.7421" lon="-0.31835">
        <ele>96</ele>
      </trkpt>
      <trkpt lat="44.74213" lon="-0.31848">
        <ele>96</ele>
      </trkpt>
      <trkpt lat="44.74214" lon="-0.31862">
        <ele>96</ele>
      </trkpt>
      <trkpt lat="44.74217" lon="-0.31876">
        <ele>95</ele>
      </trkpt>
      <trkpt lat="44.7422" lon="-0.31888">
        <ele>95</ele>
      </trkpt>
      <trkpt lat="44.74224" lon="-0.31901">
        <ele>95</ele>
      </trkpt>
      <trkpt lat="44.74228" lon="-0.31914">
        <ele>95</ele>
      </trkpt>
      <trkpt lat="44.74233" lon="-0.31925">
        <ele>94</ele>
      </trkpt>
      <trkpt lat="44.74237" lon="-0.31938">
        <ele>93</ele>
      </trkpt>
      <trkpt lat="44.74242" lon="-0.3195">
        <ele>92</ele>
      </trkpt>
      <trkpt lat="44.74246" lon="-0.31963">
        <ele>90</ele>
      </trkpt>
      <trkpt lat="44.74251" lon="-0.31975">
        <ele>89</ele>
      </trkpt>
      <trkpt lat="44.74256" lon="-0.31986">
        <ele>87</ele>
      </trkpt>
      <trkpt lat="44.74262" lon="-0.31998">
        <ele>85</ele>
      </trkpt>
      <trkpt lat="44.74267" lon="-0.32011">
        <ele>83</ele>
      </trkpt>
      <trkpt lat="44.74271" lon="-0.32022">
        <ele>81</ele>
      </trkpt>
      <trkpt lat="44.74274" lon="-0.32036">
        <ele>79</ele>
      </trkpt>
      <trkpt lat="44.74278" lon="-0.32049">
        <ele>78</ele>
      </trkpt>
      <trkpt lat="44.74283" lon="-0.32063">
        <ele>76</ele>
      </trkpt>
      <trkpt lat="44.74289" lon="-0.32074">
        <ele>74</ele>
      </trkpt>
      <trkpt lat="44.74293" lon="-0.32089">
        <ele>73</ele>
      </trkpt>
      <trkpt lat="44.74297" lon="-0.321">
        <ele>71</ele>
      </trkpt>
      <trkpt lat="44.74301" lon="-0.32113">
        <ele>70</ele>
      </trkpt>
      <trkpt lat="44.74307" lon="-0.32126">
        <ele>69</ele>
      </trkpt>
      <trkpt lat="44.7431" lon="-0.32142">
        <ele>67</ele>
      </trkpt>
      <trkpt lat="44.74319" lon="-0.32144">
        <ele>67</ele>
      </trkpt>
      <trkpt lat="44.74329" lon="-0.32137">
        <ele>67</ele>
      </trkpt>
      <trkpt lat="44.74338" lon="-0.3213">
        <ele>68</ele>
      </trkpt>
      <trkpt lat="44.74351" lon="-0.32123">
        <ele>68</ele>
      </trkpt>
      <trkpt lat="44.7436" lon="-0.32118">
        <ele>68</ele>
      </trkpt>
      <trkpt lat="44.7437" lon="-0.32111">
        <ele>68</ele>
      </trkpt>
      <trkpt lat="44.74379" lon="-0.321">
        <ele>68</ele>
      </trkpt>
      <trkpt lat="44.74386" lon="-0.32091">
        <ele>69</ele>
      </trkpt>
      <trkpt lat="44.74396" lon="-0.32082">
        <ele>69</ele>
      </trkpt>
      <trkpt lat="44.74406" lon="-0.32077">
        <ele>69</ele>
      </trkpt>
      <trkpt lat="44.74415" lon="-0.32088">
        <ele>68</ele>
      </trkpt>
      <trkpt lat="44.74417" lon="-0.32103">
        <ele>67</ele>
      </trkpt>
      <trkpt lat="44.74418" lon="-0.3212">
        <ele>67</ele>
      </trkpt>
      <trkpt lat="44.74421" lon="-0.32134">
        <ele>67</ele>
      </trkpt>
      <trkpt lat="44.74421" lon="-0.32147">
        <ele>66</ele>
      </trkpt>
      <trkpt lat="44.74427" lon="-0.32158">
        <ele>66</ele>
      </trkpt>
      <trkpt lat="44.74436" lon="-0.32165">
        <ele>66</ele>
      </trkpt>
      <trkpt lat="44.74447" lon="-0.32168">
        <ele>65</ele>
      </trkpt>
      <trkpt lat="44.74459" lon="-0.32169">
        <ele>64</ele>
      </trkpt>
      <trkpt lat="44.74471" lon="-0.32167">
        <ele>64</ele>
      </trkpt>
      <trkpt lat="44.74482" lon="-0.32166">
        <ele>63</ele>
      </trkpt>
      <trkpt lat="44.74493" lon="-0.32163">
        <ele>63</ele>
      </trkpt>
      <trkpt lat="44.74502" lon="-0.32158">
        <ele>63</ele>
      </trkpt>
      <trkpt lat="44.74509" lon="-0.32149">
        <ele>63</ele>
      </trkpt>
      <trkpt lat="44.74516" lon="-0.32138">
        <ele>64</ele>
      </trkpt>
      <trkpt lat="44.74524" lon="-0.3213">
        <ele>64</ele>
      </trkpt>
      <trkpt lat="44.74534" lon="-0.32122">
        <ele>64</ele>
      </trkpt>
      <trkpt lat="44.74543" lon="-0.32112">
        <ele>64</ele>
      </trkpt>
      <trkpt lat="44.74552" lon="-0.32101">
        <ele>64</ele>
      </trkpt>
      <trkpt lat="44.74557" lon="-0.32089">
        <ele>65</ele>
      </trkpt>
      <trkpt lat="44.74568" lon="-0.32082">
        <ele>65</ele>
      </trkpt>
      <trkpt lat="44.74571" lon="-0.32096">
        <ele>64</ele>
      </trkpt>
      <trkpt lat="44.74575" lon="-0.32109">
        <ele>64</ele>
      </trkpt>
      <trkpt lat="44.74578" lon="-0.32123">
        <ele>64</ele>
      </trkpt>
      <trkpt lat="44.74582" lon="-0.32135">
        <ele>64</ele>
      </trkpt>
      <trkpt lat="44.74591" lon="-0.32144">
        <ele>65</ele>
      </trkpt>
      <trkpt lat="44.74584" lon="-0.3213">
        <ele>64</ele>
      </trkpt>
      <trkpt lat="44.7458" lon="-0.32117">
        <ele>64</ele>
      </trkpt>
      <trkpt lat="44.74575" lon="-0.32102">
        <ele>64</ele>
      </trkpt>
      <trkpt lat="44.74571" lon="-0.32087">
        <ele>65</ele>
      </trkpt>
      <trkpt lat="44.74568" lon="-0.32071">
        <ele>66</ele>
      </trkpt>
      <trkpt lat="44.74569" lon="-0.32055">
        <ele>66</ele>
      </trkpt>
      <trkpt lat="44.74573" lon="-0.32038">
        <ele>67</ele>
      </trkpt>
      <trkpt lat="44.74578" lon="-0.32022">
        <ele>67</ele>
      </trkpt>
      <trkpt lat="44.74584" lon="-0.32009">
        <ele>68</ele>
      </trkpt>
      <trkpt lat="44.7459" lon="-0.31999">
        <ele>67</ele>
      </trkpt>
      <trkpt lat="44.74597" lon="-0.31988">
        <ele>67</ele>
      </trkpt>
      <trkpt lat="44.74608" lon="-0.31982">
        <ele>67</ele>
      </trkpt>
      <trkpt lat="44.74618" lon="-0.31985">
        <ele>66</ele>
      </trkpt>
      <trkpt lat="44.74627" lon="-0.31982">
        <ele>66</ele>
      </trkpt>
      <trkpt lat="44.74636" lon="-0.31982">
        <ele>66</ele>
      </trkpt>
      <trkpt lat="44.74649" lon="-0.31982">
        <ele>66</ele>
      </trkpt>
      <trkpt lat="44.74664" lon="-0.31982">
        <ele>66</ele>
      </trkpt>
      <trkpt lat="44.74676" lon="-0.31983">
        <ele>66</ele>
      </trkpt>
      <trkpt lat="44.74687" lon="-0.31984">
        <ele>66</ele>
      </trkpt>
      <trkpt lat="44.74701" lon="-0.31984">
        <ele>67</ele>
      </trkpt>
      <trkpt lat="44.74713" lon="-0.31985">
        <ele>68</ele>
      </trkpt>
      <trkpt lat="44.74725" lon="-0.31988">
        <ele>70</ele>
      </trkpt>
      <trkpt lat="44.74734" lon="-0.31994">
        <ele>71</ele>
      </trkpt>
      <trkpt lat="44.74745" lon="-0.32003">
        <ele>73</ele>
      </trkpt>
      <trkpt lat="44.74754" lon="-0.32011">
        <ele>74</ele>
      </trkpt>
      <trkpt lat="44.74762" lon="-0.3202">
        <ele>76</ele>
      </trkpt>
      <trkpt lat="44.74769" lon="-0.32031">
        <ele>77</ele>
      </trkpt>
      <trkpt lat="44.74779" lon="-0.32047">
        <ele>80</ele>
      </trkpt>
      <trkpt lat="44.74788" lon="-0.32062">
        <ele>82</ele>
      </trkpt>
      <trkpt lat="44.74799" lon="-0.32078">
        <ele>84</ele>
      </trkpt>
      <trkpt lat="44.74808" lon="-0.32091">
        <ele>86</ele>
      </trkpt>
      <trkpt lat="44.74817" lon="-0.32096">
        <ele>88</ele>
      </trkpt>
      <trkpt lat="44.74828" lon="-0.32105">
        <ele>89</ele>
      </trkpt>
      <trkpt lat="44.7484" lon="-0.32115">
        <ele>91</ele>
      </trkpt>
      <trkpt lat="44.74851" lon="-0.32123">
        <ele>92</ele>
      </trkpt>
      <trkpt lat="44.7486" lon="-0.32129">
        <ele>94</ele>
      </trkpt>
      <trkpt lat="44.74869" lon="-0.32136">
        <ele>95</ele>
      </trkpt>
      <trkpt lat="44.74879" lon="-0.32144">
        <ele>95</ele>
      </trkpt>
      <trkpt lat="44.74888" lon="-0.32152">
        <ele>95</ele>
      </trkpt>
      <trkpt lat="44.74899" lon="-0.3216">
        <ele>96</ele>
      </trkpt>
      <trkpt lat="44.74909" lon="-0.32168">
        <ele>96</ele>
      </trkpt>
      <trkpt lat="44.74919" lon="-0.32176">
        <ele>97</ele>
      </trkpt>
      <trkpt lat="44.74927" lon="-0.32184">
        <ele>97</ele>
      </trkpt>
      <trkpt lat="44.74936" lon="-0.32192">
        <ele>98</ele>
      </trkpt>
      <trkpt lat="44.74945" lon="-0.32198">
        <ele>98</ele>
      </trkpt>
      <trkpt lat="44.74953" lon="-0.32205">
        <ele>99</ele>
      </trkpt>
      <trkpt lat="44.74962" lon="-0.32211">
        <ele>99</ele>
      </trkpt>
      <trkpt lat="44.74971" lon="-0.32218">
        <ele>99</ele>
      </trkpt>
      <trkpt lat="44.74981" lon="-0.32226">
        <ele>99</ele>
      </trkpt>
      <trkpt lat="44.74991" lon="-0.32234">
        <ele>100</ele>
      </trkpt>
      <trkpt lat="44.75" lon="-0.32242">
        <ele>100</ele>
      </trkpt>
      <trkpt lat="44.75009" lon="-0.3225">
        <ele>100</ele>
      </trkpt>
      <trkpt lat="44.7502" lon="-0.32259">
        <ele>101</ele>
      </trkpt>
      <trkpt lat="44.7503" lon="-0.32267">
        <ele>101</ele>
      </trkpt>
      <trkpt lat="44.75041" lon="-0.32274">
        <ele>101</ele>
      </trkpt>
      <trkpt lat="44.7505" lon="-0.32281">
        <ele>101</ele>
      </trkpt>
      <trkpt lat="44.75059" lon="-0.32288">
        <ele>101</ele>
      </trkpt>
      <trkpt lat="44.75068" lon="-0.32294">
        <ele>101</ele>
      </trkpt>
      <trkpt lat="44.75077" lon="-0.32302">
        <ele>102</ele>
      </trkpt>
      <trkpt lat="44.75089" lon="-0.32312">
        <ele>102</ele>
      </trkpt>
      <trkpt lat="44.75097" lon="-0.32319">
        <ele>102</ele>
      </trkpt>
      <trkpt lat="44.75105" lon="-0.32326">
        <ele>103</ele>
      </trkpt>
      <trkpt lat="44.75114" lon="-0.32332">
        <ele>103</ele>
      </trkpt>
      <trkpt lat="44.75123" lon="-0.32339">
        <ele>103</ele>
      </trkpt>
      <trkpt lat="44.75132" lon="-0.32346">
        <ele>103</ele>
      </trkpt>
      <trkpt lat="44.75142" lon="-0.32352">
        <ele>103</ele>
      </trkpt>
      <trkpt lat="44.75151" lon="-0.32359">
        <ele>103</ele>
      </trkpt>
      <trkpt lat="44.75161" lon="-0.32366">
        <ele>104</ele>
      </trkpt>
      <trkpt lat="44.75171" lon="-0.32374">
        <ele>104</ele>
      </trkpt>
      <trkpt lat="44.7518" lon="-0.32381">
        <ele>104</ele>
      </trkpt>
      <trkpt lat="44.7519" lon="-0.32389">
        <ele>104</ele>
      </trkpt>
      <trkpt lat="44.752" lon="-0.32396">
        <ele>105</ele>
      </trkpt>
      <trkpt lat="44.7521" lon="-0.32403">
        <ele>105</ele>
      </trkpt>
      <trkpt lat="44.7522" lon="-0.32409">
        <ele>105</ele>
      </trkpt>
      <trkpt lat="44.7523" lon="-0.32416">
        <ele>105</ele>
      </trkpt>
      <trkpt lat="44.75239" lon="-0.32423">
        <ele>105</ele>
      </trkpt>
      <trkpt lat="44.75247" lon="-0.32432">
        <ele>105</ele>
      </trkpt>
      <trkpt lat="44.75256" lon="-0.3244">
        <ele>105</ele>
      </trkpt>
      <trkpt lat="44.75264" lon="-0.32447">
        <ele>105</ele>
      </trkpt>
      <trkpt lat="44.75276" lon="-0.32458">
        <ele>105</ele>
      </trkpt>
      <trkpt lat="44.75288" lon="-0.32468">
        <ele>105</ele>
      </trkpt>
      <trkpt lat="44.75297" lon="-0.32473">
        <ele>105</ele>
      </trkpt>
      <trkpt lat="44.75308" lon="-0.32483">
        <ele>105</ele>
      </trkpt>
      <trkpt lat="44.75319" lon="-0.32493">
        <ele>105</ele>
      </trkpt>
      <trkpt lat="44.75331" lon="-0.32502">
        <ele>104</ele>
      </trkpt>
      <trkpt lat="44.75339" lon="-0.3251">
        <ele>104</ele>
      </trkpt>
      <trkpt lat="44.75351" lon="-0.3252">
        <ele>104</ele>
      </trkpt>
      <trkpt lat="44.7536" lon="-0.32531">
        <ele>103</ele>
      </trkpt>
      <trkpt lat="44.7537" lon="-0.32541">
        <ele>103</ele>
      </trkpt>
      <trkpt lat="44.75381" lon="-0.32552">
        <ele>103</ele>
      </trkpt>
      <trkpt lat="44.7539" lon="-0.32561">
        <ele>102</ele>
      </trkpt>
      <trkpt lat="44.75399" lon="-0.32574">
        <ele>102</ele>
      </trkpt>
      <trkpt lat="44.75407" lon="-0.32581">
        <ele>102</ele>
      </trkpt>
      <trkpt lat="44.75416" lon="-0.3259">
        <ele>102</ele>
      </trkpt>
      <trkpt lat="44.75423" lon="-0.32599">
        <ele>102</ele>
      </trkpt>
      <trkpt lat="44.75435" lon="-0.3261">
        <ele>102</ele>
      </trkpt>
      <trkpt lat="44.75444" lon="-0.32616">
        <ele>102</ele>
      </trkpt>
      <trkpt lat="44.75455" lon="-0.32624">
        <ele>102</ele>
      </trkpt>
      <trkpt lat="44.75464" lon="-0.32631">
        <ele>103</ele>
      </trkpt>
      <trkpt lat="44.75473" lon="-0.32639">
        <ele>103</ele>
      </trkpt>
      <trkpt lat="44.75481" lon="-0.32647">
        <ele>104</ele>
      </trkpt>
      <trkpt lat="44.75489" lon="-0.32654">
        <ele>104</ele>
      </trkpt>
      <trkpt lat="44.75498" lon="-0.32663">
        <ele>105</ele>
      </trkpt>
      <trkpt lat="44.75508" lon="-0.32671">
        <ele>105</ele>
      </trkpt>
      <trkpt lat="44.75518" lon="-0.32681">
        <ele>106</ele>
      </trkpt>
      <trkpt lat="44.75528" lon="-0.32688">
        <ele>106</ele>
      </trkpt>
      <trkpt lat="44.75538" lon="-0.32696">
        <ele>106</ele>
      </trkpt>
      <trkpt lat="44.75546" lon="-0.32703">
        <ele>106</ele>
      </trkpt>
      <trkpt lat="44.75554" lon="-0.32711">
        <ele>107</ele>
      </trkpt>
      <trkpt lat="44.75566" lon="-0.32722">
        <ele>107</ele>
      </trkpt>
      <trkpt lat="44.75577" lon="-0.32731">
        <ele>107</ele>
      </trkpt>
      <trkpt lat="44.75587" lon="-0.32741">
        <ele>107</ele>
      </trkpt>
      <trkpt lat="44.75596" lon="-0.3275">
        <ele>107</ele>
      </trkpt>
      <trkpt lat="44.75606" lon="-0.32759">
        <ele>107</ele>
      </trkpt>
      <trkpt lat="44.75616" lon="-0.32769">
        <ele>107</ele>
      </trkpt>
      <trkpt lat="44.75625" lon="-0.32779">
        <ele>107</ele>
      </trkpt>
      <trkpt lat="44.75634" lon="-0.32789">
        <ele>107</ele>
      </trkpt>
      <trkpt lat="44.75642" lon="-0.32798">
        <ele>107</ele>
      </trkpt>
      <trkpt lat="44.75653" lon="-0.32808">
        <ele>107</ele>
      </trkpt>
      <trkpt lat="44.75661" lon="-0.32819">
        <ele>107</ele>
      </trkpt>
      <trkpt lat="44.75671" lon="-0.32828">
        <ele>107</ele>
      </trkpt>
      <trkpt lat="44.75682" lon="-0.32826">
        <ele>106</ele>
      </trkpt>
      <trkpt lat="44.75693" lon="-0.32817">
        <ele>106</ele>
      </trkpt>
      <trkpt lat="44.75705" lon="-0.32808">
        <ele>105</ele>
      </trkpt>
      <trkpt lat="44.75717" lon="-0.32798">
        <ele>105</ele>
      </trkpt>
      <trkpt lat="44.75726" lon="-0.32791">
        <ele>104</ele>
      </trkpt>
      <trkpt lat="44.75736" lon="-0.32779">
        <ele>104</ele>
      </trkpt>
      <trkpt lat="44.75745" lon="-0.32764">
        <ele>103</ele>
      </trkpt>
      <trkpt lat="44.75754" lon="-0.32748">
        <ele>102</ele>
      </trkpt>
      <trkpt lat="44.75758" lon="-0.32736">
        <ele>102</ele>
      </trkpt>
      <trkpt lat="44.75765" lon="-0.32718">
        <ele>102</ele>
      </trkpt>
      <trkpt lat="44.75769" lon="-0.32706">
        <ele>101</ele>
      </trkpt>
      <trkpt lat="44.75774" lon="-0.32693">
        <ele>101</ele>
      </trkpt>
      <trkpt lat="44.75779" lon="-0.32675">
        <ele>101</ele>
      </trkpt>
      <trkpt lat="44.75784" lon="-0.32663">
        <ele>101</ele>
      </trkpt>
      <trkpt lat="44.75788" lon="-0.3265">
        <ele>101</ele>
      </trkpt>
      <trkpt lat="44.75793" lon="-0.32637">
        <ele>101</ele>
      </trkpt>
      <trkpt lat="44.75797" lon="-0.32623">
        <ele>102</ele>
      </trkpt>
      <trkpt lat="44.75802" lon="-0.3261">
        <ele>102</ele>
      </trkpt>
      <trkpt lat="44.75806" lon="-0.32597">
        <ele>103</ele>
      </trkpt>
      <trkpt lat="44.75811" lon="-0.32584">
        <ele>103</ele>
      </trkpt>
      <trkpt lat="44.75816" lon="-0.3257">
        <ele>103</ele>
      </trkpt>
      <trkpt lat="44.7582" lon="-0.32557">
        <ele>104</ele>
      </trkpt>
      <trkpt lat="44.75825" lon="-0.32542">
        <ele>104</ele>
      </trkpt>
      <trkpt lat="44.7583" lon="-0.32529">
        <ele>104</ele>
      </trkpt>
      <trkpt lat="44.75834" lon="-0.32515">
        <ele>104</ele>
      </trkpt>
      <trkpt lat="44.75838" lon="-0.32501">
        <ele>104</ele>
      </trkpt>
      <trkpt lat="44.75841" lon="-0.32488">
        <ele>105</ele>
      </trkpt>
      <trkpt lat="44.75845" lon="-0.32473">
        <ele>105</ele>
      </trkpt>
      <trkpt lat="44.75848" lon="-0.32459">
        <ele>105</ele>
      </trkpt>
      <trkpt lat="44.75851" lon="-0.32444">
        <ele>105</ele>
      </trkpt>
      <trkpt lat="44.75854" lon="-0.32429">
        <ele>105</ele>
      </trkpt>
      <trkpt lat="44.75857" lon="-0.32415">
        <ele>105</ele>
      </trkpt>
      <trkpt lat="44.75859" lon="-0.324">
        <ele>105</ele>
      </trkpt>
      <trkpt lat="44.75861" lon="-0.32387">
        <ele>105</ele>
      </trkpt>
      <trkpt lat="44.75864" lon="-0.32373">
        <ele>104</ele>
      </trkpt>
      <trkpt lat="44.75867" lon="-0.32358">
        <ele>105</ele>
      </trkpt>
      <trkpt lat="44.7587" lon="-0.32343">
        <ele>105</ele>
      </trkpt>
      <trkpt lat="44.75873" lon="-0.32329">
        <ele>106</ele>
      </trkpt>
      <trkpt lat="44.75875" lon="-0.32315">
        <ele>106</ele>
      </trkpt>
      <trkpt lat="44.75879" lon="-0.32301">
        <ele>106</ele>
      </trkpt>
      <trkpt lat="44.75883" lon="-0.32287">
        <ele>106</ele>
      </trkpt>
      <trkpt lat="44.75888" lon="-0.32275">
        <ele>107</ele>
      </trkpt>
      <trkpt lat="44.75893" lon="-0.32261">
        <ele>107</ele>
      </trkpt>
      <trkpt lat="44.75898" lon="-0.3225">
        <ele>107</ele>
      </trkpt>
      <trkpt lat="44.75902" lon="-0.32237">
        <ele>107</ele>
      </trkpt>
      <trkpt lat="44.75907" lon="-0.32224">
        <ele>107</ele>
      </trkpt>
      <trkpt lat="44.75912" lon="-0.32212">
        <ele>107</ele>
      </trkpt>
      <trkpt lat="44.75915" lon="-0.32199">
        <ele>107</ele>
      </trkpt>
      <trkpt lat="44.75918" lon="-0.32187">
        <ele>107</ele>
      </trkpt>
      <trkpt lat="44.7592" lon="-0.32173">
        <ele>107</ele>
      </trkpt>
      <trkpt lat="44.75922" lon="-0.32154">
        <ele>107</ele>
      </trkpt>
      <trkpt lat="44.75923" lon="-0.32141">
        <ele>107</ele>
      </trkpt>
      <trkpt lat="44.75925" lon="-0.32127">
        <ele>107</ele>
      </trkpt>
      <trkpt lat="44.75926" lon="-0.32114">
        <ele>107</ele>
      </trkpt>
      <trkpt lat="44.75927" lon="-0.32094">
        <ele>107</ele>
      </trkpt>
      <trkpt lat="44.75929" lon="-0.32081">
        <ele>107</ele>
      </trkpt>
      <trkpt lat="44.7593" lon="-0.32061">
        <ele>107</ele>
      </trkpt>
      <trkpt lat="44.7593" lon="-0.32047">
        <ele>107</ele>
      </trkpt>
      <trkpt lat="44.75932" lon="-0.32029">
        <ele>107</ele>
      </trkpt>
      <trkpt lat="44.75933" lon="-0.32015">
        <ele>107</ele>
      </trkpt>
      <trkpt lat="44.75934" lon="-0.31996">
        <ele>108</ele>
      </trkpt>
      <trkpt lat="44.75934" lon="-0.31976">
        <ele>108</ele>
      </trkpt>
      <trkpt lat="44.75933" lon="-0.31958">
        <ele>108</ele>
      </trkpt>
      <trkpt lat="44.75933" lon="-0.31944">
        <ele>108</ele>
      </trkpt>
      <trkpt lat="44.75932" lon="-0.31925">
        <ele>107</ele>
      </trkpt>
      <trkpt lat="44.75931" lon="-0.31906">
        <ele>107</ele>
      </trkpt>
      <trkpt lat="44.7593" lon="-0.31892">
        <ele>107</ele>
      </trkpt>
      <trkpt lat="44.75929" lon="-0.31879">
        <ele>107</ele>
      </trkpt>
      <trkpt lat="44.75929" lon="-0.31865">
        <ele>107</ele>
      </trkpt>
      <trkpt lat="44.75929" lon="-0.31852">
        <ele>107</ele>
      </trkpt>
      <trkpt lat="44.7593" lon="-0.31838">
        <ele>107</ele>
      </trkpt>
      <trkpt lat="44.75931" lon="-0.31824">
        <ele>107</ele>
      </trkpt>
      <trkpt lat="44.75933" lon="-0.31809">
        <ele>107</ele>
      </trkpt>
      <trkpt lat="44.75935" lon="-0.31796">
        <ele>108</ele>
      </trkpt>
      <trkpt lat="44.75937" lon="-0.31782">
        <ele>108</ele>
      </trkpt>
      <trkpt lat="44.7594" lon="-0.31768">
        <ele>108</ele>
      </trkpt>
      <trkpt lat="44.75943" lon="-0.31755">
        <ele>108</ele>
      </trkpt>
      <trkpt lat="44.75946" lon="-0.31742">
        <ele>109</ele>
      </trkpt>
      <trkpt lat="44.7595" lon="-0.31729">
        <ele>109</ele>
      </trkpt>
      <trkpt lat="44.75953" lon="-0.31717">
        <ele>109</ele>
      </trkpt>
      <trkpt lat="44.75959" lon="-0.31705">
        <ele>109</ele>
      </trkpt>
      <trkpt lat="44.75964" lon="-0.31694">
        <ele>109</ele>
      </trkpt>
      <trkpt lat="44.75974" lon="-0.31679">
        <ele>109</ele>
      </trkpt>
      <trkpt lat="44.7598" lon="-0.31669">
        <ele>108</ele>
      </trkpt>
      <trkpt lat="44.75988" lon="-0.31653">
        <ele>108</ele>
      </trkpt>
      <trkpt lat="44.75994" lon="-0.31635">
        <ele>108</ele>
      </trkpt>
      <trkpt lat="44.75997" lon="-0.31615">
        <ele>108</ele>
      </trkpt>
      <trkpt lat="44.76" lon="-0.31596">
        <ele>108</ele>
      </trkpt>
      <trkpt lat="44.76001" lon="-0.31578">
        <ele>108</ele>
      </trkpt>
      <trkpt lat="44.76003" lon="-0.31559">
        <ele>107</ele>
      </trkpt>
      <trkpt lat="44.76006" lon="-0.31539">
        <ele>107</ele>
      </trkpt>
      <trkpt lat="44.76008" lon="-0.3152">
        <ele>107</ele>
      </trkpt>
      <trkpt lat="44.7601" lon="-0.315">
        <ele>107</ele>
      </trkpt>
      <trkpt lat="44.76012" lon="-0.31482">
        <ele>107</ele>
      </trkpt>
      <trkpt lat="44.76013" lon="-0.31468">
        <ele>107</ele>
      </trkpt>
      <trkpt lat="44.76015" lon="-0.31449">
        <ele>108</ele>
      </trkpt>
      <trkpt lat="44.76017" lon="-0.31432">
        <ele>108</ele>
      </trkpt>
      <trkpt lat="44.76021" lon="-0.31415">
        <ele>108</ele>
      </trkpt>
      <trkpt lat="44.76024" lon="-0.31398">
        <ele>109</ele>
      </trkpt>
      <trkpt lat="44.76025" lon="-0.31382">
        <ele>109</ele>
      </trkpt>
      <trkpt lat="44.7602" lon="-0.3137">
        <ele>110</ele>
      </trkpt>
      <trkpt lat="44.76007" lon="-0.31367">
        <ele>110</ele>
      </trkpt>
      <trkpt lat="44.75996" lon="-0.31366">
        <ele>110</ele>
      </trkpt>
      <trkpt lat="44.75986" lon="-0.31364">
        <ele>110</ele>
      </trkpt>
      <trkpt lat="44.75975" lon="-0.31363">
        <ele>110</ele>
      </trkpt>
      <trkpt lat="44.75962" lon="-0.31361">
        <ele>110</ele>
      </trkpt>
      <trkpt lat="44.75951" lon="-0.31359">
        <ele>110</ele>
      </trkpt>
      <trkpt lat="44.7594" lon="-0.31357">
        <ele>110</ele>
      </trkpt>
      <trkpt lat="44.7593" lon="-0.31355">
        <ele>110</ele>
      </trkpt>
      <trkpt lat="44.75921" lon="-0.31353">
        <ele>110</ele>
      </trkpt>
      <trkpt lat="44.75911" lon="-0.31351">
        <ele>110</ele>
      </trkpt>
      <trkpt lat="44.759" lon="-0.31349">
        <ele>110</ele>
      </trkpt>
      <trkpt lat="44.75889" lon="-0.31348">
        <ele>110</ele>
      </trkpt>
      <trkpt lat="44.75879" lon="-0.31345">
        <ele>110</ele>
      </trkpt>
      <trkpt lat="44.75869" lon="-0.31343">
        <ele>110</ele>
      </trkpt>
      <trkpt lat="44.75859" lon="-0.31342">
        <ele>110</ele>
      </trkpt>
      <trkpt lat="44.7585" lon="-0.3134">
        <ele>109</ele>
      </trkpt>
      <trkpt lat="44.75838" lon="-0.31339">
        <ele>109</ele>
      </trkpt>
      <trkpt lat="44.75829" lon="-0.31337">
        <ele>109</ele>
      </trkpt>
      <trkpt lat="44.75818" lon="-0.31334">
        <ele>108</ele>
      </trkpt>
      <trkpt lat="44.75808" lon="-0.31332">
        <ele>108</ele>
      </trkpt>
      <trkpt lat="44.75797" lon="-0.3133">
        <ele>107</ele>
      </trkpt>
      <trkpt lat="44.75786" lon="-0.31327">
        <ele>107</ele>
      </trkpt>
      <trkpt lat="44.75774" lon="-0.31324">
        <ele>106</ele>
      </trkpt>
      <trkpt lat="44.75761" lon="-0.31322">
        <ele>106</ele>
      </trkpt>
      <trkpt lat="44.7575" lon="-0.3132">
        <ele>105</ele>
      </trkpt>
      <trkpt lat="44.75738" lon="-0.31317">
        <ele>105</ele>
      </trkpt>
      <trkpt lat="44.75729" lon="-0.31315">
        <ele>105</ele>
      </trkpt>
      <trkpt lat="44.75718" lon="-0.31314">
        <ele>104</ele>
      </trkpt>
      <trkpt lat="44.75707" lon="-0.31314">
        <ele>104</ele>
      </trkpt>
      <trkpt lat="44.75694" lon="-0.31313">
        <ele>104</ele>
      </trkpt>
      <trkpt lat="44.75683" lon="-0.31311">
        <ele>103</ele>
      </trkpt>
      <trkpt lat="44.75672" lon="-0.31313">
        <ele>103</ele>
      </trkpt>
      <trkpt lat="44.75662" lon="-0.31312">
        <ele>102</ele>
      </trkpt>
      <trkpt lat="44.7565" lon="-0.31306">
        <ele>102</ele>
      </trkpt>
      <trkpt lat="44.7564" lon="-0.31298">
        <ele>102</ele>
      </trkpt>
    </trkseg>
  </trk>
</gpx>